Darstellungsparameter: Aktuell verwendete Einstellungen:
Skalierung der Graphiken ... ?
xyx+y,   Skalierungsfaktor:      Skalierung: Modus: x, Faktor: 1
Darstellungszeitraum ... ?
Vom - - bis: - -   Zeitraum: 13.09.2009 - 13.10.2009
Min/Max/Avg-Anzeige ... ?
Zeige MMA aktuell
Zeige MMA Monat
Zeige MMA alles
Zeige --A aktuell
Zeige --A Monat
Zeige --A alles
Keine MMA-Anzeige
MMA:
Average (ber die Originaldaten)
MMA-Basis: 13.09.2009 - 13.10.2009
Quicknavigation für Darstellung... ?
Tage:      1T, 2T, 3T, 5T -1T -2T -3T -5T +1T +2T +3T +5T
Wochen: 1W, 2W, 3W -1W -2W -3W +1W +2W +3W
Monate: 1M, 3M, 6M -1M -3M -6M +1M +3M +6M
Jahre:    1J, 3J, 5J, 10J -1J -3J -5J -10J +1J +3J +5J +10J
Nutze für die Darstellung ... ?
Originaldaten oder Mittelwerte auf ...
Stundenbasis Tagesbasis Wochenbasis
Monatsbasis Jahresbasis      Datenbasis: Original-Daten
Darstellen als:
Statistik (Auto) Statistik J:M      Darstellung:
Zur Graphik,    zurück zur Übersicht aller Sensoren.
 
Tabellarische Datenbersicht: ?
 
Sensor: Nr:Datum:Temp:Abs-Feuchte:Windchill:Wind:
Aussen-T/F 1 13-09-2009 00:09:03 14.7 C 7.18 g/m*3 14.7 C 0 km/h
2 13-09-2009 00:21:03 14.6 C 7.51 g/m*3 14.6 C 0 km/h
3 13-09-2009 00:33:03 14.3 C 7.49 g/m*3 14.3 C 0 km/h
4 13-09-2009 00:45:03 14.2 C 7.57 g/m*3 14.2 C 0 km/h
5 13-09-2009 00:57:03 14 C 7.48 g/m*3 14 C 0 km/h
6 13-09-2009 01:09:03 13.7 C 7.58 g/m*3 13.7 C 0 km/h
7 13-09-2009 01:21:04 13.7 C 7.7 g/m*3 13.7 C 0 km/h
8 13-09-2009 01:33:04 13.4 C 7.79 g/m*3 13.4 C 0 km/h
9 13-09-2009 01:45:04 13.2 C 7.81 g/m*3 13.2 C 0 km/h
10 13-09-2009 01:57:04 13.1 C 7.87 g/m*3 13.1 C 0 km/h
11 13-09-2009 02:09:04 13.1 C 7.99 g/m*3 13.1 C 0 km/h
12 13-09-2009 02:21:04 13.1 C 7.99 g/m*3 13.1 C 0 km/h
13 13-09-2009 02:33:04 13.1 C 7.99 g/m*3 13.1 C 0 km/h
14 13-09-2009 02:45:04 13.1 C 7.99 g/m*3 13.1 C 0 km/h
15 13-09-2009 02:57:04 12.8 C 8.06 g/m*3 12.8 C 0 km/h
16 13-09-2009 03:09:04 12.6 C 8.08 g/m*3 12.6 C 0 km/h
17 13-09-2009 03:21:04 12.4 C 8.09 g/m*3 12.4 C 0 km/h
18 13-09-2009 03:33:04 12.3 C 8.04 g/m*3 12.3 C 0 km/h
19 13-09-2009 03:45:04 12.4 C 8.19 g/m*3 12.4 C 0 km/h
20 13-09-2009 03:57:04 12.7 C 8.35 g/m*3 12.7 C 0 km/h
21 13-09-2009 04:09:04 12.8 C 8.4 g/m*3 12.8 C 0 km/h
22 13-09-2009 04:21:04 13 C 8.39 g/m*3 13 C 0 km/h
23 13-09-2009 04:33:04 12.7 C 8.35 g/m*3 12.7 C 0 km/h
24 13-09-2009 04:45:04 13 C 8.73 g/m*3 13 C 0 km/h
25 13-09-2009 04:57:04 13.1 C 8.67 g/m*3 13.1 C 0 km/h
Sensor: Nr:Datum:Temp:Abs-Feuchte:Windchill:Wind:
Aussen-T/F 26 13-09-2009 05:09:05 13.2 C 8.73 g/m*3 13.2 C 0 km/h
27 13-09-2009 05:21:05 13.4 C 8.83 g/m*3 13.4 C 0 km/h
28 13-09-2009 05:33:05 13.4 C 8.72 g/m*3 13.4 C 0 km/h
29 13-09-2009 05:45:05 13.5 C 8.77 g/m*3 13.5 C 0 km/h
30 13-09-2009 05:57:05 13.5 C 8.77 g/m*3 13.5 C 0 km/h
31 13-09-2009 06:09:05 13.6 C 8.83 g/m*3 13.6 C 0 km/h
32 13-09-2009 06:21:05 13.7 C 8.88 g/m*3 13.7 C 0 km/h
33 13-09-2009 06:33:05 13.7 C 8.88 g/m*3 13.7 C 0 km/h
34 13-09-2009 06:45:05 13.7 C 8.88 g/m*3 13.7 C 0 km/h
35 13-09-2009 06:57:05 13.7 C 8.76 g/m*3 13.7 C 0 km/h
36 13-09-2009 07:09:05 13.6 C 8.71 g/m*3 13.6 C 0 km/h
37 13-09-2009 07:21:05 13.1 C 8.56 g/m*3 13.1 C 0 km/h
38 13-09-2009 07:33:05 12.8 C 8.62 g/m*3 12.8 C 0 km/h
39 13-09-2009 07:45:01 12.7 C 8.57 g/m*3 12.7 C 0 km/h
40 13-09-2009 07:57:01 12.7 C 8.57 g/m*3 12.7 C 0 km/h
41 13-09-2009 08:09:02 13 C 8.51 g/m*3 13 C 0 km/h
42 13-09-2009 08:21:01 13.2 C 8.5 g/m*3 13.2 C 0 km/h
43 13-09-2009 08:33:01 13.1 C 8.33 g/m*3 13.1 C 0 km/h
44 13-09-2009 08:45:01 12.9 C 8.45 g/m*3 12.9 C 0 km/h
45 13-09-2009 08:57:01 13.1 C 8.56 g/m*3 13.1 C 0 km/h
46 13-09-2009 09:09:02 13.9 C 8.51 g/m*3 13.9 C 0 km/h
47 13-09-2009 09:21:01 14.2 C 8.18 g/m*3 14.2 C 0 km/h
48 13-09-2009 09:33:01 14.4 C 8.03 g/m*3 14.4 C 0 km/h
49 13-09-2009 09:45:01 14.3 C 7.99 g/m*3 14.3 C 0 km/h
50 13-09-2009 09:57:01 14.5 C 8.08 g/m*3 14.5 C 0 km/h
Sensor: Nr:Datum:Temp:Abs-Feuchte:Windchill:Wind:
Aussen-T/F 51 13-09-2009 10:09:02 14.7 C 8.18 g/m*3 14.7 C 0 km/h
52 13-09-2009 10:21:02 15 C 7.95 g/m*3 15 C 0 km/h
53 13-09-2009 10:33:01 14.7 C 7.68 g/m*3 14.7 C 0 km/h
54 13-09-2009 10:45:02 15 C 7.82 g/m*3 15 C 0 km/h
55 13-09-2009 10:57:02 15.2 C 7.79 g/m*3 15.2 C 0 km/h
56 13-09-2009 11:09:01 15 C 7.82 g/m*3 15 C 0 km/h
57 13-09-2009 11:21:02 14.4 C 8.16 g/m*3 14.4 C 0 km/h
58 13-09-2009 11:33:01 13.8 C 8.58 g/m*3 13.8 C 0 km/h
59 13-09-2009 11:45:02 13.7 C 9.12 g/m*3 13.7 C 0 km/h
60 13-09-2009 11:57:02 13.6 C 9.06 g/m*3 13.6 C 0 km/h
61 13-09-2009 12:09:02 14.3 C 9.09 g/m*3 14.3 C 0 km/h
62 13-09-2009 12:21:02 15.2 C 8.7 g/m*3 15.2 C 0 km/h
63 13-09-2009 12:33:02 15.6 C 8.64 g/m*3 15.6 C 0 km/h
64 13-09-2009 12:45:02 15.5 C 8.46 g/m*3 15.5 C 0 km/h
65 13-09-2009 12:57:02 15.8 C 8.48 g/m*3 15.8 C 0 km/h
66 13-09-2009 13:09:01 15 C 8.21 g/m*3 15 C 0 km/h
67 13-09-2009 13:21:02 14.7 C 9.07 g/m*3 14.7 C 0 km/h
68 13-09-2009 13:33:02 15 C 8.85 g/m*3 15 C 0 km/h
69 13-09-2009 13:45:02 15.7 C 8.7 g/m*3 15.7 C 0 km/h
70 13-09-2009 13:57:02 16.2 C 8.27 g/m*3 16.2 C 0 km/h
71 13-09-2009 14:09:03 16.8 C 8.44 g/m*3 16.8 C 0 km/h
72 13-09-2009 14:21:02 17.3 C 7.96 g/m*3 17.3 C 0 km/h
73 13-09-2009 14:33:02 17.4 C 7.56 g/m*3 17.4 C 0 km/h
74 13-09-2009 14:45:01 17.6 C 7.5 g/m*3 17.6 C 0 km/h
75 13-09-2009 14:57:01 17.4 C 7.26 g/m*3 17.4 C 0 km/h
Sensor: Nr:Datum:Temp:Abs-Feuchte:Windchill:Wind:
Aussen-T/F 76 13-09-2009 15:09:02 17.7 C 7.24 g/m*3 17.7 C 0 km/h
77 13-09-2009 15:21:01 17 C 7.23 g/m*3 17 C 0 km/h
78 13-09-2009 15:33:02 16.3 C 7.49 g/m*3 16.3 C 0 km/h
79 13-09-2009 15:45:02 15.5 C 8.06 g/m*3 15.5 C 0 km/h
80 13-09-2009 15:57:02 15.7 C 8.03 g/m*3 15.7 C 0 km/h
81 13-09-2009 16:09:02 16.4 C 7.68 g/m*3 16.4 C 0 km/h
82 13-09-2009 16:21:01 16.9 C 7.48 g/m*3 16.9 C 0 km/h
83 13-09-2009 16:33:02 17 C 7.52 g/m*3 17 C 0 km/h
84 13-09-2009 16:45:02 16.8 C 7.29 g/m*3 16.8 C 0 km/h
85 13-09-2009 16:57:02 17.2 C 7.32 g/m*3 17.2 C 0 km/h
86 13-09-2009 17:09:02 18.2 C 7.31 g/m*3 18.2 C 0 km/h
87 13-09-2009 17:21:01 17.8 C 7.13 g/m*3 17.8 C 0 km/h
88 13-09-2009 17:33:02 17.4 C 7.26 g/m*3 17.4 C 0 km/h
89 13-09-2009 17:45:01 17.3 C 7.22 g/m*3 17.3 C 0 km/h
90 13-09-2009 17:57:01 16.7 C 7.25 g/m*3 16.7 C 0 km/h
91 13-09-2009 18:09:02 16.4 C 7.54 g/m*3 16.4 C 0 km/h
92 13-09-2009 18:21:02 16.4 C 7.4 g/m*3 16.4 C 0 km/h
93 13-09-2009 18:33:01 16.2 C 7.58 g/m*3 16.2 C 0 km/h
94 13-09-2009 18:45:02 14.7 C 8.44 g/m*3 14.7 C 0 km/h
95 13-09-2009 18:57:02 14.2 C 8.91 g/m*3 14.2 C 0 km/h
96 13-09-2009 19:09:02 13.9 C 9.47 g/m*3 13.9 C 0 km/h
97 13-09-2009 19:21:02 13.6 C 9.77 g/m*3 13.6 C 0 km/h
98 13-09-2009 19:33:01 13.5 C 9.94 g/m*3 13.5 C 0 km/h
99 13-09-2009 19:45:02 13.4 C 10 g/m*3 13.4 C 0 km/h
100 13-09-2009 19:57:02 13.1 C 9.93 g/m*3 13.1 C 0 km/h
Sensor: Nr:Datum:Temp:Abs-Feuchte:Windchill:Wind:
Aussen-T/F 101 13-09-2009 20:09:01 13 C 9.87 g/m*3 13 C 0 km/h
102 13-09-2009 20:21:02 13.1 C 10.04 g/m*3 13.1 C 0 km/h
103 13-09-2009 20:33:01 13 C 10.09 g/m*3 13 C 0 km/h
104 13-09-2009 20:45:03 12.9 C 10.03 g/m*3 12.9 C 0 km/h
105 13-09-2009 20:57:03 12.8 C 9.97 g/m*3 12.8 C 0 km/h
106 13-09-2009 21:09:02 12.5 C 9.78 g/m*3 12.5 C 0 km/h
107 13-09-2009 21:21:03 12.6 C 9.96 g/m*3 12.6 C 0 km/h
108 13-09-2009 21:33:03 12.8 C 10.08 g/m*3 12.8 C 0 km/h
109 13-09-2009 21:45:02 12.9 C 10.26 g/m*3 12.9 C 0 km/h
110 13-09-2009 21:57:02 13.1 C 10.27 g/m*3 13.1 C 0 km/h
111 13-09-2009 22:09:02 13.2 C 10.33 g/m*3 13.2 C 0 km/h
112 13-09-2009 22:21:02 13.3 C 10.4 g/m*3 13.3 C 0 km/h
113 13-09-2009 22:33:03 13.3 C 10.28 g/m*3 13.3 C 0 km/h
114 13-09-2009 22:45:02 13.3 C 10.28 g/m*3 13.3 C 0 km/h
115 13-09-2009 22:57:02 13.3 C 10.28 g/m*3 13.3 C 0 km/h
116 13-09-2009 23:09:02 12.6 C 9.96 g/m*3 12.6 C 0 km/h
117 13-09-2009 23:21:02 12.2 C 9.71 g/m*3 12.2 C 0 km/h
118 13-09-2009 23:34:03 11.8 C 9.58 g/m*3 11.8 C 0 km/h
119 13-09-2009 23:46:03 11.9 C 9.74 g/m*3 11.9 C 0 km/h
120 13-09-2009 23:58:03 12.1 C 9.87 g/m*3 12.1 C 0 km/h
121 14-09-2009 00:10:03 12.1 C 9.87 g/m*3 12.1 C 0 km/h
122 14-09-2009 00:22:03 12.2 C 10.04 g/m*3 12.2 C 0 km/h
123 14-09-2009 00:34:03 12 C 9.91 g/m*3 12 C 0 km/h
124 14-09-2009 00:46:03 11.9 C 9.85 g/m*3 11.9 C 0 km/h
125 14-09-2009 00:58:03 11.5 C 9.61 g/m*3 11.5 C 0 km/h
Sensor: Nr:Datum:Temp:Abs-Feuchte:Windchill:Wind:
Aussen-T/F 126 14-09-2009 01:10:03 11.3 C 9.49 g/m*3 11.3 C 0 km/h
127 14-09-2009 01:22:03 11.3 C 9.59 g/m*3 11.3 C 0 km/h
128 14-09-2009 01:34:03 11.2 C 9.53 g/m*3 11.2 C 0 km/h
129 14-09-2009 01:46:03 11.3 C 9.59 g/m*3 11.3 C 0 km/h
130 14-09-2009 01:58:03 11.3 C 9.59 g/m*3 11.3 C 0 km/h
131 14-09-2009 02:10:03 11.2 C 9.53 g/m*3 11.2 C 0 km/h
132 14-09-2009 02:22:03 11.2 C 9.63 g/m*3 11.2 C 0 km/h
133 14-09-2009 02:34:03 11 C 9.51 g/m*3 11 C 0 km/h
134 14-09-2009 02:46:03 10.9 C 9.45 g/m*3 10.9 C 0 km/h
135 14-09-2009 02:58:03 10.8 C 9.39 g/m*3 10.8 C 0 km/h
136 14-09-2009 03:10:03 10.7 C 9.33 g/m*3 10.7 C 0 km/h
137 14-09-2009 03:22:04 10.7 C 9.33 g/m*3 10.7 C 0 km/h
138 14-09-2009 03:34:04 10.8 C 9.39 g/m*3 10.8 C 0 km/h
139 14-09-2009 03:46:04 10.7 C 9.33 g/m*3 10.7 C 0 km/h
140 14-09-2009 03:58:04 10.8 C 9.39 g/m*3 10.8 C 0 km/h
141 14-09-2009 04:10:04 11 C 9.51 g/m*3 11 C 0 km/h
142 14-09-2009 04:22:04 11.1 C 9.57 g/m*3 11.1 C 0 km/h
143 14-09-2009 04:34:04 11.1 C 9.57 g/m*3 11.1 C 0 km/h
144 14-09-2009 04:46:04 11.1 C 9.57 g/m*3 11.1 C 0 km/h
145 14-09-2009 04:58:04 10.9 C 9.45 g/m*3 10.9 C 0 km/h
146 14-09-2009 05:10:04 10.7 C 9.33 g/m*3 10.7 C 0 km/h
147 14-09-2009 05:22:04 10.7 C 9.33 g/m*3 10.7 C 0 km/h
148 14-09-2009 05:34:04 10.9 C 9.45 g/m*3 10.9 C 0 km/h
149 14-09-2009 05:46:04 10.9 C 9.45 g/m*3 10.9 C 0 km/h
150 14-09-2009 05:58:04 10.9 C 9.45 g/m*3 10.9 C 0 km/h
Sensor: Nr:Datum:Temp:Abs-Feuchte:Windchill:Wind:
Aussen-T/F 151 14-09-2009 06:10:04 10.9 C 9.45 g/m*3 10.9 C 0 km/h
152 14-09-2009 06:22:04 10.9 C 9.45 g/m*3 10.9 C 0 km/h
153 14-09-2009 06:34:04 10.9 C 9.45 g/m*3 10.9 C 0 km/h
154 14-09-2009 06:46:04 11 C 9.51 g/m*3 11 C 0 km/h
155 14-09-2009 06:58:04 11 C 9.51 g/m*3 11 C 0 km/h
156 14-09-2009 07:10:05 11 C 9.51 g/m*3 11 C 0 km/h
157 14-09-2009 07:22:05 11 C 9.51 g/m*3 11 C 0 km/h
158 14-09-2009 07:34:03 11.1 C 9.57 g/m*3 11.1 C 0 km/h
159 14-09-2009 07:46:02 11.1 C 9.57 g/m*3 11.1 C 0 km/h
160 14-09-2009 07:58:03 11.1 C 9.57 g/m*3 11.1 C 0 km/h
161 14-09-2009 08:10:01 11.3 C 9.69 g/m*3 11.3 C 0 km/h
162 14-09-2009 08:22:02 11.5 C 9.81 g/m*3 11.5 C 0 km/h
163 14-09-2009 08:34:02 11.7 C 9.94 g/m*3 11.7 C 0 km/h
164 14-09-2009 08:46:02 11.8 C 10 g/m*3 11.8 C 0 km/h
165 14-09-2009 08:58:02 12.2 C 10.25 g/m*3 12.2 C 0 km/h
166 14-09-2009 09:10:02 12.2 C 10.25 g/m*3 12.2 C 0 km/h
167 14-09-2009 09:22:02 12.3 C 10.32 g/m*3 12.3 C 0 km/h
168 14-09-2009 09:34:02 12.4 C 10.38 g/m*3 12.4 C 0 km/h
169 14-09-2009 09:46:01 12.4 C 10.38 g/m*3 12.4 C 0 km/h
170 14-09-2009 09:58:01 12.3 C 10.32 g/m*3 12.3 C 0 km/h
171 14-09-2009 10:10:02 12.3 C 10.21 g/m*3 12.3 C 0 km/h
172 14-09-2009 10:22:01 12.1 C 10.08 g/m*3 12.1 C 0 km/h
173 14-09-2009 10:34:01 12.1 C 9.97 g/m*3 12.1 C 0 km/h
174 14-09-2009 10:46:01 12.2 C 10.04 g/m*3 12.2 C 0 km/h
175 14-09-2009 10:58:01 12.3 C 10.1 g/m*3 12.3 C 0 km/h
Sensor: Nr:Datum:Temp:Abs-Feuchte:Windchill:Wind:
Aussen-T/F 176 14-09-2009 11:10:01 12.4 C 10.16 g/m*3 12.4 C 0 km/h
177 14-09-2009 11:22:01 12.6 C 10.29 g/m*3 12.6 C 0 km/h
178 14-09-2009 11:34:01 12.6 C 10.29 g/m*3 12.6 C 0 km/h
179 14-09-2009 11:46:01 12.5 C 10.22 g/m*3 12.5 C 0 km/h
180 14-09-2009 11:58:01 12.4 C 10.27 g/m*3 12.4 C 0 km/h
181 14-09-2009 12:10:01 12.5 C 10.33 g/m*3 12.5 C 0 km/h
182 14-09-2009 12:22:02 13.5 C 10.99 g/m*3 13.5 C 0 km/h
183 14-09-2009 12:34:01 13.9 C 11.27 g/m*3 13.9 C 0 km/h
184 14-09-2009 12:46:03 14.3 C 11.43 g/m*3 14.3 C 0 km/h
185 14-09-2009 12:58:03 14.4 C 11.37 g/m*3 14.4 C 0 km/h
186 14-09-2009 13:10:02 13.9 C 10.91 g/m*3 13.9 C 0 km/h
187 14-09-2009 13:22:02 13.8 C 10.84 g/m*3 13.8 C 0 km/h
188 14-09-2009 13:34:02 13.3 C 10.51 g/m*3 13.3 C 0 km/h
189 14-09-2009 13:46:02 13.4 C 10.69 g/m*3 13.4 C 0 km/h
190 14-09-2009 13:58:02 13.2 C 10.56 g/m*3 13.2 C 0 km/h
191 14-09-2009 14:10:02 13 C 10.55 g/m*3 13 C 0 km/h
192 14-09-2009 14:22:02 13.1 C 10.61 g/m*3 13.1 C 0 km/h
193 14-09-2009 14:34:01 13.4 C 10.93 g/m*3 13.4 C 0 km/h
194 14-09-2009 14:46:02 13.4 C 10.93 g/m*3 13.4 C 0 km/h
195 14-09-2009 14:58:02 13.8 C 11.2 g/m*3 13.8 C 0 km/h
196 14-09-2009 15:10:01 13.9 C 11.27 g/m*3 13.9 C 0 km/h
197 14-09-2009 15:22:01 14.5 C 11.57 g/m*3 14.5 C 0 km/h
198 14-09-2009 15:34:02 14.4 C 11.5 g/m*3 14.4 C 0 km/h
199 14-09-2009 15:46:02 15.2 C 11.94 g/m*3 15.2 C 0 km/h
200 14-09-2009 15:58:02 15.5 C 12.16 g/m*3 15.5 C 0 km/h
Sensor: Nr:Datum:Temp:Abs-Feuchte:Windchill:Wind:
Aussen-T/F 201 14-09-2009 16:10:02 15 C 11.54 g/m*3 15 C 0 km/h
202 14-09-2009 16:22:02 14.7 C 11.46 g/m*3 14.7 C 0 km/h
203 14-09-2009 16:34:02 13.8 C 10.72 g/m*3 13.8 C 0 km/h
204 14-09-2009 16:46:01 13.4 C 10.46 g/m*3 13.4 C 0 km/h
205 14-09-2009 16:58:01 13.6 C 10.59 g/m*3 13.6 C 0 km/h
206 14-09-2009 17:10:02 13.7 C 10.66 g/m*3 13.7 C 0 km/h
207 14-09-2009 17:22:01 13.5 C 10.41 g/m*3 13.5 C 0 km/h
208 14-09-2009 17:34:02 13.6 C 10.59 g/m*3 13.6 C 0 km/h
209 14-09-2009 17:46:02 13.7 C 10.66 g/m*3 13.7 C 0 km/h
210 14-09-2009 17:58:03 13.8 C 10.84 g/m*3 13.8 C 0 km/h
211 14-09-2009 18:10:02 13.6 C 10.71 g/m*3 13.6 C 0 km/h
212 14-09-2009 18:22:02 13.2 C 10.45 g/m*3 13.2 C 0 km/h
213 14-09-2009 18:34:02 13 C 10.32 g/m*3 13 C 0 km/h
214 14-09-2009 18:46:02 12.6 C 10.18 g/m*3 12.6 C 0 km/h
215 14-09-2009 18:58:02 12.2 C 9.93 g/m*3 12.2 C 0 km/h
216 14-09-2009 19:10:01 12.1 C 9.87 g/m*3 12.1 C 0 km/h
217 14-09-2009 19:22:02 12 C 9.91 g/m*3 12 C 0 km/h
218 14-09-2009 19:34:01 11.9 C 9.96 g/m*3 11.9 C 0 km/h
219 14-09-2009 19:46:01 11.8 C 9.89 g/m*3 11.8 C 0 km/h
220 14-09-2009 19:58:01 11.7 C 9.94 g/m*3 11.7 C 0 km/h
221 14-09-2009 20:10:02 11.7 C 9.94 g/m*3 11.7 C 0 km/h
222 14-09-2009 20:22:02 11.8 C 10 g/m*3 11.8 C 0 km/h
223 14-09-2009 20:34:02 11.8 C 10 g/m*3 11.8 C 0 km/h
224 14-09-2009 20:46:02 11.6 C 9.87 g/m*3 11.6 C 0 km/h
225 14-09-2009 20:58:02 11.7 C 9.94 g/m*3 11.7 C 0 km/h
Sensor: Nr:Datum:Temp:Abs-Feuchte:Windchill:Wind:
Aussen-T/F 226 14-09-2009 21:10:02 11.8 C 10 g/m*3 11.8 C 0 km/h
227 14-09-2009 21:22:02 11.9 C 10.06 g/m*3 11.9 C 0 km/h
228 14-09-2009 21:34:02 11.9 C 10.06 g/m*3 11.9 C 0 km/h
229 14-09-2009 21:46:02 11.9 C 10.06 g/m*3 11.9 C 0 km/h
230 14-09-2009 21:58:02 11.9 C 10.06 g/m*3 11.9 C 0 km/h
231 14-09-2009 22:10:02 11.8 C 10 g/m*3 11.8 C 0 km/h
232 14-09-2009 22:22:03 11.7 C 9.94 g/m*3 11.7 C 0 km/h
233 14-09-2009 22:34:02 11.7 C 9.94 g/m*3 11.7 C 0 km/h
234 14-09-2009 22:46:02 11.7 C 9.94 g/m*3 11.7 C 0 km/h
235 14-09-2009 22:58:02 11.6 C 9.87 g/m*3 11.6 C 0 km/h
236 14-09-2009 23:11:03 11.5 C 9.81 g/m*3 11.5 C 0 km/h
237 14-09-2009 23:23:03 11.4 C 9.75 g/m*3 11.4 C 0 km/h
238 14-09-2009 23:35:03 11.4 C 9.75 g/m*3 11.4 C 0 km/h
239 14-09-2009 23:47:03 11.5 C 9.81 g/m*3 11.5 C 0 km/h
240 14-09-2009 23:59:03 11.5 C 9.81 g/m*3 11.5 C 0 km/h
241 15-09-2009 00:11:03 11.6 C 9.87 g/m*3 11.6 C 0 km/h
242 15-09-2009 00:23:03 11.4 C 9.75 g/m*3 11.4 C 0 km/h
243 15-09-2009 00:35:03 11.4 C 9.75 g/m*3 11.4 C 0 km/h
244 15-09-2009 00:47:03 11.3 C 9.69 g/m*3 11.3 C 0 km/h
245 15-09-2009 00:59:03 11.3 C 9.69 g/m*3 11.3 C 0 km/h
246 15-09-2009 01:11:03 11.2 C 9.63 g/m*3 11.2 C 0 km/h
247 15-09-2009 01:23:04 11.1 C 9.57 g/m*3 11.1 C 0 km/h
248 15-09-2009 01:35:04 11.1 C 9.57 g/m*3 11.1 C 0 km/h
249 15-09-2009 01:47:04 11.1 C 9.57 g/m*3 11.1 C 0 km/h
250 15-09-2009 01:59:04 11.1 C 9.57 g/m*3 11.1 C 0 km/h
Sensor: Nr:Datum:Temp:Abs-Feuchte:Windchill:Wind:
Aussen-T/F 251 15-09-2009 02:11:04 11.1 C 9.57 g/m*3 11.1 C 0 km/h
252 15-09-2009 02:23:04 11.2 C 9.63 g/m*3 11.2 C 0 km/h
253 15-09-2009 02:35:04 11.2 C 9.63 g/m*3 11.2 C 0 km/h
254 15-09-2009 02:47:04 11.2 C 9.63 g/m*3 11.2 C 0 km/h
255 15-09-2009 02:59:04 11.1 C 9.57 g/m*3 11.1 C 0 km/h
256 15-09-2009 03:11:04 11.2 C 9.63 g/m*3 11.2 C 0 km/h
257 15-09-2009 03:23:04 11.1 C 9.57 g/m*3 11.1 C 0 km/h
258 15-09-2009 03:35:04 11.1 C 9.57 g/m*3 11.1 C 0 km/h
259 15-09-2009 03:47:04 11.1 C 9.57 g/m*3 11.1 C 0 km/h
260 15-09-2009 03:59:04 11.1 C 9.57 g/m*3 11.1 C 0 km/h
261 15-09-2009 04:11:04 11.1 C 9.57 g/m*3 11.1 C 0 km/h
262 15-09-2009 04:23:04 11.1 C 9.57 g/m*3 11.1 C 0 km/h
263 15-09-2009 04:35:04 11.2 C 9.63 g/m*3 11.2 C 0 km/h
264 15-09-2009 04:47:04 11.2 C 9.63 g/m*3 11.2 C 0 km/h
265 15-09-2009 04:59:04 11.3 C 9.69 g/m*3 11.3 C 0 km/h
266 15-09-2009 05:11:04 11.3 C 9.69 g/m*3 11.3 C 0 km/h
267 15-09-2009 05:23:04 11.4 C 9.75 g/m*3 11.4 C 0 km/h
268 15-09-2009 05:35:05 11.4 C 9.75 g/m*3 11.4 C 0 km/h
269 15-09-2009 05:47:05 11.4 C 9.75 g/m*3 11.4 C 0 km/h
270 15-09-2009 05:59:05 11.3 C 9.69 g/m*3 11.3 C 0 km/h
271 15-09-2009 06:11:05 11.3 C 9.69 g/m*3 11.3 C 0 km/h
272 15-09-2009 06:23:05 11.4 C 9.75 g/m*3 11.4 C 0 km/h
273 15-09-2009 06:35:05 11.4 C 9.75 g/m*3 11.4 C 0 km/h
274 15-09-2009 06:47:05 11.4 C 9.75 g/m*3 11.4 C 0 km/h
275 15-09-2009 06:59:05 11.5 C 9.81 g/m*3 11.5 C 0 km/h
Sensor: Nr:Datum:Temp:Abs-Feuchte:Windchill:Wind:
Aussen-T/F 276 15-09-2009 07:11:05 11.5 C 9.81 g/m*3 11.5 C 0 km/h
277 15-09-2009 07:23:05 11.5 C 9.81 g/m*3 11.5 C 0 km/h
278 15-09-2009 07:35:05 11.6 C 9.87 g/m*3 11.6 C 0 km/h
279 15-09-2009 07:47:03 11.6 C 9.87 g/m*3 11.6 C 0 km/h
280 15-09-2009 07:59:03 11.7 C 9.94 g/m*3 11.7 C 0 km/h
281 15-09-2009 08:11:02 11.9 C 10.06 g/m*3 11.9 C 0 km/h
282 15-09-2009 08:23:02 12 C 10.12 g/m*3 12 C 0 km/h
283 15-09-2009 08:35:03 11.9 C 10.06 g/m*3 11.9 C 0 km/h
284 15-09-2009 08:47:02 12.3 C 10.32 g/m*3 12.3 C 0 km/h
285 15-09-2009 08:59:03 12.6 C 10.51 g/m*3 12.6 C 0 km/h
286 15-09-2009 09:11:01 12.8 C 10.64 g/m*3 12.8 C 0 km/h
287 15-09-2009 09:23:02 13.1 C 10.84 g/m*3 13.1 C 0 km/h
288 15-09-2009 09:35:02 13.5 C 11.11 g/m*3 13.5 C 0 km/h
289 15-09-2009 09:47:01 13.3 C 10.98 g/m*3 13.3 C 0 km/h
290 15-09-2009 09:59:01 13.7 C 11.25 g/m*3 13.7 C 0 km/h
291 15-09-2009 10:11:02 13.8 C 11.32 g/m*3 13.8 C 0 km/h
292 15-09-2009 10:23:01 14.2 C 11.6 g/m*3 14.2 C 0 km/h
293 15-09-2009 10:35:02 14.2 C 11.36 g/m*3 14.2 C 0 km/h
294 15-09-2009 10:47:01 14.1 C 11.04 g/m*3 14.1 C 0 km/h
295 15-09-2009 10:59:01 14.4 C 11.13 g/m*3 14.4 C 0 km/h
296 15-09-2009 11:11:02 15.1 C 11.35 g/m*3 15.1 C 0 km/h
297 15-09-2009 11:23:01 15 C 10.39 g/m*3 15 C 0 km/h
298 15-09-2009 11:35:02 15.4 C 10.51 g/m*3 15.4 C 0 km/h
299 15-09-2009 11:47:01 15.8 C 10.63 g/m*3 15.8 C 0 km/h
300 15-09-2009 11:59:01 16 C 10.22 g/m*3 16 C 0 km/h
Sensor: Nr:Datum:Temp:Abs-Feuchte:Windchill:Wind:
Aussen-T/F 301 15-09-2009 12:11:02 16.3 C 10.41 g/m*3 16.3 C 0 km/h
302 15-09-2009 12:23:01 16.5 C 10.25 g/m*3 16.5 C 0 km/h
303 15-09-2009 12:35:02 16.6 C 10.17 g/m*3 16.6 C 0 km/h
304 15-09-2009 12:47:01 16.3 C 10.13 g/m*3 16.3 C 0 km/h
305 15-09-2009 12:59:01 16.2 C 10.2 g/m*3 16.2 C 0 km/h
306 15-09-2009 13:11:02 15.9 C 10.29 g/m*3 15.9 C 0 km/h
307 15-09-2009 13:23:02 15.9 C 10.7 g/m*3 15.9 C 0 km/h
308 15-09-2009 13:35:01 16 C 10.76 g/m*3 16 C 0 km/h
309 15-09-2009 13:47:02 16.2 C 11.03 g/m*3 16.2 C 0 km/h
310 15-09-2009 13:59:02 16.5 C 11.09 g/m*3 16.5 C 0 km/h
311 15-09-2009 14:11:01 16.5 C 10.67 g/m*3 16.5 C 0 km/h
312 15-09-2009 14:23:02 16.3 C 10.68 g/m*3 16.3 C 0 km/h
313 15-09-2009 14:35:01 16.1 C 10.69 g/m*3 16.1 C 0 km/h
314 15-09-2009 14:47:02 15.8 C 10.9 g/m*3 15.8 C 0 km/h
315 15-09-2009 14:59:02 15.5 C 10.84 g/m*3 15.5 C 0 km/h
316 15-09-2009 15:11:02 15.2 C 11.03 g/m*3 15.2 C 0 km/h
317 15-09-2009 15:23:02 15.3 C 11.23 g/m*3 15.3 C 0 km/h
318 15-09-2009 15:35:03 15.4 C 11.3 g/m*3 15.4 C 0 km/h
319 15-09-2009 15:47:02 15.3 C 11.36 g/m*3 15.3 C 0 km/h
320 15-09-2009 15:59:02 15.2 C 11.29 g/m*3 15.2 C 0 km/h
321 15-09-2009 16:11:02 15.1 C 11.35 g/m*3 15.1 C 0 km/h
322 15-09-2009 16:23:01 15 C 11.41 g/m*3 15 C 0 km/h
323 15-09-2009 16:35:02 15 C 11.41 g/m*3 15 C 0 km/h
324 15-09-2009 16:47:02 15 C 11.54 g/m*3 15 C 0 km/h
325 15-09-2009 16:59:02 15 C 11.54 g/m*3 15 C 0 km/h
Sensor: Nr:Datum:Temp:Abs-Feuchte:Windchill:Wind:
Aussen-T/F 326 15-09-2009 17:11:02 15 C 11.54 g/m*3 15 C 0 km/h
327 15-09-2009 17:23:02 15 C 11.54 g/m*3 15 C 0 km/h
328 15-09-2009 17:35:02 15.2 C 11.81 g/m*3 15.2 C 0 km/h
329 15-09-2009 17:47:02 15.4 C 11.96 g/m*3 15.4 C 0 km/h
330 15-09-2009 17:59:02 15.7 C 12.18 g/m*3 15.7 C 0 km/h
331 15-09-2009 18:11:02 15.7 C 12.18 g/m*3 15.7 C 0 km/h
332 15-09-2009 18:23:02 15.8 C 12.25 g/m*3 15.8 C 0 km/h
333 15-09-2009 18:35:02 15.9 C 12.32 g/m*3 15.9 C 0 km/h
334 15-09-2009 18:47:02 15.9 C 12.32 g/m*3 15.9 C 0 km/h
335 15-09-2009 18:59:02 15.8 C 12.25 g/m*3 15.8 C 0 km/h
336 15-09-2009 19:11:02 15.7 C 12.18 g/m*3 15.7 C 0 km/h
337 15-09-2009 19:23:03 15.6 C 12.1 g/m*3 15.6 C 0 km/h
338 15-09-2009 19:35:02 15.4 C 11.96 g/m*3 15.4 C 0 km/h
339 15-09-2009 19:47:02 15.3 C 11.88 g/m*3 15.3 C 0 km/h
340 15-09-2009 19:59:02 15.2 C 11.81 g/m*3 15.2 C 0 km/h
341 15-09-2009 20:11:02 15.2 C 11.81 g/m*3 15.2 C 0 km/h
342 15-09-2009 20:23:02 15.2 C 11.94 g/m*3 15.2 C 0 km/h
343 15-09-2009 20:35:02 15.2 C 11.94 g/m*3 15.2 C 0 km/h
344 15-09-2009 20:47:02 15.1 C 11.87 g/m*3 15.1 C 0 km/h
345 15-09-2009 20:59:02 15.1 C 11.87 g/m*3 15.1 C 0 km/h
346 15-09-2009 21:11:01 15.1 C 11.87 g/m*3 15.1 C 0 km/h
347 15-09-2009 21:23:02 15.1 C 11.87 g/m*3 15.1 C 0 km/h
348 15-09-2009 21:35:02 15 C 11.8 g/m*3 15 C 0 km/h
349 15-09-2009 21:47:02 15 C 11.8 g/m*3 15 C 0 km/h
350 15-09-2009 21:59:03 15 C 11.8 g/m*3 15 C 0 km/h
Sensor: Nr:Datum:Temp:Abs-Feuchte:Windchill:Wind:
Aussen-T/F 351 15-09-2009 22:11:01 14.9 C 11.85 g/m*3 14.9 C 0 km/h
352 15-09-2009 22:23:01 14.8 C 11.78 g/m*3 14.8 C 0 km/h
353 15-09-2009 22:35:02 14.8 C 11.78 g/m*3 14.8 C 0 km/h
354 15-09-2009 22:47:02 14.8 C 11.78 g/m*3 14.8 C 0 km/h
355 15-09-2009 22:59:02 14.7 C 11.71 g/m*3 14.7 C 0 km/h
356 15-09-2009 23:11:01 14.7 C 11.71 g/m*3 14.7 C 0 km/h
357 15-09-2009 23:23:02 14.7 C 11.71 g/m*3 14.7 C 0 km/h
358 15-09-2009 23:36:02 14.6 C 11.64 g/m*3 14.6 C 0 km/h
359 15-09-2009 23:48:02 14.6 C 11.64 g/m*3 14.6 C 0 km/h
360 16-09-2009 00:00:02 14.6 C 11.64 g/m*3 14.6 C 0 km/h
361 16-09-2009 00:12:02 14.6 C 11.64 g/m*3 14.6 C 0 km/h
362 16-09-2009 00:24:02 14.6 C 11.64 g/m*3 14.6 C 0 km/h
363 16-09-2009 00:36:02 14.6 C 11.64 g/m*3 14.6 C 0 km/h
364 16-09-2009 00:48:02 14.6 C 11.64 g/m*3 14.6 C 0 km/h
365 16-09-2009 01:00:02 14.6 C 11.64 g/m*3 14.6 C 0 km/h
366 16-09-2009 01:12:02 14.6 C 11.64 g/m*3 14.6 C 0 km/h
367 16-09-2009 01:24:02 14.6 C 11.64 g/m*3 14.6 C 0 km/h
368 16-09-2009 01:36:02 14.6 C 11.64 g/m*3 14.6 C 0 km/h
369 16-09-2009 01:48:02 14.6 C 11.51 g/m*3 14.6 C 0 km/h
370 16-09-2009 02:00:02 14.4 C 11.37 g/m*3 14.4 C 0 km/h
371 16-09-2009 02:12:02 14.4 C 11.37 g/m*3 14.4 C 0 km/h
372 16-09-2009 02:24:02 14.2 C 11.23 g/m*3 14.2 C 0 km/h
373 16-09-2009 02:36:02 14.6 C 11.51 g/m*3 14.6 C 0 km/h
374 16-09-2009 02:48:02 14.4 C 11.37 g/m*3 14.4 C 0 km/h
375 16-09-2009 03:00:02 14.4 C 11.37 g/m*3 14.4 C 0 km/h
Sensor: Nr:Datum:Temp:Abs-Feuchte:Windchill:Wind:
Aussen-T/F 376 16-09-2009 03:12:02 14.4 C 11.37 g/m*3 14.4 C 0 km/h
377 16-09-2009 03:24:02 14.4 C 11.37 g/m*3 14.4 C 0 km/h
378 16-09-2009 03:36:03 14.4 C 11.37 g/m*3 14.4 C 0 km/h
379 16-09-2009 03:48:03 14.4 C 11.37 g/m*3 14.4 C 0 km/h
380 16-09-2009 04:00:03 14.3 C 11.3 g/m*3 14.3 C 0 km/h
381 16-09-2009 04:12:03 14.3 C 11.3 g/m*3 14.3 C 0 km/h
382 16-09-2009 04:24:03 14.1 C 11.04 g/m*3 14.1 C 0 km/h
383 16-09-2009 04:36:03 14.4 C 11.25 g/m*3 14.4 C 0 km/h
384 16-09-2009 04:48:03 14.4 C 11.13 g/m*3 14.4 C 0 km/h
385 16-09-2009 05:00:03 14.3 C 11.06 g/m*3 14.3 C 0 km/h
386 16-09-2009 05:12:03 14.3 C 11.06 g/m*3 14.3 C 0 km/h
387 16-09-2009 05:24:03 14.3 C 11.06 g/m*3 14.3 C 0 km/h
388 16-09-2009 05:36:03 14.3 C 11.06 g/m*3 14.3 C 0 km/h
389 16-09-2009 05:48:03 14.2 C 10.99 g/m*3 14.2 C 0 km/h
390 16-09-2009 06:00:03 14.3 C 11.06 g/m*3 14.3 C 0 km/h
391 16-09-2009 06:12:03 14.3 C 11.06 g/m*3 14.3 C 0 km/h
392 16-09-2009 06:24:03 14.3 C 10.93 g/m*3 14.3 C 0 km/h
393 16-09-2009 06:36:03 14.3 C 10.93 g/m*3 14.3 C 0 km/h
394 16-09-2009 06:48:03 14.3 C 10.93 g/m*3 14.3 C 0 km/h
395 16-09-2009 07:00:03 14.3 C 10.93 g/m*3 14.3 C 0 km/h
396 16-09-2009 07:12:03 14.4 C 11 g/m*3 14.4 C 0 km/h
397 16-09-2009 07:24:03 14.4 C 11 g/m*3 14.4 C 0 km/h
398 16-09-2009 07:36:03 14.5 C 11.07 g/m*3 14.5 C 0 km/h
399 16-09-2009 07:48:04 14.5 C 11.07 g/m*3 14.5 C 0 km/h
400 16-09-2009 08:00:04 14.5 C 10.94 g/m*3 14.5 C 0 km/h
Sensor: Nr:Datum:Temp:Abs-Feuchte:Windchill:Wind:
Aussen-T/F 401 16-09-2009 08:12:04 14.5 C 10.94 g/m*3 14.5 C 0 km/h
402 16-09-2009 08:24:04 14.6 C 11.01 g/m*3 14.6 C 0 km/h
403 16-09-2009 08:36:04 14.8 C 11.15 g/m*3 14.8 C 0 km/h
404 16-09-2009 08:48:04 14.8 C 11.15 g/m*3 14.8 C 0 km/h
405 16-09-2009 09:00:04 14.8 C 11.15 g/m*3 14.8 C 0 km/h
406 16-09-2009 09:12:02 15 C 11.16 g/m*3 15 C 0 km/h
407 16-09-2009 09:24:02 15.1 C 11.22 g/m*3 15.1 C 0 km/h
408 16-09-2009 09:36:02 15.2 C 11.29 g/m*3 15.2 C 0 km/h
409 16-09-2009 09:48:01 15.4 C 11.3 g/m*3 15.4 C 0 km/h
410 16-09-2009 10:00:01 15.6 C 11.44 g/m*3 15.6 C 0 km/h
411 16-09-2009 10:12:02 15.7 C 11.37 g/m*3 15.7 C 0 km/h
412 16-09-2009 10:24:01 15.9 C 11.51 g/m*3 15.9 C 0 km/h
413 16-09-2009 10:36:02 16 C 11.44 g/m*3 16 C 0 km/h
414 16-09-2009 10:48:01 16.2 C 11.58 g/m*3 16.2 C 0 km/h
415 16-09-2009 11:00:01 16.4 C 11.72 g/m*3 16.4 C 0 km/h
416 16-09-2009 11:12:02 16.5 C 11.65 g/m*3 16.5 C 0 km/h
417 16-09-2009 11:24:02 16.8 C 11.87 g/m*3 16.8 C 0 km/h
418 16-09-2009 11:36:02 17 C 11.87 g/m*3 17 C 0 km/h
419 16-09-2009 11:48:02 17.1 C 11.94 g/m*3 17.1 C 0 km/h
420 16-09-2009 12:00:02 17.3 C 11.93 g/m*3 17.3 C 0 km/h
421 16-09-2009 12:12:01 17.5 C 11.78 g/m*3 17.5 C 0 km/h
422 16-09-2009 12:24:02 17.7 C 11.92 g/m*3 17.7 C 0 km/h
423 16-09-2009 12:36:01 18.1 C 11.9 g/m*3 18.1 C 0 km/h
424 16-09-2009 12:48:02 18.3 C 11.88 g/m*3 18.3 C 0 km/h
425 16-09-2009 13:00:02 18.7 C 12.01 g/m*3 18.7 C 0 km/h
Sensor: Nr:Datum:Temp:Abs-Feuchte:Windchill:Wind:
Aussen-T/F 426 16-09-2009 13:12:01 19.1 C 11.8 g/m*3 19.1 C 0 km/h
427 16-09-2009 13:24:01 19.5 C 11.24 g/m*3 19.5 C 0 km/h
428 16-09-2009 13:36:02 20 C 10.89 g/m*3 20 C 0 km/h
429 16-09-2009 13:48:02 19.9 C 10.82 g/m*3 19.9 C 0 km/h
430 16-09-2009 14:00:02 19.6 C 10.8 g/m*3 19.6 C 0 km/h
431 16-09-2009 14:12:01 19.6 C 10.8 g/m*3 19.6 C 0 km/h
432 16-09-2009 14:24:02 20 C 10.71 g/m*3 20 C 0 km/h
433 16-09-2009 14:36:02 20.4 C 10.44 g/m*3 20.4 C 0 km/h
434 16-09-2009 14:48:02 20.4 C 10.44 g/m*3 20.4 C 0 km/h
435 16-09-2009 15:00:02 20 C 10.54 g/m*3 20 C 0 km/h
436 16-09-2009 15:12:03 20.2 C 10.84 g/m*3 20.2 C 0 km/h
437 16-09-2009 15:24:02 20.3 C 10.73 g/m*3 20.3 C 0 km/h
438 16-09-2009 15:36:02 20.1 C 10.78 g/m*3 20.1 C 0 km/h
439 16-09-2009 15:48:01 20 C 10.89 g/m*3 20 C 0 km/h
440 16-09-2009 16:00:01 19.8 C 11.44 g/m*3 19.8 C 0 km/h
441 16-09-2009 16:12:02 19.6 C 11.48 g/m*3 19.6 C 0 km/h
442 16-09-2009 16:24:01 19.7 C 11.38 g/m*3 19.7 C 0 km/h
443 16-09-2009 16:36:01 19.7 C 11.38 g/m*3 19.7 C 0 km/h
444 16-09-2009 16:48:01 19.7 C 11.38 g/m*3 19.7 C 0 km/h
445 16-09-2009 17:00:01 19.6 C 11.48 g/m*3 19.6 C 0 km/h
446 16-09-2009 17:12:01 19.7 C 11.38 g/m*3 19.7 C 0 km/h
447 16-09-2009 17:24:02 19.7 C 11.21 g/m*3 19.7 C 0 km/h
448 16-09-2009 17:36:01 19.6 C 11.31 g/m*3 19.6 C 0 km/h
449 16-09-2009 17:48:02 19.5 C 11.08 g/m*3 19.5 C 0 km/h
450 16-09-2009 18:00:02 19.4 C 11.35 g/m*3 19.4 C 0 km/h
Sensor: Nr:Datum:Temp:Abs-Feuchte:Windchill:Wind:
Aussen-T/F 451 16-09-2009 18:12:02 19.5 C 11.41 g/m*3 19.5 C 0 km/h
452 16-09-2009 18:24:02 19.4 C 11.35 g/m*3 19.4 C 0 km/h
453 16-09-2009 18:36:03 19.3 C 11.28 g/m*3 19.3 C 0 km/h
454 16-09-2009 18:48:03 19.1 C 11.47 g/m*3 19.1 C 0 km/h
455 16-09-2009 19:00:03 18.8 C 11.6 g/m*3 18.8 C 0 km/h
456 16-09-2009 19:12:02 18.7 C 11.69 g/m*3 18.7 C 0 km/h
457 16-09-2009 19:24:02 18.3 C 11.57 g/m*3 18.3 C 0 km/h
458 16-09-2009 19:36:02 18.1 C 11.59 g/m*3 18.1 C 0 km/h
459 16-09-2009 19:48:02 18.1 C 11.59 g/m*3 18.1 C 0 km/h
460 16-09-2009 20:00:02 17.9 C 11.91 g/m*3 17.9 C 0 km/h
461 16-09-2009 20:12:02 18 C 11.83 g/m*3 18 C 0 km/h
462 16-09-2009 20:24:02 17.8 C 11.84 g/m*3 17.8 C 0 km/h
463 16-09-2009 20:36:01 17.3 C 11.79 g/m*3 17.3 C 0 km/h
464 16-09-2009 20:48:02 17 C 11.72 g/m*3 17 C 0 km/h
465 16-09-2009 21:00:02 16.9 C 11.94 g/m*3 16.9 C 0 km/h
466 16-09-2009 21:12:02 17.2 C 12.15 g/m*3 17.2 C 0 km/h
467 16-09-2009 21:24:01 17.3 C 12.08 g/m*3 17.3 C 0 km/h
468 16-09-2009 21:36:01 17.4 C 12.15 g/m*3 17.4 C 0 km/h
469 16-09-2009 21:48:01 17.4 C 12.15 g/m*3 17.4 C 0 km/h
470 16-09-2009 22:00:01 17.4 C 12 g/m*3 17.4 C 0 km/h
471 16-09-2009 22:12:01 17.3 C 11.79 g/m*3 17.3 C 0 km/h
472 16-09-2009 22:24:01 17.3 C 11.79 g/m*3 17.3 C 0 km/h
473 16-09-2009 22:36:02 17.3 C 11.79 g/m*3 17.3 C 0 km/h
474 16-09-2009 22:48:02 17.3 C 11.64 g/m*3 17.3 C 0 km/h
475 16-09-2009 23:00:02 17.3 C 11.49 g/m*3 17.3 C 0 km/h
Sensor: Nr:Datum:Temp:Abs-Feuchte:Windchill:Wind:
Aussen-T/F 476 16-09-2009 23:12:03 17.2 C 11.42 g/m*3 17.2 C 0 km/h
477 16-09-2009 23:24:02 17.1 C 11.5 g/m*3 17.1 C 0 km/h
478 16-09-2009 23:36:02 17.2 C 11.57 g/m*3 17.2 C 0 km/h
479 16-09-2009 23:48:01 17 C 11.43 g/m*3 17 C 0 km/h
480 17-09-2009 00:00:01 16.7 C 11.37 g/m*3 16.7 C 0 km/h
481 17-09-2009 00:12:02 16.7 C 11.51 g/m*3 16.7 C 0 km/h
482 17-09-2009 00:24:01 16.6 C 11.44 g/m*3 16.6 C 0 km/h
483 17-09-2009 00:36:02 16.6 C 11.44 g/m*3 16.6 C 0 km/h
484 17-09-2009 00:48:01 16.6 C 11.44 g/m*3 16.6 C 0 km/h
485 17-09-2009 01:00:01 16.6 C 11.44 g/m*3 16.6 C 0 km/h
486 17-09-2009 01:12:02 16.6 C 11.44 g/m*3 16.6 C 0 km/h
487 17-09-2009 01:24:01 16.7 C 11.37 g/m*3 16.7 C 0 km/h
488 17-09-2009 01:36:02 16.7 C 11.23 g/m*3 16.7 C 0 km/h
489 17-09-2009 01:48:01 16.5 C 11.23 g/m*3 16.5 C 0 km/h
490 17-09-2009 02:00:01 16.5 C 11.23 g/m*3 16.5 C 0 km/h
491 17-09-2009 02:12:02 16.6 C 11.16 g/m*3 16.6 C 0 km/h
492 17-09-2009 02:24:02 16.6 C 11.16 g/m*3 16.6 C 0 km/h
493 17-09-2009 02:36:02 16.6 C 11.02 g/m*3 16.6 C 0 km/h
494 17-09-2009 02:48:02 16.6 C 11.02 g/m*3 16.6 C 0 km/h
495 17-09-2009 03:00:02 16.6 C 11.02 g/m*3 16.6 C 0 km/h
496 17-09-2009 03:12:01 16.5 C 11.09 g/m*3 16.5 C 0 km/h
497 17-09-2009 03:24:01 16.5 C 11.09 g/m*3 16.5 C 0 km/h
498 17-09-2009 03:36:01 16.5 C 10.95 g/m*3 16.5 C 0 km/h
499 17-09-2009 03:48:01 16.5 C 10.95 g/m*3 16.5 C 0 km/h
500 17-09-2009 04:00:01 16.4 C 10.89 g/m*3 16.4 C 0 km/h
Sensor: Nr:Datum:Temp:Abs-Feuchte:Windchill:Wind:
Aussen-T/F 501 17-09-2009 04:12:01 16.4 C 10.89 g/m*3 16.4 C 0 km/h
502 17-09-2009 04:24:01 16.4 C 10.89 g/m*3 16.4 C 0 km/h
503 17-09-2009 04:36:01 16.3 C 10.68 g/m*3 16.3 C 0 km/h
504 17-09-2009 04:48:01 16.3 C 10.41 g/m*3 16.3 C 0 km/h
505 17-09-2009 05:00:01 16.2 C 10.34 g/m*3 16.2 C 0 km/h
506 17-09-2009 05:12:01 16 C 10.08 g/m*3 16 C 0 km/h
507 17-09-2009 05:24:02 16 C 10.08 g/m*3 16 C 0 km/h
508 17-09-2009 05:36:01 15.9 C 10.16 g/m*3 15.9 C 0 km/h
509 17-09-2009 05:48:02 15.8 C 10.1 g/m*3 15.8 C 0 km/h
510 17-09-2009 06:00:02 15.8 C 10.1 g/m*3 15.8 C 0 km/h
511 17-09-2009 06:12:01 15.6 C 9.97 g/m*3 15.6 C 0 km/h
512 17-09-2009 06:24:02 15.4 C 9.85 g/m*3 15.4 C 0 km/h
513 17-09-2009 06:36:01 15.4 C 9.85 g/m*3 15.4 C 0 km/h
514 17-09-2009 06:48:02 15.4 C 9.72 g/m*3 15.4 C 0 km/h
515 17-09-2009 07:00:02 15.3 C 9.79 g/m*3 15.3 C 0 km/h
516 17-09-2009 07:12:01 15.3 C 9.79 g/m*3 15.3 C 0 km/h
517 17-09-2009 07:24:01 15.3 C 9.66 g/m*3 15.3 C 0 km/h
518 17-09-2009 07:36:02 15.2 C 9.61 g/m*3 15.2 C 0 km/h
519 17-09-2009 07:48:01 15.2 C 9.48 g/m*3 15.2 C 0 km/h
520 17-09-2009 08:00:01 15.2 C 9.35 g/m*3 15.2 C 0 km/h
521 17-09-2009 08:12:01 15.1 C 9.42 g/m*3 15.1 C 0 km/h
522 17-09-2009 08:24:01 15.2 C 9.48 g/m*3 15.2 C 0 km/h
523 17-09-2009 08:36:02 15.3 C 9.27 g/m*3 15.3 C 0 km/h
524 17-09-2009 08:48:01 15.2 C 9.09 g/m*3 15.2 C 0 km/h
525 17-09-2009 09:00:01 15.4 C 9.07 g/m*3 15.4 C 0 km/h
Sensor: Nr:Datum:Temp:Abs-Feuchte:Windchill:Wind:
Aussen-T/F 526 17-09-2009 09:12:02 15.5 C 8.99 g/m*3 15.5 C 0 km/h
527 17-09-2009 09:24:01 15.7 C 9.1 g/m*3 15.7 C 0 km/h
528 17-09-2009 09:36:01 15.9 C 9.07 g/m*3 15.9 C 0 km/h
529 17-09-2009 09:48:01 16.1 C 8.77 g/m*3 16.1 C 0 km/h
530 17-09-2009 10:00:01 16.2 C 8.69 g/m*3 16.2 C 0 km/h
531 17-09-2009 10:12:02 16.4 C 8.79 g/m*3 16.4 C 0 km/h
532 17-09-2009 10:24:01 16.6 C 8.76 g/m*3 16.6 C 0 km/h
533 17-09-2009 10:36:01 17 C 8.54 g/m*3 17 C 0 km/h
534 17-09-2009 10:48:01 17.3 C 8.84 g/m*3 17.3 C 0 km/h
535 17-09-2009 11:00:01 17 C 8.68 g/m*3 17 C 0 km/h
536 17-09-2009 11:12:01 17.3 C 8.69 g/m*3 17.3 C 0 km/h
537 17-09-2009 11:24:01 17.4 C 8.6 g/m*3 17.4 C 0 km/h
538 17-09-2009 11:36:01 17.7 C 8.75 g/m*3 17.7 C 0 km/h
539 17-09-2009 11:48:01 18.1 C 8.65 g/m*3 18.1 C 0 km/h
540 17-09-2009 12:00:01 18.2 C 8.7 g/m*3 18.2 C 0 km/h
541 17-09-2009 12:12:01 18.7 C 8.81 g/m*3 18.7 C 0 km/h
542 17-09-2009 12:24:02 18.8 C 9.02 g/m*3 18.8 C 0 km/h
543 17-09-2009 12:36:01 19.3 C 8.96 g/m*3 19.3 C 0 km/h
544 17-09-2009 12:48:02 20.4 C 8.67 g/m*3 20.4 C 0 km/h
545 17-09-2009 13:00:02 20.9 C 9.11 g/m*3 20.9 C 0 km/h
546 17-09-2009 13:12:01 20.8 C 8.87 g/m*3 20.8 C 0 km/h
547 17-09-2009 13:24:02 21 C 8.43 g/m*3 21 C 0 km/h
548 17-09-2009 13:36:01 21.6 C 8.53 g/m*3 21.6 C 0 km/h
549 17-09-2009 13:48:02 22 C 8.73 g/m*3 22 C 0 km/h
550 17-09-2009 14:00:02 22.9 C 8.38 g/m*3 22.9 C 0 km/h
Sensor: Nr:Datum:Temp:Abs-Feuchte:Windchill:Wind:
Aussen-T/F 551 17-09-2009 14:12:01 23.8 C 7.96 g/m*3 23.8 C 0 km/h
552 17-09-2009 14:24:01 23.3 C 8.36 g/m*3 23.3 C 0 km/h
553 17-09-2009 14:36:02 23.1 C 8.68 g/m*3 23.1 C 0 km/h
554 17-09-2009 14:48:01 23.2 C 8.52 g/m*3 23.2 C 0 km/h
555 17-09-2009 15:00:01 23 C 9.25 g/m*3 23 C 0 km/h
556 17-09-2009 15:12:01 22.7 C 9.09 g/m*3 22.7 C 0 km/h
557 17-09-2009 15:24:01 23.2 C 8.94 g/m*3 23.2 C 0 km/h
558 17-09-2009 15:36:02 23.7 C 9.2 g/m*3 23.7 C 0 km/h
559 17-09-2009 15:48:01 23.2 C 8.94 g/m*3 23.2 C 0 km/h
560 17-09-2009 16:00:01 24.2 C 9.24 g/m*3 24.2 C 0 km/h
561 17-09-2009 16:12:02 25.1 C 8.33 g/m*3 25.1 C 0 km/h
562 17-09-2009 16:24:01 25.6 C 9.05 g/m*3 25.6 C 0 km/h
563 17-09-2009 16:36:01 26.3 C 8.66 g/m*3 26.3 C 0 km/h
564 17-09-2009 16:48:01 26.7 C 8.35 g/m*3 26.7 C 0 km/h
565 17-09-2009 17:00:01 26.4 C 7.97 g/m*3 26.4 C 0 km/h
566 17-09-2009 17:12:02 26.1 C 8.81 g/m*3 26.1 C 0 km/h
567 17-09-2009 17:24:01 24.5 C 9.4 g/m*3 24.5 C 0 km/h
568 17-09-2009 17:36:01 24.2 C 9.46 g/m*3 24.2 C 0 km/h
569 17-09-2009 17:48:01 24.5 C 9.4 g/m*3 24.5 C 0 km/h
570 17-09-2009 18:00:01 24.8 C 9.56 g/m*3 24.8 C 0 km/h
571 17-09-2009 18:12:01 24.4 C 9.35 g/m*3 24.4 C 0 km/h
572 17-09-2009 18:24:02 23.1 C 9.72 g/m*3 23.1 C 0 km/h
573 17-09-2009 18:36:01 22.1 C 9.76 g/m*3 22.1 C 0 km/h
574 17-09-2009 18:48:01 21.3 C 10.07 g/m*3 21.3 C 0 km/h
575 17-09-2009 19:00:01 20.5 C 10.14 g/m*3 20.5 C 0 km/h
Sensor: Nr:Datum:Temp:Abs-Feuchte:Windchill:Wind:
Aussen-T/F 576 17-09-2009 19:12:01 19.8 C 10.08 g/m*3 19.8 C 0 km/h
577 17-09-2009 19:24:02 19.4 C 10.01 g/m*3 19.4 C 0 km/h
578 17-09-2009 19:36:01 18.9 C 10.04 g/m*3 18.9 C 0 km/h
579 17-09-2009 19:48:02 18.6 C 10.03 g/m*3 18.6 C 0 km/h
580 17-09-2009 20:00:02 18.2 C 9.95 g/m*3 18.2 C 0 km/h
581 17-09-2009 20:12:01 17.9 C 10.08 g/m*3 17.9 C 0 km/h
582 17-09-2009 20:24:02 17.6 C 10.05 g/m*3 17.6 C 0 km/h
583 17-09-2009 20:36:01 17.3 C 10.02 g/m*3 17.3 C 0 km/h
584 17-09-2009 20:48:02 17.1 C 9.9 g/m*3 17.1 C 0 km/h
585 17-09-2009 21:00:02 16.8 C 9.87 g/m*3 16.8 C 0 km/h
586 17-09-2009 21:12:01 16.9 C 10.21 g/m*3 16.9 C 0 km/h
587 17-09-2009 21:24:02 17 C 9.98 g/m*3 17 C 0 km/h
588 17-09-2009 21:36:01 16.9 C 10.21 g/m*3 16.9 C 0 km/h
589 17-09-2009 21:48:02 17 C 10.27 g/m*3 17 C 0 km/h
590 17-09-2009 22:00:02 17.3 C 10.31 g/m*3 17.3 C 0 km/h
591 17-09-2009 22:12:01 17.2 C 10.25 g/m*3 17.2 C 0 km/h
592 17-09-2009 22:24:01 17.2 C 9.96 g/m*3 17.2 C 0 km/h
593 17-09-2009 22:37:02 17.1 C 9.75 g/m*3 17.1 C 0 km/h
594 17-09-2009 22:49:03 17.2 C 9.81 g/m*3 17.2 C 0 km/h
595 17-09-2009 23:01:03 17 C 9.12 g/m*3 17 C 0 km/h
596 17-09-2009 23:13:03 17 C 8.83 g/m*3 17 C 0 km/h
597 17-09-2009 23:25:03 17.1 C 9.32 g/m*3 17.1 C 0 km/h
598 17-09-2009 23:37:03 17 C 8.97 g/m*3 17 C 0 km/h
599 17-09-2009 23:49:03 17 C 9.12 g/m*3 17 C 0 km/h
600 18-09-2009 00:01:03 16.8 C 9.15 g/m*3 16.8 C 0 km/h
Sensor: Nr:Datum:Temp:Abs-Feuchte:Windchill:Wind:
Aussen-T/F 601 18-09-2009 00:13:03 16.5 C 9.13 g/m*3 16.5 C 0 km/h
602 18-09-2009 00:25:03 16.3 C 9.02 g/m*3 16.3 C 0 km/h
603 18-09-2009 00:37:03 16.2 C 8.96 g/m*3 16.2 C 0 km/h
604 18-09-2009 00:49:03 16.1 C 8.91 g/m*3 16.1 C 0 km/h
605 18-09-2009 01:01:03 16 C 8.99 g/m*3 16 C 0 km/h
606 18-09-2009 01:13:03 16 C 8.86 g/m*3 16 C 0 km/h
607 18-09-2009 01:25:03 16.2 C 8.96 g/m*3 16.2 C 0 km/h
608 18-09-2009 01:37:03 16.2 C 8.83 g/m*3 16.2 C 0 km/h
609 18-09-2009 01:49:03 16.2 C 8.96 g/m*3 16.2 C 0 km/h
610 18-09-2009 02:01:03 15.9 C 8.94 g/m*3 15.9 C 0 km/h
611 18-09-2009 02:13:03 15.4 C 8.8 g/m*3 15.4 C 0 km/h
612 18-09-2009 02:25:03 15 C 8.72 g/m*3 15 C 0 km/h
613 18-09-2009 02:37:03 14.5 C 8.71 g/m*3 14.5 C 0 km/h
614 18-09-2009 02:49:04 14.3 C 8.85 g/m*3 14.3 C 0 km/h
615 18-09-2009 03:01:04 14 C 8.68 g/m*3 14 C 0 km/h
616 18-09-2009 03:13:04 13.7 C 8.76 g/m*3 13.7 C 0 km/h
617 18-09-2009 03:25:04 13.6 C 8.83 g/m*3 13.6 C 0 km/h
618 18-09-2009 03:37:04 13.6 C 8.94 g/m*3 13.6 C 0 km/h
619 18-09-2009 03:49:04 13.4 C 8.83 g/m*3 13.4 C 0 km/h
620 18-09-2009 04:01:04 13.2 C 8.73 g/m*3 13.2 C 0 km/h
621 18-09-2009 04:13:04 13 C 8.73 g/m*3 13 C 0 km/h
622 18-09-2009 04:25:04 13 C 8.85 g/m*3 13 C 0 km/h
623 18-09-2009 04:37:04 13.1 C 8.9 g/m*3 13.1 C 0 km/h
624 18-09-2009 04:49:04 13.3 C 9.13 g/m*3 13.3 C 0 km/h
625 18-09-2009 05:01:04 13.5 C 9.24 g/m*3 13.5 C 0 km/h
Sensor: Nr:Datum:Temp:Abs-Feuchte:Windchill:Wind:
Aussen-T/F 626 18-09-2009 05:13:04 13.5 C 9.24 g/m*3 13.5 C 0 km/h
627 18-09-2009 05:25:04 13.3 C 9.13 g/m*3 13.3 C 0 km/h
628 18-09-2009 05:37:04 13 C 9.07 g/m*3 13 C 0 km/h
629 18-09-2009 05:49:04 12.7 C 9.02 g/m*3 12.7 C 0 km/h
630 18-09-2009 06:01:04 12.5 C 9.02 g/m*3 12.5 C 0 km/h
631 18-09-2009 06:13:04 12.5 C 9.02 g/m*3 12.5 C 0 km/h
632 18-09-2009 06:25:05 12.6 C 9.18 g/m*3 12.6 C 0 km/h
633 18-09-2009 06:37:05 12.7 C 9.24 g/m*3 12.7 C 0 km/h
634 18-09-2009 06:49:05 12.8 C 9.18 g/m*3 12.8 C 0 km/h
635 18-09-2009 07:01:02 12.7 C 9.13 g/m*3 12.7 C 0 km/h
636 18-09-2009 07:13:02 12.8 C 9.3 g/m*3 12.8 C 0 km/h
637 18-09-2009 07:25:02 12.9 C 9.35 g/m*3 12.9 C 0 km/h
638 18-09-2009 07:37:02 13 C 9.41 g/m*3 13 C 0 km/h
639 18-09-2009 07:49:02 13.3 C 9.47 g/m*3 13.3 C 0 km/h
640 18-09-2009 08:01:02 13.4 C 9.53 g/m*3 13.4 C 0 km/h
641 18-09-2009 08:13:02 13.3 C 9.36 g/m*3 13.3 C 0 km/h
642 18-09-2009 08:25:02 13.4 C 9.42 g/m*3 13.4 C 0 km/h
643 18-09-2009 08:37:02 13.5 C 9.47 g/m*3 13.5 C 0 km/h
644 18-09-2009 08:49:02 13.7 C 9.47 g/m*3 13.7 C 0 km/h
645 18-09-2009 09:01:02 13.6 C 9.3 g/m*3 13.6 C 0 km/h
646 18-09-2009 09:13:02 13.8 C 9.53 g/m*3 13.8 C 0 km/h
647 18-09-2009 09:25:03 14 C 9.53 g/m*3 14 C 0 km/h
648 18-09-2009 09:37:02 14 C 9.29 g/m*3 14 C 0 km/h
649 18-09-2009 09:49:03 14 C 9.29 g/m*3 14 C 0 km/h
650 18-09-2009 10:01:02 14.4 C 9.39 g/m*3 14.4 C 0 km/h
Sensor: Nr:Datum:Temp:Abs-Feuchte:Windchill:Wind:
Aussen-T/F 651 18-09-2009 10:13:02 14.7 C 9.32 g/m*3 14.7 C 0 km/h
652 18-09-2009 10:25:02 15 C 9.23 g/m*3 15 C 0 km/h
653 18-09-2009 10:37:02 15.8 C 9.29 g/m*3 15.8 C 0 km/h
654 18-09-2009 10:49:02 16.4 C 9.49 g/m*3 16.4 C 0 km/h
655 18-09-2009 11:01:02 17 C 9.55 g/m*3 17 C 0 km/h
656 18-09-2009 11:13:02 17.5 C 9.69 g/m*3 17.5 C 0 km/h
657 18-09-2009 11:25:02 17.7 C 9.66 g/m*3 17.7 C 0 km/h
658 18-09-2009 11:37:01 18.6 C 9.39 g/m*3 18.6 C 0 km/h
659 18-09-2009 11:49:02 19.1 C 8.85 g/m*3 19.1 C 0 km/h
660 18-09-2009 12:01:01 19.5 C 8.73 g/m*3 19.5 C 0 km/h
661 18-09-2009 12:13:01 19.7 C 8.83 g/m*3 19.7 C 0 km/h
662 18-09-2009 12:25:01 20 C 8.81 g/m*3 20 C 0 km/h
663 18-09-2009 12:37:02 20.3 C 8.97 g/m*3 20.3 C 0 km/h
664 18-09-2009 12:49:02 20.6 C 9.13 g/m*3 20.6 C 0 km/h
665 18-09-2009 13:01:02 21 C 9.16 g/m*3 21 C 0 km/h
666 18-09-2009 13:13:02 21.5 C 9.24 g/m*3 21.5 C 0 km/h
667 18-09-2009 13:25:02 21.9 C 9.26 g/m*3 21.9 C 0 km/h
668 18-09-2009 13:37:02 22.7 C 9.29 g/m*3 22.7 C 0 km/h
669 18-09-2009 13:49:01 23 C 8.84 g/m*3 23 C 0 km/h
670 18-09-2009 14:01:02 23.6 C 8.93 g/m*3 23.6 C 0 km/h
671 18-09-2009 14:13:02 24.1 C 8.75 g/m*3 24.1 C 0 km/h
672 18-09-2009 14:25:01 24.7 C 9.05 g/m*3 24.7 C 0 km/h
673 18-09-2009 14:37:01 24.4 C 8.46 g/m*3 24.4 C 0 km/h
674 18-09-2009 14:49:01 23.7 C 8.98 g/m*3 23.7 C 0 km/h
675 18-09-2009 15:01:02 23.6 C 9.15 g/m*3 23.6 C 0 km/h
Sensor: Nr:Datum:Temp:Abs-Feuchte:Windchill:Wind:
Aussen-T/F 676 18-09-2009 15:13:02 23.9 C 9.3 g/m*3 23.9 C 0 km/h
677 18-09-2009 15:25:02 24.9 C 8.7 g/m*3 24.9 C 0 km/h
678 18-09-2009 15:37:01 25.8 C 8.91 g/m*3 25.8 C 0 km/h
679 18-09-2009 15:49:01 25.5 C 9.47 g/m*3 25.5 C 0 km/h
680 18-09-2009 16:01:01 25 C 9.44 g/m*3 25 C 0 km/h
681 18-09-2009 16:13:01 24 C 10.01 g/m*3 24 C 0 km/h
682 18-09-2009 16:25:02 23.4 C 10.72 g/m*3 23.4 C 0 km/h
683 18-09-2009 16:37:01 23.3 C 10.66 g/m*3 23.3 C 0 km/h
684 18-09-2009 16:49:02 23.1 C 10.54 g/m*3 23.1 C 0 km/h
685 18-09-2009 17:01:01 23.2 C 11.02 g/m*3 23.2 C 0 km/h
686 18-09-2009 17:13:01 22.9 C 11.24 g/m*3 22.9 C 0 km/h
687 18-09-2009 17:25:02 24.5 C 10.97 g/m*3 24.5 C 0 km/h
688 18-09-2009 17:37:01 25.7 C 10.53 g/m*3 25.7 C 0 km/h
689 18-09-2009 17:49:02 26.7 C 9.87 g/m*3 26.7 C 0 km/h
690 18-09-2009 18:01:02 26.6 C 9.57 g/m*3 26.6 C 0 km/h
691 18-09-2009 18:13:02 26.3 C 9.16 g/m*3 26.3 C 0 km/h
692 18-09-2009 18:25:02 25.7 C 9.58 g/m*3 25.7 C 0 km/h
693 18-09-2009 18:37:02 24.4 C 10.01 g/m*3 24.4 C 0 km/h
694 18-09-2009 18:49:02 23.2 C 10.19 g/m*3 23.2 C 0 km/h
695 18-09-2009 19:01:02 22.4 C 10.72 g/m*3 22.4 C 0 km/h
696 18-09-2009 19:13:02 21.7 C 10.68 g/m*3 21.7 C 0 km/h
697 18-09-2009 19:25:01 21.1 C 10.69 g/m*3 21.1 C 0 km/h
698 18-09-2009 19:37:02 20.8 C 10.68 g/m*3 20.8 C 0 km/h
699 18-09-2009 19:49:02 20.4 C 10.79 g/m*3 20.4 C 0 km/h
700 18-09-2009 20:01:02 20.1 C 10.78 g/m*3 20.1 C 0 km/h
Sensor: Nr:Datum:Temp:Abs-Feuchte:Windchill:Wind:
Aussen-T/F 701 18-09-2009 20:13:02 20 C 10.71 g/m*3 20 C 0 km/h
702 18-09-2009 20:25:02 19.9 C 10.82 g/m*3 19.9 C 0 km/h
703 18-09-2009 20:37:02 20 C 10.89 g/m*3 20 C 0 km/h
704 18-09-2009 20:49:02 20.1 C 10.95 g/m*3 20.1 C 0 km/h
705 18-09-2009 21:01:02 20 C 11.06 g/m*3 20 C 0 km/h
706 18-09-2009 21:13:02 19.9 C 11.17 g/m*3 19.9 C 0 km/h
707 18-09-2009 21:25:02 19.8 C 11.27 g/m*3 19.8 C 0 km/h
708 18-09-2009 21:37:02 19.6 C 11.14 g/m*3 19.6 C 0 km/h
709 18-09-2009 21:49:01 19.5 C 10.91 g/m*3 19.5 C 0 km/h
710 18-09-2009 22:01:01 19.5 C 10.74 g/m*3 19.5 C 0 km/h
711 18-09-2009 22:13:01 19.5 C 10.74 g/m*3 19.5 C 0 km/h
712 18-09-2009 22:25:01 19.5 C 10.57 g/m*3 19.5 C 0 km/h
713 18-09-2009 22:37:02 19.6 C 10.47 g/m*3 19.6 C 0 km/h
714 18-09-2009 22:50:01 19.6 C 10.64 g/m*3 19.6 C 0 km/h
715 18-09-2009 23:02:01 19.6 C 10.47 g/m*3 19.6 C 0 km/h
716 18-09-2009 23:14:01 19.6 C 10.47 g/m*3 19.6 C 0 km/h
717 18-09-2009 23:26:01 19.5 C 10.41 g/m*3 19.5 C 0 km/h
718 18-09-2009 23:38:02 19.5 C 10.24 g/m*3 19.5 C 0 km/h
719 18-09-2009 23:50:02 19.5 C 10.24 g/m*3 19.5 C 0 km/h
720 19-09-2009 00:02:02 19.5 C 10.24 g/m*3 19.5 C 0 km/h
721 19-09-2009 00:14:02 19.4 C 10.18 g/m*3 19.4 C 0 km/h
722 19-09-2009 00:26:02 19.3 C 10.28 g/m*3 19.3 C 0 km/h
723 19-09-2009 00:38:02 19.2 C 10.39 g/m*3 19.2 C 0 km/h
724 19-09-2009 00:50:02 18.9 C 10.69 g/m*3 18.9 C 0 km/h
725 19-09-2009 01:02:02 18.7 C 10.73 g/m*3 18.7 C 0 km/h
Sensor: Nr:Datum:Temp:Abs-Feuchte:Windchill:Wind:
Aussen-T/F 726 19-09-2009 01:14:02 18.7 C 10.73 g/m*3 18.7 C 0 km/h
727 19-09-2009 01:26:02 18.6 C 10.82 g/m*3 18.6 C 0 km/h
728 19-09-2009 01:38:02 18.5 C 10.92 g/m*3 18.5 C 0 km/h
729 19-09-2009 01:50:02 18.4 C 10.85 g/m*3 18.4 C 0 km/h
730 19-09-2009 02:02:02 18.3 C 10.79 g/m*3 18.3 C 0 km/h
731 19-09-2009 02:14:02 18.1 C 10.66 g/m*3 18.1 C 0 km/h
732 19-09-2009 02:26:02 18.1 C 10.82 g/m*3 18.1 C 0 km/h
733 19-09-2009 02:38:02 18.1 C 10.97 g/m*3 18.1 C 0 km/h
734 19-09-2009 02:50:02 18.1 C 10.97 g/m*3 18.1 C 0 km/h
735 19-09-2009 03:02:02 17.9 C 10.99 g/m*3 17.9 C 0 km/h
736 19-09-2009 03:14:02 17.9 C 10.99 g/m*3 17.9 C 0 km/h
737 19-09-2009 03:26:03 17.9 C 10.69 g/m*3 17.9 C 0 km/h
738 19-09-2009 03:38:03 17.9 C 10.69 g/m*3 17.9 C 0 km/h
739 19-09-2009 03:50:03 17.9 C 10.54 g/m*3 17.9 C 0 km/h
740 19-09-2009 04:02:03 17.9 C 10.54 g/m*3 17.9 C 0 km/h
741 19-09-2009 04:14:03 17.9 C 10.54 g/m*3 17.9 C 0 km/h
742 19-09-2009 04:26:03 18 C 10.44 g/m*3 18 C 0 km/h
743 19-09-2009 04:38:03 17.9 C 10.54 g/m*3 17.9 C 0 km/h
744 19-09-2009 04:50:03 18 C 10.44 g/m*3 18 C 0 km/h
745 19-09-2009 05:02:03 18 C 10.29 g/m*3 18 C 0 km/h
746 19-09-2009 05:14:03 18 C 10.6 g/m*3 18 C 0 km/h
747 19-09-2009 05:26:03 17.9 C 10.69 g/m*3 17.9 C 0 km/h
748 19-09-2009 05:38:03 17.9 C 10.69 g/m*3 17.9 C 0 km/h
749 19-09-2009 05:50:03 17.8 C 10.78 g/m*3 17.8 C 0 km/h
750 19-09-2009 06:02:03 17.7 C 10.71 g/m*3 17.7 C 0 km/h
Sensor: Nr:Datum:Temp:Abs-Feuchte:Windchill:Wind:
Aussen-T/F 751 19-09-2009 06:14:03 17.5 C 10.73 g/m*3 17.5 C 0 km/h
752 19-09-2009 06:26:03 17.4 C 10.52 g/m*3 17.4 C 0 km/h
753 19-09-2009 06:38:03 17.3 C 10.61 g/m*3 17.3 C 0 km/h
754 19-09-2009 06:50:03 17.1 C 10.48 g/m*3 17.1 C 0 km/h
755 19-09-2009 07:02:03 16.9 C 10.5 g/m*3 16.9 C 0 km/h
756 19-09-2009 07:14:03 16.6 C 10.45 g/m*3 16.6 C 0 km/h
757 19-09-2009 07:26:04 16.6 C 10.45 g/m*3 16.6 C 0 km/h
758 19-09-2009 07:38:04 16.6 C 10.45 g/m*3 16.6 C 0 km/h
759 19-09-2009 07:50:04 16.6 C 10.45 g/m*3 16.6 C 0 km/h
760 19-09-2009 08:02:01 16.8 C 10.58 g/m*3 16.8 C 0 km/h
761 19-09-2009 08:14:01 17 C 10.56 g/m*3 17 C 0 km/h
762 19-09-2009 08:26:02 17.2 C 10.69 g/m*3 17.2 C 0 km/h
763 19-09-2009 08:38:01 17.5 C 10.73 g/m*3 17.5 C 0 km/h
764 19-09-2009 08:50:02 17.8 C 10.93 g/m*3 17.8 C 0 km/h
765 19-09-2009 09:02:02 17.9 C 10.69 g/m*3 17.9 C 0 km/h
766 19-09-2009 09:14:02 18 C 10.29 g/m*3 18 C 0 km/h
767 19-09-2009 09:26:02 18.2 C 10.26 g/m*3 18.2 C 0 km/h
768 19-09-2009 09:38:03 18.4 C 10.07 g/m*3 18.4 C 0 km/h
769 19-09-2009 09:50:02 18.6 C 10.03 g/m*3 18.6 C 0 km/h
770 19-09-2009 10:02:01 18.8 C 9.99 g/m*3 18.8 C 0 km/h
771 19-09-2009 10:14:01 19.1 C 9.67 g/m*3 19.1 C 0 km/h
772 19-09-2009 10:26:02 19.4 C 9.51 g/m*3 19.4 C 0 km/h
773 19-09-2009 10:38:02 20 C 9.33 g/m*3 20 C 0 km/h
774 19-09-2009 10:50:02 20.3 C 9.5 g/m*3 20.3 C 0 km/h
775 19-09-2009 11:02:03 20.2 C 9.62 g/m*3 20.2 C 0 km/h
Sensor: Nr:Datum:Temp:Abs-Feuchte:Windchill:Wind:
Aussen-T/F 776 19-09-2009 11:14:03 21.1 C 9.58 g/m*3 21.1 C 0 km/h
777 19-09-2009 11:26:02 22.2 C 9.42 g/m*3 22.2 C 0 km/h
778 19-09-2009 11:38:02 22 C 9.12 g/m*3 22 C 0 km/h
779 19-09-2009 11:50:01 22.3 C 9.68 g/m*3 22.3 C 0 km/h
780 19-09-2009 12:02:02 22.8 C 9.55 g/m*3 22.8 C 0 km/h
781 19-09-2009 12:14:02 22.7 C 9.5 g/m*3 22.7 C 0 km/h
782 19-09-2009 12:26:01 22.7 C 9.9 g/m*3 22.7 C 0 km/h
783 19-09-2009 12:38:02 22.9 C 9.81 g/m*3 22.9 C 0 km/h
784 19-09-2009 12:50:01 23.4 C 9.46 g/m*3 23.4 C 0 km/h
785 19-09-2009 13:02:02 23.8 C 9.9 g/m*3 23.8 C 0 km/h
786 19-09-2009 13:14:02 24 C 10.01 g/m*3 24 C 0 km/h
787 19-09-2009 13:26:01 24.3 C 9.96 g/m*3 24.3 C 0 km/h
788 19-09-2009 13:38:02 24.7 C 10.19 g/m*3 24.7 C 0 km/h
789 19-09-2009 13:50:01 25 C 9.44 g/m*3 25 C 0 km/h
790 19-09-2009 14:02:02 25.5 C 9.47 g/m*3 25.5 C 0 km/h
791 19-09-2009 14:14:02 26.1 C 9.55 g/m*3 26.1 C 0 km/h
792 19-09-2009 14:26:02 26.2 C 9.35 g/m*3 26.2 C 0 km/h
793 19-09-2009 14:38:02 26.7 C 9.37 g/m*3 26.7 C 0 km/h
794 19-09-2009 14:50:01 26.2 C 10.34 g/m*3 26.2 C 0 km/h
795 19-09-2009 15:02:02 27 C 9.26 g/m*3 27 C 0 km/h
796 19-09-2009 15:14:02 27.6 C 9.31 g/m*3 27.6 C 0 km/h
797 19-09-2009 15:26:02 27.5 C 9.79 g/m*3 27.5 C 0 km/h
798 19-09-2009 15:38:01 28.5 C 9.22 g/m*3 28.5 C 0 km/h
799 19-09-2009 15:50:02 28.5 C 9.22 g/m*3 28.5 C 0 km/h
800 19-09-2009 16:02:01 27.9 C 10.01 g/m*3 27.9 C 0 km/h
Sensor: Nr:Datum:Temp:Abs-Feuchte:Windchill:Wind:
Aussen-T/F 801 19-09-2009 16:14:01 27.3 C 10.47 g/m*3 27.3 C 0 km/h
802 19-09-2009 16:26:02 26.6 C 10.82 g/m*3 26.6 C 0 km/h
803 19-09-2009 16:38:01 25.8 C 11.32 g/m*3 25.8 C 0 km/h
804 19-09-2009 16:50:02 25.5 C 10.89 g/m*3 25.5 C 0 km/h
805 19-09-2009 17:02:02 26.4 C 10.7 g/m*3 26.4 C 0 km/h
806 19-09-2009 17:14:02 28 C 9.52 g/m*3 28 C 0 km/h
807 19-09-2009 17:26:02 27.7 C 9.9 g/m*3 27.7 C 0 km/h
808 19-09-2009 17:38:03 26.5 C 10.26 g/m*3 26.5 C 0 km/h
809 19-09-2009 17:50:02 25.6 C 10.71 g/m*3 25.6 C 0 km/h
810 19-09-2009 18:02:01 24.8 C 11.15 g/m*3 24.8 C 0 km/h
811 19-09-2009 18:14:01 24.2 C 11.44 g/m*3 24.2 C 0 km/h
812 19-09-2009 18:26:02 23.8 C 11.62 g/m*3 23.8 C 0 km/h
813 19-09-2009 18:38:02 23.4 C 11.57 g/m*3 23.4 C 0 km/h
814 19-09-2009 18:50:02 22.9 C 11.65 g/m*3 22.9 C 0 km/h
815 19-09-2009 19:02:03 22.5 C 11.58 g/m*3 22.5 C 0 km/h
816 19-09-2009 19:14:03 22.4 C 11.52 g/m*3 22.4 C 0 km/h
817 19-09-2009 19:26:02 22.2 C 11.39 g/m*3 22.2 C 0 km/h
818 19-09-2009 19:38:02 21.8 C 11.51 g/m*3 21.8 C 0 km/h
819 19-09-2009 19:50:01 21.7 C 11.64 g/m*3 21.7 C 0 km/h
820 19-09-2009 20:02:02 21.6 C 11.76 g/m*3 21.6 C 0 km/h
821 19-09-2009 20:14:02 21.6 C 11.76 g/m*3 21.6 C 0 km/h
822 19-09-2009 20:26:01 21.6 C 11.76 g/m*3 21.6 C 0 km/h
823 19-09-2009 20:38:02 21.2 C 12.42 g/m*3 21.2 C 0 km/h
824 19-09-2009 20:50:01 19.7 C 13.41 g/m*3 19.7 C 0 km/h
825 19-09-2009 21:02:01 19.2 C 13.85 g/m*3 19.2 C 0 km/h
Sensor: Nr:Datum:Temp:Abs-Feuchte:Windchill:Wind:
Aussen-T/F 826 19-09-2009 21:14:01 19.3 C 13.93 g/m*3 19.3 C 0 km/h
827 19-09-2009 21:26:02 19.2 C 13.85 g/m*3 19.2 C 0 km/h
828 19-09-2009 21:38:02 19 C 13.53 g/m*3 19 C 0 km/h
829 19-09-2009 21:50:02 19.2 C 13.36 g/m*3 19.2 C 0 km/h
830 19-09-2009 22:02:02 19.4 C 13.01 g/m*3 19.4 C 0 km/h
831 19-09-2009 22:14:02 19.5 C 12.92 g/m*3 19.5 C 0 km/h
832 19-09-2009 22:26:02 19.3 C 12.94 g/m*3 19.3 C 0 km/h
833 19-09-2009 22:38:02 19.3 C 12.94 g/m*3 19.3 C 0 km/h
834 19-09-2009 22:51:02 19 C 12.71 g/m*3 19 C 0 km/h
835 19-09-2009 23:03:03 18.7 C 12.81 g/m*3 18.7 C 0 km/h
836 19-09-2009 23:15:03 18.4 C 12.58 g/m*3 18.4 C 0 km/h
837 19-09-2009 23:27:03 18.2 C 12.59 g/m*3 18.2 C 0 km/h
838 19-09-2009 23:39:03 18.1 C 12.52 g/m*3 18.1 C 0 km/h
839 19-09-2009 23:51:03 17.9 C 12.52 g/m*3 17.9 C 0 km/h
840 20-09-2009 00:03:03 17.7 C 12.52 g/m*3 17.7 C 0 km/h
841 20-09-2009 00:15:03 17.6 C 12.45 g/m*3 17.6 C 0 km/h
842 20-09-2009 00:27:03 17.5 C 12.37 g/m*3 17.5 C 0 km/h
843 20-09-2009 00:39:03 17.4 C 12.45 g/m*3 17.4 C 0 km/h
844 20-09-2009 00:51:03 17.3 C 12.37 g/m*3 17.3 C 0 km/h
845 20-09-2009 01:03:03 17.2 C 12.3 g/m*3 17.2 C 0 km/h
846 20-09-2009 01:15:03 17.1 C 12.23 g/m*3 17.1 C 0 km/h
847 20-09-2009 01:27:03 17.2 C 12.45 g/m*3 17.2 C 0 km/h
848 20-09-2009 01:39:03 17.1 C 12.37 g/m*3 17.1 C 0 km/h
849 20-09-2009 01:51:03 17.2 C 12.45 g/m*3 17.2 C 0 km/h
850 20-09-2009 02:03:03 17.4 C 12.6 g/m*3 17.4 C 0 km/h
Sensor: Nr:Datum:Temp:Abs-Feuchte:Windchill:Wind:
Aussen-T/F 851 20-09-2009 02:15:03 17.3 C 12.37 g/m*3 17.3 C 0 km/h
852 20-09-2009 02:27:03 17.1 C 12.23 g/m*3 17.1 C 0 km/h
853 20-09-2009 02:39:03 17.2 C 12.3 g/m*3 17.2 C 0 km/h
854 20-09-2009 02:51:04 17.2 C 12.3 g/m*3 17.2 C 0 km/h
855 20-09-2009 03:03:04 16.9 C 12.23 g/m*3 16.9 C 0 km/h
856 20-09-2009 03:15:04 16.6 C 12.15 g/m*3 16.6 C 0 km/h
857 20-09-2009 03:27:04 16.6 C 12.29 g/m*3 16.6 C 0 km/h
858 20-09-2009 03:39:04 16.6 C 12.29 g/m*3 16.6 C 0 km/h
859 20-09-2009 03:51:04 16.7 C 12.36 g/m*3 16.7 C 0 km/h
860 20-09-2009 04:03:04 16.7 C 12.36 g/m*3 16.7 C 0 km/h
861 20-09-2009 04:15:04 16.4 C 12 g/m*3 16.4 C 0 km/h
862 20-09-2009 04:27:04 16.4 C 12 g/m*3 16.4 C 0 km/h
863 20-09-2009 04:39:04 16.3 C 12.07 g/m*3 16.3 C 0 km/h
864 20-09-2009 04:51:04 16.2 C 11.86 g/m*3 16.2 C 0 km/h
865 20-09-2009 05:03:04 16 C 11.72 g/m*3 16 C 0 km/h
866 20-09-2009 05:15:04 15.8 C 11.85 g/m*3 15.8 C 0 km/h
867 20-09-2009 05:27:04 15.6 C 11.7 g/m*3 15.6 C 0 km/h
868 20-09-2009 05:39:04 15.4 C 11.69 g/m*3 15.4 C 0 km/h
869 20-09-2009 05:51:04 15.3 C 11.62 g/m*3 15.3 C 0 km/h
870 20-09-2009 06:03:04 15.3 C 11.75 g/m*3 15.3 C 0 km/h
871 20-09-2009 06:15:04 15.4 C 11.96 g/m*3 15.4 C 0 km/h
872 20-09-2009 06:27:04 15.2 C 11.68 g/m*3 15.2 C 0 km/h
873 20-09-2009 06:39:05 15.2 C 11.81 g/m*3 15.2 C 0 km/h
874 20-09-2009 06:51:05 15.4 C 11.96 g/m*3 15.4 C 0 km/h
875 20-09-2009 07:03:05 15.3 C 11.88 g/m*3 15.3 C 0 km/h
Sensor: Nr:Datum:Temp:Abs-Feuchte:Windchill:Wind:
Aussen-T/F 876 20-09-2009 07:15:05 15.2 C 11.81 g/m*3 15.2 C 0 km/h
877 20-09-2009 07:27:05 15.2 C 11.81 g/m*3 15.2 C 0 km/h
878 20-09-2009 07:39:05 15.4 C 11.96 g/m*3 15.4 C 0 km/h
879 20-09-2009 07:51:05 15.4 C 11.96 g/m*3 15.4 C 0 km/h
880 20-09-2009 08:03:05 15.6 C 12.1 g/m*3 15.6 C 0 km/h
881 20-09-2009 08:15:05 15.8 C 12.25 g/m*3 15.8 C 0 km/h
882 20-09-2009 08:27:05 15.9 C 12.19 g/m*3 15.9 C 0 km/h
883 20-09-2009 08:39:02 15.8 C 12.11 g/m*3 15.8 C 0 km/h
884 20-09-2009 08:51:02 15.9 C 12.05 g/m*3 15.9 C 0 km/h
885 20-09-2009 09:03:02 16.1 C 12.06 g/m*3 16.1 C 0 km/h
886 20-09-2009 09:15:02 16.3 C 12.21 g/m*3 16.3 C 0 km/h
887 20-09-2009 09:27:03 16.5 C 12.22 g/m*3 16.5 C 0 km/h
888 20-09-2009 09:39:02 16.6 C 12.15 g/m*3 16.6 C 0 km/h
889 20-09-2009 09:51:02 16.9 C 12.23 g/m*3 16.9 C 0 km/h
890 20-09-2009 10:03:01 17.4 C 12.3 g/m*3 17.4 C 0 km/h
891 20-09-2009 10:15:02 17.7 C 12.22 g/m*3 17.7 C 0 km/h
892 20-09-2009 10:27:02 18.3 C 12.35 g/m*3 18.3 C 0 km/h
893 20-09-2009 10:39:01 18.5 C 12.18 g/m*3 18.5 C 0 km/h
894 20-09-2009 10:51:02 18.8 C 12.24 g/m*3 18.8 C 0 km/h
895 20-09-2009 11:03:02 18.9 C 12.15 g/m*3 18.9 C 0 km/h
896 20-09-2009 11:15:02 19.4 C 12.01 g/m*3 19.4 C 0 km/h
897 20-09-2009 11:27:02 20.2 C 12.06 g/m*3 20.2 C 0 km/h
898 20-09-2009 11:39:02 20.8 C 11.95 g/m*3 20.8 C 0 km/h
899 20-09-2009 11:51:02 21.3 C 11.74 g/m*3 21.3 C 0 km/h
900 20-09-2009 12:03:02 22 C 11.84 g/m*3 22 C 0 km/h
Sensor: Nr:Datum:Temp:Abs-Feuchte:Windchill:Wind:
Aussen-T/F 901 20-09-2009 12:15:01 22 C 11.84 g/m*3 22 C 0 km/h
902 20-09-2009 12:27:01 22.5 C 12.18 g/m*3 22.5 C 0 km/h
903 20-09-2009 12:39:02 23.5 C 12.27 g/m*3 23.5 C 0 km/h
904 20-09-2009 12:51:02 23.8 C 11.83 g/m*3 23.8 C 0 km/h
905 20-09-2009 13:03:02 24.1 C 11.38 g/m*3 24.1 C 0 km/h
906 20-09-2009 13:15:02 24.3 C 11.29 g/m*3 24.3 C 0 km/h
907 20-09-2009 13:27:02 24.6 C 11.25 g/m*3 24.6 C 0 km/h
908 20-09-2009 13:39:02 25.4 C 11.06 g/m*3 25.4 C 0 km/h
909 20-09-2009 13:51:02 26.3 C 10.64 g/m*3 26.3 C 0 km/h
910 20-09-2009 14:03:02 26.4 C 10.21 g/m*3 26.4 C 0 km/h
911 20-09-2009 14:15:02 25.9 C 10.41 g/m*3 25.9 C 0 km/h
912 20-09-2009 14:27:02 26.2 C 9.85 g/m*3 26.2 C 0 km/h
913 20-09-2009 14:39:02 26 C 9.74 g/m*3 26 C 0 km/h
914 20-09-2009 14:51:02 25.7 C 10.29 g/m*3 25.7 C 0 km/h
915 20-09-2009 15:03:02 25.5 C 9.94 g/m*3 25.5 C 0 km/h
916 20-09-2009 15:15:03 25.2 C 10.48 g/m*3 25.2 C 0 km/h
917 20-09-2009 15:27:03 26.9 C 9.73 g/m*3 26.9 C 0 km/h
918 20-09-2009 15:39:02 27.6 C 9.84 g/m*3 27.6 C 0 km/h
919 20-09-2009 15:51:02 27.3 C 9.16 g/m*3 27.3 C 0 km/h
920 20-09-2009 16:03:02 27 C 8.75 g/m*3 27 C 0 km/h
921 20-09-2009 16:15:02 27.4 C 8.95 g/m*3 27.4 C 0 km/h
922 20-09-2009 16:27:02 27.3 C 8.9 g/m*3 27.3 C 0 km/h
923 20-09-2009 16:39:02 26.8 C 9.16 g/m*3 26.8 C 0 km/h
924 20-09-2009 16:51:02 26.7 C 8.61 g/m*3 26.7 C 0 km/h
925 20-09-2009 17:03:02 26.9 C 8.45 g/m*3 26.9 C 0 km/h
Sensor: Nr:Datum:Temp:Abs-Feuchte:Windchill:Wind:
Aussen-T/F 926 20-09-2009 17:15:02 26.5 C 8.76 g/m*3 26.5 C 0 km/h
927 20-09-2009 17:27:02 26.1 C 9.06 g/m*3 26.1 C 0 km/h
928 20-09-2009 17:39:02 26.4 C 9.21 g/m*3 26.4 C 0 km/h
929 20-09-2009 17:51:02 25.8 C 9.15 g/m*3 25.8 C 0 km/h
930 20-09-2009 18:03:01 24.7 C 9.51 g/m*3 24.7 C 0 km/h
931 20-09-2009 18:15:02 24 C 9.57 g/m*3 24 C 0 km/h
932 20-09-2009 18:27:02 23.7 C 9.84 g/m*3 23.7 C 0 km/h
933 20-09-2009 18:39:01 23.7 C 10.48 g/m*3 23.7 C 0 km/h
934 20-09-2009 18:51:02 23.3 C 10.45 g/m*3 23.3 C 0 km/h
935 20-09-2009 19:03:01 22.7 C 10.71 g/m*3 22.7 C 0 km/h
936 20-09-2009 19:15:01 22.1 C 10.74 g/m*3 22.1 C 0 km/h
937 20-09-2009 19:27:01 21.7 C 11.06 g/m*3 21.7 C 0 km/h
938 20-09-2009 19:39:02 21.2 C 11.12 g/m*3 21.2 C 0 km/h
939 20-09-2009 19:51:02 20.9 C 10.93 g/m*3 20.9 C 0 km/h
940 20-09-2009 20:03:02 20.7 C 10.98 g/m*3 20.7 C 0 km/h
941 20-09-2009 20:15:02 20.4 C 10.97 g/m*3 20.4 C 0 km/h
942 20-09-2009 20:27:02 20.1 C 10.95 g/m*3 20.1 C 0 km/h
943 20-09-2009 20:39:02 19.9 C 11.34 g/m*3 19.9 C 0 km/h
944 20-09-2009 20:51:01 19.9 C 11.34 g/m*3 19.9 C 0 km/h
945 20-09-2009 21:03:02 20 C 11.23 g/m*3 20 C 0 km/h
946 20-09-2009 21:15:01 20.1 C 11.3 g/m*3 20.1 C 0 km/h
947 20-09-2009 21:27:01 19.7 C 11.55 g/m*3 19.7 C 0 km/h
948 20-09-2009 21:39:02 19.3 C 11.44 g/m*3 19.3 C 0 km/h
949 20-09-2009 21:51:02 19.1 C 11.31 g/m*3 19.1 C 0 km/h
950 20-09-2009 22:03:01 18.8 C 11.6 g/m*3 18.8 C 0 km/h
Sensor: Nr:Datum:Temp:Abs-Feuchte:Windchill:Wind:
Aussen-T/F 951 20-09-2009 22:15:02 18.5 C 11.55 g/m*3 18.5 C 0 km/h
952 20-09-2009 22:27:02 18.5 C 11.55 g/m*3 18.5 C 0 km/h
953 20-09-2009 22:39:02 18.4 C 11.48 g/m*3 18.4 C 0 km/h
954 20-09-2009 22:51:01 18.5 C 11.71 g/m*3 18.5 C 0 km/h
955 20-09-2009 23:03:02 18.7 C 11.85 g/m*3 18.7 C 0 km/h
956 20-09-2009 23:15:01 18.9 C 11.83 g/m*3 18.9 C 0 km/h
957 20-09-2009 23:27:01 19 C 11.73 g/m*3 19 C 0 km/h
958 20-09-2009 23:39:02 19 C 11.73 g/m*3 19 C 0 km/h
959 20-09-2009 23:51:02 19.1 C 11.97 g/m*3 19.1 C 0 km/h
960 21-09-2009 00:03:02 18.7 C 11.85 g/m*3 18.7 C 0 km/h
961 21-09-2009 00:15:02 18.5 C 12.02 g/m*3 18.5 C 0 km/h
962 21-09-2009 00:27:02 18.3 C 12.04 g/m*3 18.3 C 0 km/h
963 21-09-2009 00:39:02 18.1 C 12.05 g/m*3 18.1 C 0 km/h
964 21-09-2009 00:51:01 18 C 12.13 g/m*3 18 C 0 km/h
965 21-09-2009 01:03:02 17.8 C 12.14 g/m*3 17.8 C 0 km/h
966 21-09-2009 01:15:02 17.8 C 12.29 g/m*3 17.8 C 0 km/h
967 21-09-2009 01:27:02 17.7 C 12.22 g/m*3 17.7 C 0 km/h
968 21-09-2009 01:39:01 17.6 C 12.3 g/m*3 17.6 C 0 km/h
969 21-09-2009 01:51:02 17.5 C 12.23 g/m*3 17.5 C 0 km/h
970 21-09-2009 02:03:01 17.5 C 12.23 g/m*3 17.5 C 0 km/h
971 21-09-2009 02:15:02 17.5 C 12.23 g/m*3 17.5 C 0 km/h
972 21-09-2009 02:27:02 17.5 C 12.23 g/m*3 17.5 C 0 km/h
973 21-09-2009 02:39:01 17.4 C 12.15 g/m*3 17.4 C 0 km/h
974 21-09-2009 02:52:04 17.5 C 12.37 g/m*3 17.5 C 0 km/h
975 21-09-2009 03:04:04 17.5 C 12.37 g/m*3 17.5 C 0 km/h
Sensor: Nr:Datum:Temp:Abs-Feuchte:Windchill:Wind:
Aussen-T/F 976 21-09-2009 03:16:03 17.6 C 12.3 g/m*3 17.6 C 0 km/h
977 21-09-2009 03:28:03 17.7 C 12.37 g/m*3 17.7 C 0 km/h
978 21-09-2009 03:40:01 17.8 C 12.29 g/m*3 17.8 C 0 km/h
979 21-09-2009 03:52:01 17.9 C 12.37 g/m*3 17.9 C 0 km/h
980 21-09-2009 04:04:01 17.9 C 12.21 g/m*3 17.9 C 0 km/h
981 21-09-2009 04:16:02 17.9 C 12.21 g/m*3 17.9 C 0 km/h
982 21-09-2009 04:28:02 17.9 C 12.21 g/m*3 17.9 C 0 km/h
983 21-09-2009 04:40:01 17.9 C 12.21 g/m*3 17.9 C 0 km/h
984 21-09-2009 04:52:03 17.7 C 12.22 g/m*3 17.7 C 0 km/h
985 21-09-2009 05:04:02 17.7 C 12.07 g/m*3 17.7 C 0 km/h
986 21-09-2009 05:16:02 17.7 C 12.07 g/m*3 17.7 C 0 km/h
987 21-09-2009 05:28:02 17.6 C 12 g/m*3 17.6 C 0 km/h
988 21-09-2009 05:40:02 17.5 C 11.93 g/m*3 17.5 C 0 km/h
989 21-09-2009 05:52:02 17.4 C 11.86 g/m*3 17.4 C 0 km/h
990 21-09-2009 06:04:02 17.4 C 11.86 g/m*3 17.4 C 0 km/h
991 21-09-2009 06:16:02 17.4 C 11.86 g/m*3 17.4 C 0 km/h
992 21-09-2009 06:28:03 17.5 C 11.78 g/m*3 17.5 C 0 km/h
993 21-09-2009 06:40:01 17.3 C 11.79 g/m*3 17.3 C 0 km/h
994 21-09-2009 06:52:02 17.5 C 11.93 g/m*3 17.5 C 0 km/h
995 21-09-2009 07:04:01 17.3 C 11.64 g/m*3 17.3 C 0 km/h
996 21-09-2009 07:16:01 17.4 C 11.71 g/m*3 17.4 C 0 km/h
997 21-09-2009 07:28:01 17.3 C 11.79 g/m*3 17.3 C 0 km/h
998 21-09-2009 07:40:02 17.4 C 11.86 g/m*3 17.4 C 0 km/h
999 21-09-2009 07:52:02 17.3 C 11.79 g/m*3 17.3 C 0 km/h
1000 21-09-2009 08:04:02 17.4 C 11.71 g/m*3 17.4 C 0 km/h
Sensor: Nr:Datum:Temp:Abs-Feuchte:Windchill:Wind:
Aussen-T/F 1001 21-09-2009 08:16:02 17.2 C 11.57 g/m*3 17.2 C 0 km/h
1002 21-09-2009 08:28:02 16.9 C 11.65 g/m*3 16.9 C 0 km/h
1003 21-09-2009 08:40:02 16.8 C 11.58 g/m*3 16.8 C 0 km/h
1004 21-09-2009 08:52:02 17 C 11.58 g/m*3 17 C 0 km/h
1005 21-09-2009 09:04:03 17.3 C 11.64 g/m*3 17.3 C 0 km/h
1006 21-09-2009 09:16:02 17.1 C 11.35 g/m*3 17.1 C 0 km/h
1007 21-09-2009 09:28:02 17.1 C 11.35 g/m*3 17.1 C 0 km/h
1008 21-09-2009 09:40:02 17 C 11.29 g/m*3 17 C 0 km/h
1009 21-09-2009 09:52:01 17.1 C 11.35 g/m*3 17.1 C 0 km/h
1010 21-09-2009 10:04:02 17.7 C 11.16 g/m*3 17.7 C 0 km/h
1011 21-09-2009 10:16:01 18.5 C 11.39 g/m*3 18.5 C 0 km/h
1012 21-09-2009 10:28:01 19.5 C 11.08 g/m*3 19.5 C 0 km/h
1013 21-09-2009 10:40:01 19.8 C 10.93 g/m*3 19.8 C 0 km/h
1014 21-09-2009 10:52:01 20.3 C 10.9 g/m*3 20.3 C 0 km/h
1015 21-09-2009 11:04:02 20 C 10.37 g/m*3 20 C 0 km/h
1016 21-09-2009 11:16:01 19.7 C 10.36 g/m*3 19.7 C 0 km/h
1017 21-09-2009 11:28:01 19.6 C 10.47 g/m*3 19.6 C 0 km/h
1018 21-09-2009 11:40:01 19.6 C 10.47 g/m*3 19.6 C 0 km/h
1019 21-09-2009 11:52:01 19.3 C 10.28 g/m*3 19.3 C 0 km/h
1020 21-09-2009 12:04:02 19.2 C 10.39 g/m*3 19.2 C 0 km/h
1021 21-09-2009 12:16:01 19.7 C 10.53 g/m*3 19.7 C 0 km/h
1022 21-09-2009 12:28:01 21.2 C 10.56 g/m*3 21.2 C 0 km/h
1023 21-09-2009 12:40:01 21.6 C 10.43 g/m*3 21.6 C 0 km/h
1024 21-09-2009 12:52:01 21.2 C 10.19 g/m*3 21.2 C 0 km/h
1025 21-09-2009 13:04:02 21.3 C 10.07 g/m*3 21.3 C 0 km/h
Sensor: Nr:Datum:Temp:Abs-Feuchte:Windchill:Wind:
Aussen-T/F 1026 21-09-2009 13:16:02 20.8 C 10.14 g/m*3 20.8 C 0 km/h
1027 21-09-2009 13:28:02 20.8 C 9.96 g/m*3 20.8 C 0 km/h
1028 21-09-2009 13:40:01 20.5 C 9.79 g/m*3 20.5 C 0 km/h
1029 21-09-2009 13:52:01 20.1 C 9.56 g/m*3 20.1 C 0 km/h
1030 21-09-2009 14:04:01 20.5 C 9.61 g/m*3 20.5 C 0 km/h
1031 21-09-2009 14:16:02 20.4 C 9.2 g/m*3 20.4 C 0 km/h
1032 21-09-2009 14:28:02 20.6 C 9.31 g/m*3 20.6 C 0 km/h
1033 21-09-2009 14:40:01 21.3 C 9.32 g/m*3 21.3 C 0 km/h
1034 21-09-2009 14:52:01 22.3 C 9.48 g/m*3 22.3 C 0 km/h
1035 21-09-2009 15:04:01 22.8 C 9.14 g/m*3 22.8 C 0 km/h
1036 21-09-2009 15:16:02 23.4 C 9.25 g/m*3 23.4 C 0 km/h
1037 21-09-2009 15:28:02 23.8 C 9.03 g/m*3 23.8 C 0 km/h
1038 21-09-2009 15:40:01 23.6 C 8.93 g/m*3 23.6 C 0 km/h
1039 21-09-2009 15:52:01 24 C 8.92 g/m*3 24 C 0 km/h
1040 21-09-2009 16:04:01 24.5 C 8.95 g/m*3 24.5 C 0 km/h
1041 21-09-2009 16:16:02 25 C 8.52 g/m*3 25 C 0 km/h
1042 21-09-2009 16:28:02 24.5 C 8.5 g/m*3 24.5 C 0 km/h
1043 21-09-2009 16:40:01 22.8 C 8.74 g/m*3 22.8 C 0 km/h
1044 21-09-2009 16:52:03 22.7 C 8.89 g/m*3 22.7 C 0 km/h
1045 21-09-2009 17:04:02 22.4 C 9.14 g/m*3 22.4 C 0 km/h
1046 21-09-2009 17:16:02 22.6 C 8.84 g/m*3 22.6 C 0 km/h
1047 21-09-2009 17:28:02 22.7 C 8.89 g/m*3 22.7 C 0 km/h
1048 21-09-2009 17:40:02 22.8 C 8.53 g/m*3 22.8 C 0 km/h
1049 21-09-2009 17:52:02 22.5 C 8.39 g/m*3 22.5 C 0 km/h
1050 21-09-2009 18:04:02 22.5 C 8.59 g/m*3 22.5 C 0 km/h
Sensor: Nr:Datum:Temp:Abs-Feuchte:Windchill:Wind:
Aussen-T/F 1051 21-09-2009 18:16:02 21.8 C 8.44 g/m*3 21.8 C 0 km/h
1052 21-09-2009 18:28:03 21.2 C 8.52 g/m*3 21.2 C 0 km/h
1053 21-09-2009 18:40:01 21 C 8.61 g/m*3 21 C 0 km/h
1054 21-09-2009 18:52:02 20.8 C 8.69 g/m*3 20.8 C 0 km/h
1055 21-09-2009 19:04:01 20.4 C 8.67 g/m*3 20.4 C 0 km/h
1056 21-09-2009 19:16:02 20 C 8.99 g/m*3 20 C 0 km/h
1057 21-09-2009 19:28:02 19.4 C 9.34 g/m*3 19.4 C 0 km/h
1058 21-09-2009 19:40:02 19.1 C 9.18 g/m*3 19.1 C 0 km/h
1059 21-09-2009 19:52:02 18.5 C 9.33 g/m*3 18.5 C 0 km/h
1060 21-09-2009 20:04:02 18.3 C 9.38 g/m*3 18.3 C 0 km/h
1061 21-09-2009 20:16:02 18 C 9.22 g/m*3 18 C 0 km/h
1062 21-09-2009 20:28:02 17.8 C 9.11 g/m*3 17.8 C 0 km/h
1063 21-09-2009 20:40:03 17.5 C 9.24 g/m*3 17.5 C 0 km/h
1064 21-09-2009 20:52:02 17.2 C 9.23 g/m*3 17.2 C 0 km/h
1065 21-09-2009 21:05:02 17 C 9.26 g/m*3 17 C 0 km/h
1066 21-09-2009 21:17:02 16.8 C 9.44 g/m*3 16.8 C 0 km/h
1067 21-09-2009 21:29:02 16.7 C 9.52 g/m*3 16.7 C 0 km/h
1068 21-09-2009 21:41:02 16.5 C 9.55 g/m*3 16.5 C 0 km/h
1069 21-09-2009 21:53:02 16.2 C 9.65 g/m*3 16.2 C 0 km/h
1070 21-09-2009 22:05:02 16.1 C 9.6 g/m*3 16.1 C 0 km/h
1071 21-09-2009 22:17:02 15.9 C 9.75 g/m*3 15.9 C 0 km/h
1072 21-09-2009 22:29:02 15.7 C 9.77 g/m*3 15.7 C 0 km/h
1073 21-09-2009 22:41:02 15.5 C 9.65 g/m*3 15.5 C 0 km/h
1074 21-09-2009 22:53:02 15.4 C 9.72 g/m*3 15.4 C 0 km/h
1075 21-09-2009 23:05:02 15.2 C 9.61 g/m*3 15.2 C 0 km/h
Sensor: Nr:Datum:Temp:Abs-Feuchte:Windchill:Wind:
Aussen-T/F 1076 21-09-2009 23:17:02 15.1 C 9.55 g/m*3 15.1 C 0 km/h
1077 21-09-2009 23:29:02 14.8 C 9.75 g/m*3 14.8 C 0 km/h
1078 21-09-2009 23:41:02 14.7 C 9.69 g/m*3 14.7 C 0 km/h
1079 21-09-2009 23:53:02 14.5 C 9.7 g/m*3 14.5 C 0 km/h
1080 22-09-2009 00:05:03 14.5 C 9.7 g/m*3 14.5 C 0 km/h
1081 22-09-2009 00:17:03 14.2 C 9.52 g/m*3 14.2 C 0 km/h
1082 22-09-2009 00:29:03 14 C 9.53 g/m*3 14 C 0 km/h
1083 22-09-2009 00:41:03 14 C 9.41 g/m*3 14 C 0 km/h
1084 22-09-2009 00:53:03 13.9 C 9.47 g/m*3 13.9 C 0 km/h
1085 22-09-2009 01:05:03 13.8 C 9.53 g/m*3 13.8 C 0 km/h
1086 22-09-2009 01:17:03 13.7 C 9.71 g/m*3 13.7 C 0 km/h
1087 22-09-2009 01:29:03 13.5 C 9.59 g/m*3 13.5 C 0 km/h
1088 22-09-2009 01:41:03 13.4 C 9.53 g/m*3 13.4 C 0 km/h
1089 22-09-2009 01:53:03 13.3 C 9.59 g/m*3 13.3 C 0 km/h
1090 22-09-2009 02:05:03 13.1 C 9.47 g/m*3 13.1 C 0 km/h
1091 22-09-2009 02:17:03 13.1 C 9.47 g/m*3 13.1 C 0 km/h
1092 22-09-2009 02:29:03 13 C 9.41 g/m*3 13 C 0 km/h
1093 22-09-2009 02:41:03 12.8 C 9.52 g/m*3 12.8 C 0 km/h
1094 22-09-2009 02:53:03 12.7 C 9.35 g/m*3 12.7 C 0 km/h
1095 22-09-2009 03:05:03 12.6 C 9.4 g/m*3 12.6 C 0 km/h
1096 22-09-2009 03:17:03 12.4 C 9.29 g/m*3 12.4 C 0 km/h
1097 22-09-2009 03:29:03 12.4 C 9.29 g/m*3 12.4 C 0 km/h
1098 22-09-2009 03:41:03 12.3 C 9.34 g/m*3 12.3 C 0 km/h
1099 22-09-2009 03:53:04 12.2 C 9.28 g/m*3 12.2 C 0 km/h
1100 22-09-2009 04:05:04 12.1 C 9.22 g/m*3 12.1 C 0 km/h
Sensor: Nr:Datum:Temp:Abs-Feuchte:Windchill:Wind:
Aussen-T/F 1101 22-09-2009 04:17:04 12.1 C 9.22 g/m*3 12.1 C 0 km/h
1102 22-09-2009 04:29:04 11.8 C 9.05 g/m*3 11.8 C 0 km/h
1103 22-09-2009 04:41:04 11.7 C 9.1 g/m*3 11.7 C 0 km/h
1104 22-09-2009 04:53:04 11.6 C 9.04 g/m*3 11.6 C 0 km/h
1105 22-09-2009 05:05:04 11.6 C 9.15 g/m*3 11.6 C 0 km/h
1106 22-09-2009 05:17:04 11.6 C 9.25 g/m*3 11.6 C 0 km/h
1107 22-09-2009 05:29:04 11.6 C 9.25 g/m*3 11.6 C 0 km/h
1108 22-09-2009 05:41:04 11.7 C 9.2 g/m*3 11.7 C 0 km/h
1109 22-09-2009 05:53:04 11.6 C 9.15 g/m*3 11.6 C 0 km/h
1110 22-09-2009 06:05:04 11.5 C 9.09 g/m*3 11.5 C 0 km/h
1111 22-09-2009 06:17:02 11.4 C 9.03 g/m*3 11.4 C 0 km/h
1112 22-09-2009 06:29:02 11.2 C 8.92 g/m*3 11.2 C 0 km/h
1113 22-09-2009 06:41:02 11.1 C 8.86 g/m*3 11.1 C 0 km/h
1114 22-09-2009 06:53:01 11.1 C 8.86 g/m*3 11.1 C 0 km/h
1115 22-09-2009 07:05:02 11.2 C 8.92 g/m*3 11.2 C 0 km/h
1116 22-09-2009 07:17:01 11.4 C 9.03 g/m*3 11.4 C 0 km/h
1117 22-09-2009 07:29:01 11.4 C 9.03 g/m*3 11.4 C 0 km/h
1118 22-09-2009 07:41:02 11.2 C 8.92 g/m*3 11.2 C 0 km/h
1119 22-09-2009 07:53:01 11.4 C 9.03 g/m*3 11.4 C 0 km/h
1120 22-09-2009 08:05:02 11.3 C 8.87 g/m*3 11.3 C 0 km/h
1121 22-09-2009 08:17:01 11.1 C 8.76 g/m*3 11.1 C 0 km/h
1122 22-09-2009 08:29:01 10.9 C 8.75 g/m*3 10.9 C 0 km/h
1123 22-09-2009 08:41:02 11.1 C 8.86 g/m*3 11.1 C 0 km/h
1124 22-09-2009 08:53:01 11.2 C 8.92 g/m*3 11.2 C 0 km/h
1125 22-09-2009 09:05:02 11.5 C 8.99 g/m*3 11.5 C 0 km/h
Sensor: Nr:Datum:Temp:Abs-Feuchte:Windchill:Wind:
Aussen-T/F 1126 22-09-2009 09:17:01 11.6 C 9.04 g/m*3 11.6 C 0 km/h
1127 22-09-2009 09:29:01 11.7 C 9.1 g/m*3 11.7 C 0 km/h
1128 22-09-2009 09:41:02 12 C 9.17 g/m*3 12 C 0 km/h
1129 22-09-2009 09:53:02 12.1 C 9.01 g/m*3 12.1 C 0 km/h
1130 22-09-2009 10:05:02 12.8 C 9.41 g/m*3 12.8 C 0 km/h
1131 22-09-2009 10:17:02 13 C 9.07 g/m*3 13 C 0 km/h
1132 22-09-2009 10:29:02 13 C 8.96 g/m*3 13 C 0 km/h
1133 22-09-2009 10:41:02 13.2 C 9.19 g/m*3 13.2 C 0 km/h
1134 22-09-2009 10:53:01 13.5 C 9.36 g/m*3 13.5 C 0 km/h
1135 22-09-2009 11:05:02 14 C 9.53 g/m*3 14 C 0 km/h
1136 22-09-2009 11:17:02 14.4 C 9.52 g/m*3 14.4 C 0 km/h
1137 22-09-2009 11:29:02 14.9 C 9.69 g/m*3 14.9 C 0 km/h
1138 22-09-2009 11:41:02 15.6 C 9.71 g/m*3 15.6 C 0 km/h
1139 22-09-2009 11:53:02 16.4 C 10.05 g/m*3 16.4 C 0 km/h
1140 22-09-2009 12:05:02 17.2 C 10.4 g/m*3 17.2 C 0 km/h
1141 22-09-2009 12:17:02 17.8 C 10.02 g/m*3 17.8 C 0 km/h
1142 22-09-2009 12:29:02 18.5 C 9.81 g/m*3 18.5 C 0 km/h
1143 22-09-2009 12:41:02 18.9 C 9.56 g/m*3 18.9 C 0 km/h
1144 22-09-2009 12:53:02 19.6 C 9.79 g/m*3 19.6 C 0 km/h
1145 22-09-2009 13:05:02 20 C 9.68 g/m*3 20 C 0 km/h
1146 22-09-2009 13:17:02 20.5 C 9.25 g/m*3 20.5 C 0 km/h
1147 22-09-2009 13:29:02 21 C 9.34 g/m*3 21 C 0 km/h
1148 22-09-2009 13:41:01 21.7 C 8.77 g/m*3 21.7 C 0 km/h
1149 22-09-2009 13:53:02 22.2 C 8.05 g/m*3 22.2 C 0 km/h
1150 22-09-2009 14:05:01 23.1 C 8.48 g/m*3 23.1 C 0 km/h
Sensor: Nr:Datum:Temp:Abs-Feuchte:Windchill:Wind:
Aussen-T/F 1151 22-09-2009 14:17:02 23.7 C 7.91 g/m*3 23.7 C 0 km/h
1152 22-09-2009 14:29:02 24.3 C 8.41 g/m*3 24.3 C 0 km/h
1153 22-09-2009 14:41:01 24.7 C 8.15 g/m*3 24.7 C 0 km/h
1154 22-09-2009 14:53:02 24.7 C 7.47 g/m*3 24.7 C 0 km/h
1155 22-09-2009 15:05:02 25.4 C 7.77 g/m*3 25.4 C 0 km/h
1156 22-09-2009 15:17:02 26.1 C 7.59 g/m*3 26.1 C 0 km/h
1157 22-09-2009 15:29:02 26.4 C 7.97 g/m*3 26.4 C 0 km/h
1158 22-09-2009 15:41:03 27.1 C 7.76 g/m*3 27.1 C 0 km/h
1159 22-09-2009 15:53:02 27.8 C 7.8 g/m*3 27.8 C 0 km/h
1160 22-09-2009 16:05:01 28.2 C 7.7 g/m*3 28.2 C 0 km/h
1161 22-09-2009 16:17:02 29.1 C 7.22 g/m*3 29.1 C 0 km/h
1162 22-09-2009 16:29:02 29.2 C 7.26 g/m*3 29.2 C 0 km/h
1163 22-09-2009 16:41:02 28 C 8.16 g/m*3 28 C 0 km/h
1164 22-09-2009 16:53:02 26 C 8.52 g/m*3 26 C 0 km/h
1165 22-09-2009 17:05:03 27 C 8.49 g/m*3 27 C 0 km/h
1166 22-09-2009 17:17:02 27.7 C 8.29 g/m*3 27.7 C 0 km/h
1167 22-09-2009 17:29:02 27.6 C 8.51 g/m*3 27.6 C 0 km/h
1168 22-09-2009 17:41:03 27.5 C 8.47 g/m*3 27.5 C 0 km/h
1169 22-09-2009 17:53:02 27.5 C 8.47 g/m*3 27.5 C 0 km/h
1170 22-09-2009 18:05:02 26.7 C 8.61 g/m*3 26.7 C 0 km/h
1171 22-09-2009 18:17:02 26.2 C 8.37 g/m*3 26.2 C 0 km/h
1172 22-09-2009 18:29:02 25.6 C 8.57 g/m*3 25.6 C 0 km/h
1173 22-09-2009 18:41:02 24.9 C 8.7 g/m*3 24.9 C 0 km/h
1174 22-09-2009 18:53:02 24.4 C 8.23 g/m*3 24.4 C 0 km/h
1175 22-09-2009 19:05:02 23.5 C 8.04 g/m*3 23.5 C 0 km/h
Sensor: Nr:Datum:Temp:Abs-Feuchte:Windchill:Wind:
Aussen-T/F 1176 22-09-2009 19:17:02 22.5 C 7.99 g/m*3 22.5 C 0 km/h
1177 22-09-2009 19:29:02 21.5 C 8.3 g/m*3 21.5 C 0 km/h
1178 22-09-2009 19:41:02 20.7 C 8.46 g/m*3 20.7 C 0 km/h
1179 22-09-2009 19:53:01 20 C 8.47 g/m*3 20 C 0 km/h
1180 22-09-2009 20:05:02 19.7 C 8.66 g/m*3 19.7 C 0 km/h
1181 22-09-2009 20:17:01 19.2 C 8.24 g/m*3 19.2 C 0 km/h
1182 22-09-2009 20:29:01 19.1 C 8.03 g/m*3 19.1 C 0 km/h
1183 22-09-2009 20:41:02 19 C 8.15 g/m*3 19 C 0 km/h
1184 22-09-2009 20:53:02 18.8 C 8.05 g/m*3 18.8 C 0 km/h
1185 22-09-2009 21:05:02 18.8 C 7.89 g/m*3 18.8 C 0 km/h
1186 22-09-2009 21:17:02 18.7 C 7.84 g/m*3 18.7 C 0 km/h
1187 22-09-2009 21:29:02 18.3 C 7.97 g/m*3 18.3 C 0 km/h
1188 22-09-2009 21:41:02 18.1 C 8.03 g/m*3 18.1 C 0 km/h
1189 22-09-2009 21:53:01 17.8 C 8.2 g/m*3 17.8 C 0 km/h
1190 22-09-2009 22:05:02 17.4 C 8.45 g/m*3 17.4 C 0 km/h
1191 22-09-2009 22:18:03 17.2 C 8.49 g/m*3 17.2 C 0 km/h
1192 22-09-2009 22:30:03 17 C 8.39 g/m*3 17 C 0 km/h
1193 22-09-2009 22:42:03 16.4 C 9.07 g/m*3 16.4 C 0 km/h
1194 22-09-2009 22:54:03 16.3 C 9.02 g/m*3 16.3 C 0 km/h
1195 22-09-2009 23:06:03 16.1 C 8.91 g/m*3 16.1 C 0 km/h
1196 22-09-2009 23:18:03 16 C 8.99 g/m*3 16 C 0 km/h
1197 22-09-2009 23:30:03 15.9 C 9.07 g/m*3 15.9 C 0 km/h
1198 22-09-2009 23:42:03 15.6 C 9.04 g/m*3 15.6 C 0 km/h
1199 22-09-2009 23:54:03 15.4 C 9.2 g/m*3 15.4 C 0 km/h
1200 23-09-2009 00:06:03 15.1 C 9.16 g/m*3 15.1 C 0 km/h
Sensor: Nr:Datum:Temp:Abs-Feuchte:Windchill:Wind:
Aussen-T/F 1201 23-09-2009 00:18:03 14.8 C 9.25 g/m*3 14.8 C 0 km/h
1202 23-09-2009 00:30:03 14.7 C 9.32 g/m*3 14.7 C 0 km/h
1203 23-09-2009 00:42:03 14.6 C 9.26 g/m*3 14.6 C 0 km/h
1204 23-09-2009 00:54:03 14.4 C 9.27 g/m*3 14.4 C 0 km/h
1205 23-09-2009 01:06:03 14.4 C 9.27 g/m*3 14.4 C 0 km/h
1206 23-09-2009 01:18:03 14.2 C 9.28 g/m*3 14.2 C 0 km/h
1207 23-09-2009 01:30:03 14.4 C 9.27 g/m*3 14.4 C 0 km/h
1208 23-09-2009 01:42:03 14.1 C 9.1 g/m*3 14.1 C 0 km/h
1209 23-09-2009 01:54:03 14 C 9.05 g/m*3 14 C 0 km/h
1210 23-09-2009 02:06:04 13.8 C 9.06 g/m*3 13.8 C 0 km/h
1211 23-09-2009 02:18:04 13.7 C 9.12 g/m*3 13.7 C 0 km/h
1212 23-09-2009 02:30:04 13.4 C 8.95 g/m*3 13.4 C 0 km/h
1213 23-09-2009 02:42:04 13.3 C 9.01 g/m*3 13.3 C 0 km/h
1214 23-09-2009 02:54:04 13.2 C 9.07 g/m*3 13.2 C 0 km/h
1215 23-09-2009 03:06:04 13.1 C 9.01 g/m*3 13.1 C 0 km/h
1216 23-09-2009 03:18:04 12.9 C 9.13 g/m*3 12.9 C 0 km/h
1217 23-09-2009 03:30:04 12.9 C 9.13 g/m*3 12.9 C 0 km/h
1218 23-09-2009 03:42:04 12.8 C 9.18 g/m*3 12.8 C 0 km/h
1219 23-09-2009 03:54:04 12.7 C 9.13 g/m*3 12.7 C 0 km/h
1220 23-09-2009 04:06:04 12.6 C 9.07 g/m*3 12.6 C 0 km/h
1221 23-09-2009 04:18:04 12.5 C 9.13 g/m*3 12.5 C 0 km/h
1222 23-09-2009 04:30:04 12.4 C 9.18 g/m*3 12.4 C 0 km/h
1223 23-09-2009 04:42:04 12.3 C 9.12 g/m*3 12.3 C 0 km/h
1224 23-09-2009 04:54:04 12.3 C 9.12 g/m*3 12.3 C 0 km/h
1225 23-09-2009 05:06:04 12.1 C 9.01 g/m*3 12.1 C 0 km/h
Sensor: Nr:Datum:Temp:Abs-Feuchte:Windchill:Wind:
Aussen-T/F 1226 23-09-2009 05:18:04 12.1 C 9.01 g/m*3 12.1 C 0 km/h
1227 23-09-2009 05:30:04 11.9 C 8.9 g/m*3 11.9 C 0 km/h
1228 23-09-2009 05:42:04 11.8 C 8.84 g/m*3 11.8 C 0 km/h
1229 23-09-2009 05:54:04 11.8 C 8.84 g/m*3 11.8 C 0 km/h
1230 23-09-2009 06:06:05 11.6 C 8.83 g/m*3 11.6 C 0 km/h
1231 23-09-2009 06:18:05 11.5 C 8.78 g/m*3 11.5 C 0 km/h
1232 23-09-2009 06:30:05 11.3 C 8.67 g/m*3 11.3 C 0 km/h
1233 23-09-2009 06:42:05 11.2 C 8.72 g/m*3 11.2 C 0 km/h
1234 23-09-2009 06:54:05 11.1 C 8.66 g/m*3 11.1 C 0 km/h
1235 23-09-2009 07:06:03 11.1 C 8.66 g/m*3 11.1 C 0 km/h
1236 23-09-2009 07:18:03 10.9 C 8.65 g/m*3 10.9 C 0 km/h
1237 23-09-2009 07:30:03 10.9 C 8.65 g/m*3 10.9 C 0 km/h
1238 23-09-2009 07:42:04 11 C 8.71 g/m*3 11 C 0 km/h
1239 23-09-2009 07:54:02 10.9 C 8.75 g/m*3 10.9 C 0 km/h
1240 23-09-2009 08:06:02 10.9 C 8.85 g/m*3 10.9 C 0 km/h
1241 23-09-2009 08:18:02 11 C 8.81 g/m*3 11 C 0 km/h
1242 23-09-2009 08:30:02 11 C 8.81 g/m*3 11 C 0 km/h
1243 23-09-2009 08:42:02 11.1 C 8.86 g/m*3 11.1 C 0 km/h
1244 23-09-2009 08:54:02 11.3 C 8.98 g/m*3 11.3 C 0 km/h
1245 23-09-2009 09:06:02 11.4 C 9.14 g/m*3 11.4 C 0 km/h
1246 23-09-2009 09:18:01 11.5 C 9.19 g/m*3 11.5 C 0 km/h
1247 23-09-2009 09:30:01 11.7 C 9.31 g/m*3 11.7 C 0 km/h
1248 23-09-2009 09:42:02 12.3 C 9.66 g/m*3 12.3 C 0 km/h
1249 23-09-2009 09:54:02 12.9 C 9.92 g/m*3 12.9 C 0 km/h
1250 23-09-2009 10:06:02 13.5 C 9.94 g/m*3 13.5 C 0 km/h
Sensor: Nr:Datum:Temp:Abs-Feuchte:Windchill:Wind:
Aussen-T/F 1251 23-09-2009 10:18:02 14.3 C 9.83 g/m*3 14.3 C 0 km/h
1252 23-09-2009 10:30:02 14.8 C 9.75 g/m*3 14.8 C 0 km/h
1253 23-09-2009 10:42:02 15.2 C 9.48 g/m*3 15.2 C 0 km/h
1254 23-09-2009 10:54:02 15.6 C 9.58 g/m*3 15.6 C 0 km/h
1255 23-09-2009 11:06:02 15.9 C 9.48 g/m*3 15.9 C 0 km/h
1256 23-09-2009 11:18:02 16.6 C 9.32 g/m*3 16.6 C 0 km/h
1257 23-09-2009 11:30:02 17.2 C 9.23 g/m*3 17.2 C 0 km/h
1258 23-09-2009 11:42:02 17.8 C 9.26 g/m*3 17.8 C 0 km/h
1259 23-09-2009 11:54:01 18.3 C 9.22 g/m*3 18.3 C 0 km/h
1260 23-09-2009 12:06:02 19.1 C 9.34 g/m*3 19.1 C 0 km/h
1261 23-09-2009 12:18:01 19.5 C 9.4 g/m*3 19.5 C 0 km/h
1262 23-09-2009 12:30:01 19.6 C 8.95 g/m*3 19.6 C 0 km/h
1263 23-09-2009 12:42:01 19.4 C 8.84 g/m*3 19.4 C 0 km/h
1264 23-09-2009 12:54:01 19.5 C 9.23 g/m*3 19.5 C 0 km/h
1265 23-09-2009 13:06:02 20.4 C 9.2 g/m*3 20.4 C 0 km/h
1266 23-09-2009 13:18:01 21 C 9.16 g/m*3 21 C 0 km/h
1267 23-09-2009 13:30:01 21.6 C 9.1 g/m*3 21.6 C 0 km/h
1268 23-09-2009 13:42:01 22.1 C 8.98 g/m*3 22.1 C 0 km/h
1269 23-09-2009 13:54:01 22.5 C 8.99 g/m*3 22.5 C 0 km/h
1270 23-09-2009 14:06:02 22.7 C 8.69 g/m*3 22.7 C 0 km/h
1271 23-09-2009 14:18:02 23.5 C 8.88 g/m*3 23.5 C 0 km/h
1272 23-09-2009 14:30:02 24.1 C 8.53 g/m*3 24.1 C 0 km/h
1273 23-09-2009 14:42:01 24.3 C 8.63 g/m*3 24.3 C 0 km/h
1274 23-09-2009 14:54:01 24.7 C 8.6 g/m*3 24.7 C 0 km/h
1275 23-09-2009 15:06:02 25.6 C 8.33 g/m*3 25.6 C 0 km/h
Sensor: Nr:Datum:Temp:Abs-Feuchte:Windchill:Wind:
Aussen-T/F 1276 23-09-2009 15:18:01 26.1 C 8.32 g/m*3 26.1 C 0 km/h
1277 23-09-2009 15:30:01 26.1 C 8.57 g/m*3 26.1 C 0 km/h
1278 23-09-2009 15:42:02 26.6 C 8.31 g/m*3 26.6 C 0 km/h
1279 23-09-2009 15:54:02 26.6 C 8.56 g/m*3 26.6 C 0 km/h
1280 23-09-2009 16:06:02 27.1 C 8.02 g/m*3 27.1 C 0 km/h
1281 23-09-2009 16:18:02 26.8 C 8.14 g/m*3 26.8 C 0 km/h
1282 23-09-2009 16:30:02 26.1 C 8.57 g/m*3 26.1 C 0 km/h
1283 23-09-2009 16:42:02 26.4 C 8.71 g/m*3 26.4 C 0 km/h
1284 23-09-2009 16:54:01 27.5 C 8.2 g/m*3 27.5 C 0 km/h
1285 23-09-2009 17:06:02 27.6 C 8.25 g/m*3 27.6 C 0 km/h
1286 23-09-2009 17:18:01 26.2 C 8.62 g/m*3 26.2 C 0 km/h
1287 23-09-2009 17:30:01 25.3 C 9.13 g/m*3 25.3 C 0 km/h
1288 23-09-2009 17:42:02 24.5 C 9.4 g/m*3 24.5 C 0 km/h
1289 23-09-2009 17:54:02 23.7 C 9.63 g/m*3 23.7 C 0 km/h
1290 23-09-2009 18:06:02 23.7 C 9.84 g/m*3 23.7 C 0 km/h
1291 23-09-2009 18:18:01 24 C 9.36 g/m*3 24 C 0 km/h
1292 23-09-2009 18:30:01 24 C 9.57 g/m*3 24 C 0 km/h
1293 23-09-2009 18:42:02 23.8 C 9.68 g/m*3 23.8 C 0 km/h
1294 23-09-2009 18:54:02 23 C 9.66 g/m*3 23 C 0 km/h
1295 23-09-2009 19:06:02 21.6 C 9.48 g/m*3 21.6 C 0 km/h
1296 23-09-2009 19:18:02 21.1 C 9.58 g/m*3 21.1 C 0 km/h
1297 23-09-2009 19:30:02 20.8 C 9.78 g/m*3 20.8 C 0 km/h
1298 23-09-2009 19:42:02 20.3 C 9.67 g/m*3 20.3 C 0 km/h
1299 23-09-2009 19:54:01 20 C 9.85 g/m*3 20 C 0 km/h
1300 23-09-2009 20:06:02 19.7 C 10.02 g/m*3 19.7 C 0 km/h
Sensor: Nr:Datum:Temp:Abs-Feuchte:Windchill:Wind:
Aussen-T/F 1301 23-09-2009 20:18:01 19.4 C 9.84 g/m*3 19.4 C 0 km/h
1302 23-09-2009 20:30:01 19.1 C 10 g/m*3 19.1 C 0 km/h
1303 23-09-2009 20:42:01 18.7 C 10.09 g/m*3 18.7 C 0 km/h
1304 23-09-2009 20:54:01 18.4 C 10.07 g/m*3 18.4 C 0 km/h
1305 23-09-2009 21:06:02 18.4 C 10.22 g/m*3 18.4 C 0 km/h
1306 23-09-2009 21:18:01 18.6 C 10.19 g/m*3 18.6 C 0 km/h
1307 23-09-2009 21:30:01 18.5 C 10.13 g/m*3 18.5 C 0 km/h
1308 23-09-2009 21:42:01 18.3 C 10.16 g/m*3 18.3 C 0 km/h
1309 23-09-2009 21:54:01 18 C 10.14 g/m*3 18 C 0 km/h
1310 23-09-2009 22:06:02 17.9 C 10.23 g/m*3 17.9 C 0 km/h
1311 23-09-2009 22:18:01 18.2 C 10.26 g/m*3 18.2 C 0 km/h
1312 23-09-2009 22:30:01 18.2 C 10.1 g/m*3 18.2 C 0 km/h
1313 23-09-2009 22:42:02 18.2 C 10.26 g/m*3 18.2 C 0 km/h
1314 23-09-2009 22:54:02 18.3 C 10.32 g/m*3 18.3 C 0 km/h
1315 23-09-2009 23:06:02 18.2 C 10.26 g/m*3 18.2 C 0 km/h
1316 23-09-2009 23:18:02 18.1 C 10.35 g/m*3 18.1 C 0 km/h
1317 23-09-2009 23:30:02 18.1 C 10.35 g/m*3 18.1 C 0 km/h
1318 23-09-2009 23:42:02 18 C 10.29 g/m*3 18 C 0 km/h
1319 23-09-2009 23:54:02 17.8 C 10.47 g/m*3 17.8 C 0 km/h
1320 24-09-2009 00:06:02 17.6 C 10.5 g/m*3 17.6 C 0 km/h
1321 24-09-2009 00:18:02 17.6 C 10.5 g/m*3 17.6 C 0 km/h
1322 24-09-2009 00:30:02 17.5 C 10.44 g/m*3 17.5 C 0 km/h
1323 24-09-2009 00:42:02 17.2 C 10.4 g/m*3 17.2 C 0 km/h
1324 24-09-2009 00:54:01 16.9 C 10.5 g/m*3 16.9 C 0 km/h
1325 24-09-2009 01:06:02 16.7 C 10.37 g/m*3 16.7 C 0 km/h
Sensor: Nr:Datum:Temp:Abs-Feuchte:Windchill:Wind:
Aussen-T/F 1326 24-09-2009 01:18:01 16.8 C 10.58 g/m*3 16.8 C 0 km/h
1327 24-09-2009 01:30:01 16.8 C 10.58 g/m*3 16.8 C 0 km/h
1328 24-09-2009 01:42:01 16.8 C 10.58 g/m*3 16.8 C 0 km/h
1329 24-09-2009 01:54:01 16.6 C 10.59 g/m*3 16.6 C 0 km/h
1330 24-09-2009 02:06:02 16.6 C 10.59 g/m*3 16.6 C 0 km/h
1331 24-09-2009 02:18:01 16.6 C 10.59 g/m*3 16.6 C 0 km/h
1332 24-09-2009 02:30:01 16.6 C 10.59 g/m*3 16.6 C 0 km/h
1333 24-09-2009 02:42:02 16.5 C 10.67 g/m*3 16.5 C 0 km/h
1334 24-09-2009 02:55:03 16.5 C 10.67 g/m*3 16.5 C 0 km/h
1335 24-09-2009 03:07:03 16.6 C 10.59 g/m*3 16.6 C 0 km/h
1336 24-09-2009 03:19:03 16.6 C 10.59 g/m*3 16.6 C 0 km/h
1337 24-09-2009 03:31:01 16.3 C 10.54 g/m*3 16.3 C 0 km/h
1338 24-09-2009 03:43:01 16.1 C 10.55 g/m*3 16.1 C 0 km/h
1339 24-09-2009 03:55:01 16.2 C 10.62 g/m*3 16.2 C 0 km/h
1340 24-09-2009 04:07:02 16.3 C 10.68 g/m*3 16.3 C 0 km/h
1341 24-09-2009 04:19:01 16.4 C 10.75 g/m*3 16.4 C 0 km/h
1342 24-09-2009 04:31:02 16.4 C 10.75 g/m*3 16.4 C 0 km/h
1343 24-09-2009 04:43:03 16.4 C 10.61 g/m*3 16.4 C 0 km/h
1344 24-09-2009 04:55:02 16.4 C 10.61 g/m*3 16.4 C 0 km/h
1345 24-09-2009 05:07:02 16.4 C 10.61 g/m*3 16.4 C 0 km/h
1346 24-09-2009 05:19:01 16.2 C 10.62 g/m*3 16.2 C 0 km/h
1347 24-09-2009 05:31:02 16.2 C 10.62 g/m*3 16.2 C 0 km/h
1348 24-09-2009 05:43:02 16.2 C 10.76 g/m*3 16.2 C 0 km/h
1349 24-09-2009 05:55:02 16.3 C 10.82 g/m*3 16.3 C 0 km/h
1350 24-09-2009 06:07:02 16.3 C 10.68 g/m*3 16.3 C 0 km/h
Sensor: Nr:Datum:Temp:Abs-Feuchte:Windchill:Wind:
Aussen-T/F 1351 24-09-2009 06:19:01 16.2 C 10.62 g/m*3 16.2 C 0 km/h
1352 24-09-2009 06:31:02 16.2 C 10.62 g/m*3 16.2 C 0 km/h
1353 24-09-2009 06:43:02 16 C 10.63 g/m*3 16 C 0 km/h
1354 24-09-2009 06:55:02 16 C 10.63 g/m*3 16 C 0 km/h
1355 24-09-2009 07:07:02 15.9 C 10.7 g/m*3 15.9 C 0 km/h
1356 24-09-2009 07:19:01 15.9 C 10.7 g/m*3 15.9 C 0 km/h
1357 24-09-2009 07:31:02 16.1 C 10.69 g/m*3 16.1 C 0 km/h
1358 24-09-2009 07:43:02 16.2 C 10.76 g/m*3 16.2 C 0 km/h
1359 24-09-2009 07:55:02 16.2 C 10.76 g/m*3 16.2 C 0 km/h
1360 24-09-2009 08:07:02 16.2 C 10.62 g/m*3 16.2 C 0 km/h
1361 24-09-2009 08:19:02 16.1 C 10.55 g/m*3 16.1 C 0 km/h
1362 24-09-2009 08:31:02 16.2 C 10.62 g/m*3 16.2 C 0 km/h
1363 24-09-2009 08:43:02 16.3 C 10.68 g/m*3 16.3 C 0 km/h
1364 24-09-2009 08:55:01 16.5 C 10.81 g/m*3 16.5 C 0 km/h
1365 24-09-2009 09:07:02 16.6 C 10.74 g/m*3 16.6 C 0 km/h
1366 24-09-2009 09:19:02 16.5 C 10.67 g/m*3 16.5 C 0 km/h
1367 24-09-2009 09:31:02 16.6 C 10.74 g/m*3 16.6 C 0 km/h
1368 24-09-2009 09:43:02 16.8 C 10.58 g/m*3 16.8 C 0 km/h
1369 24-09-2009 09:55:01 16.9 C 10.64 g/m*3 16.9 C 0 km/h
1370 24-09-2009 10:07:02 16.9 C 10.64 g/m*3 16.9 C 0 km/h
1371 24-09-2009 10:19:01 17.1 C 10.77 g/m*3 17.1 C 0 km/h
1372 24-09-2009 10:31:02 17.3 C 10.75 g/m*3 17.3 C 0 km/h
1373 24-09-2009 10:43:02 17.8 C 10.93 g/m*3 17.8 C 0 km/h
1374 24-09-2009 10:55:02 18.1 C 10.66 g/m*3 18.1 C 0 km/h
1375 24-09-2009 11:07:02 18.4 C 10.7 g/m*3 18.4 C 0 km/h
Sensor: Nr:Datum:Temp:Abs-Feuchte:Windchill:Wind:
Aussen-T/F 1376 24-09-2009 11:19:02 18.6 C 10.82 g/m*3 18.6 C 0 km/h
1377 24-09-2009 11:31:02 19.3 C 10.62 g/m*3 19.3 C 0 km/h
1378 24-09-2009 11:43:03 19.7 C 10.36 g/m*3 19.7 C 0 km/h
1379 24-09-2009 11:55:02 20.1 C 10.43 g/m*3 20.1 C 0 km/h
1380 24-09-2009 12:07:02 20.1 C 10.08 g/m*3 20.1 C 0 km/h
1381 24-09-2009 12:19:02 19.9 C 10.48 g/m*3 19.9 C 0 km/h
1382 24-09-2009 12:31:02 19.5 C 10.41 g/m*3 19.5 C 0 km/h
1383 24-09-2009 12:43:02 19.9 C 10.65 g/m*3 19.9 C 0 km/h
1384 24-09-2009 12:55:01 20.6 C 10.56 g/m*3 20.6 C 0 km/h
1385 24-09-2009 13:07:01 20.9 C 10.38 g/m*3 20.9 C 0 km/h
1386 24-09-2009 13:19:01 19.4 C 10.34 g/m*3 19.4 C 0 km/h
1387 24-09-2009 13:31:01 17.7 C 11.16 g/m*3 17.7 C 0 km/h
1388 24-09-2009 13:43:01 17.5 C 11.33 g/m*3 17.5 C 0 km/h
1389 24-09-2009 13:55:01 17.6 C 11.4 g/m*3 17.6 C 0 km/h
1390 24-09-2009 14:07:01 18.1 C 10.97 g/m*3 18.1 C 0 km/h
1391 24-09-2009 14:19:01 18.5 C 10.6 g/m*3 18.5 C 0 km/h
1392 24-09-2009 14:31:01 18.7 C 10.25 g/m*3 18.7 C 0 km/h
1393 24-09-2009 14:43:01 19.4 C 10.51 g/m*3 19.4 C 0 km/h
1394 24-09-2009 14:55:01 19.8 C 10.08 g/m*3 19.8 C 0 km/h
1395 24-09-2009 15:07:01 20.3 C 10.02 g/m*3 20.3 C 0 km/h
1396 24-09-2009 15:19:02 20.2 C 9.97 g/m*3 20.2 C 0 km/h
1397 24-09-2009 15:31:01 19.7 C 9.85 g/m*3 19.7 C 0 km/h
1398 24-09-2009 15:43:01 19.4 C 10.01 g/m*3 19.4 C 0 km/h
1399 24-09-2009 15:55:01 19.7 C 10.02 g/m*3 19.7 C 0 km/h
1400 24-09-2009 16:07:01 19.7 C 9.51 g/m*3 19.7 C 0 km/h
Sensor: Nr:Datum:Temp:Abs-Feuchte:Windchill:Wind:
Aussen-T/F 1401 24-09-2009 16:19:02 19.6 C 9.96 g/m*3 19.6 C 0 km/h
1402 24-09-2009 16:31:01 19.5 C 9.9 g/m*3 19.5 C 0 km/h
1403 24-09-2009 16:43:01 19.5 C 9.73 g/m*3 19.5 C 0 km/h
1404 24-09-2009 16:55:02 19 C 9.61 g/m*3 19 C 0 km/h
1405 24-09-2009 17:07:02 19 C 9.78 g/m*3 19 C 0 km/h
1406 24-09-2009 17:19:03 18.8 C 9.66 g/m*3 18.8 C 0 km/h
1407 24-09-2009 17:31:02 18.5 C 9.81 g/m*3 18.5 C 0 km/h
1408 24-09-2009 17:43:02 18.5 C 9.97 g/m*3 18.5 C 0 km/h
1409 24-09-2009 17:55:03 18.5 C 10.13 g/m*3 18.5 C 0 km/h
1410 24-09-2009 18:07:02 18.6 C 10.35 g/m*3 18.6 C 0 km/h
1411 24-09-2009 18:19:02 18.5 C 10.28 g/m*3 18.5 C 0 km/h
1412 24-09-2009 18:31:02 18.5 C 10.13 g/m*3 18.5 C 0 km/h
1413 24-09-2009 18:43:02 18.2 C 9.79 g/m*3 18.2 C 0 km/h
1414 24-09-2009 18:55:02 18.3 C 10.01 g/m*3 18.3 C 0 km/h
1415 24-09-2009 19:07:02 17.9 C 9.77 g/m*3 17.9 C 0 km/h
1416 24-09-2009 19:19:02 17.7 C 9.66 g/m*3 17.7 C 0 km/h
1417 24-09-2009 19:31:02 17.6 C 9.6 g/m*3 17.6 C 0 km/h
1418 24-09-2009 19:43:02 17.4 C 9.63 g/m*3 17.4 C 0 km/h
1419 24-09-2009 19:55:02 17.2 C 9.67 g/m*3 17.2 C 0 km/h
1420 24-09-2009 20:07:01 16.9 C 9.92 g/m*3 16.9 C 0 km/h
1421 24-09-2009 20:19:02 16.6 C 10.03 g/m*3 16.6 C 0 km/h
1422 24-09-2009 20:31:02 16.4 C 10.05 g/m*3 16.4 C 0 km/h
1423 24-09-2009 20:43:02 16.1 C 10.01 g/m*3 16.1 C 0 km/h
1424 24-09-2009 20:55:02 15.7 C 10.03 g/m*3 15.7 C 0 km/h
1425 24-09-2009 21:07:01 15.5 C 10.05 g/m*3 15.5 C 0 km/h
Sensor: Nr:Datum:Temp:Abs-Feuchte:Windchill:Wind:
Aussen-T/F 1426 24-09-2009 21:19:02 15.5 C 10.18 g/m*3 15.5 C 0 km/h
1427 24-09-2009 21:31:01 15.3 C 10.19 g/m*3 15.3 C 0 km/h
1428 24-09-2009 21:43:01 15 C 10.13 g/m*3 15 C 0 km/h
1429 24-09-2009 21:55:03 14.8 C 10.26 g/m*3 14.8 C 0 km/h
1430 24-09-2009 22:08:03 14.8 C 10.39 g/m*3 14.8 C 0 km/h
1431 24-09-2009 22:20:03 14.7 C 10.32 g/m*3 14.7 C 0 km/h
1432 24-09-2009 22:32:03 14.3 C 10.2 g/m*3 14.3 C 0 km/h
1433 24-09-2009 22:44:03 14.1 C 10.07 g/m*3 14.1 C 0 km/h
1434 24-09-2009 22:56:04 14 C 10.01 g/m*3 14 C 0 km/h
1435 24-09-2009 23:08:04 14 C 10.13 g/m*3 14 C 0 km/h
1436 24-09-2009 23:20:04 14 C 10.13 g/m*3 14 C 0 km/h
1437 24-09-2009 23:32:04 13.8 C 10.13 g/m*3 13.8 C 0 km/h
1438 24-09-2009 23:44:04 13.4 C 9.88 g/m*3 13.4 C 0 km/h
1439 24-09-2009 23:56:04 13.2 C 9.76 g/m*3 13.2 C 0 km/h
1440 25-09-2009 00:08:04 13 C 9.64 g/m*3 13 C 0 km/h
1441 25-09-2009 00:20:04 12.8 C 9.63 g/m*3 12.8 C 0 km/h
1442 25-09-2009 00:32:04 12.7 C 9.57 g/m*3 12.7 C 0 km/h
1443 25-09-2009 00:44:04 12.5 C 9.57 g/m*3 12.5 C 0 km/h
1444 25-09-2009 00:56:04 12.4 C 9.51 g/m*3 12.4 C 0 km/h
1445 25-09-2009 01:08:04 12.3 C 9.45 g/m*3 12.3 C 0 km/h
1446 25-09-2009 01:20:04 12.5 C 9.68 g/m*3 12.5 C 0 km/h
1447 25-09-2009 01:32:04 12.6 C 9.74 g/m*3 12.6 C 0 km/h
1448 25-09-2009 01:44:04 12.6 C 9.74 g/m*3 12.6 C 0 km/h
1449 25-09-2009 01:56:04 12.7 C 9.8 g/m*3 12.7 C 0 km/h
1450 25-09-2009 02:08:04 12.8 C 9.74 g/m*3 12.8 C 0 km/h
Sensor: Nr:Datum:Temp:Abs-Feuchte:Windchill:Wind:
Aussen-T/F 1451 25-09-2009 02:20:04 12.8 C 9.74 g/m*3 12.8 C 0 km/h
1452 25-09-2009 02:32:04 12.8 C 9.63 g/m*3 12.8 C 0 km/h
1453 25-09-2009 02:44:04 12.7 C 9.57 g/m*3 12.7 C 0 km/h
1454 25-09-2009 02:56:04 12.5 C 9.57 g/m*3 12.5 C 0 km/h
1455 25-09-2009 03:08:05 12.4 C 9.51 g/m*3 12.4 C 0 km/h
1456 25-09-2009 03:20:05 12.2 C 9.39 g/m*3 12.2 C 0 km/h
1457 25-09-2009 03:32:05 12.3 C 9.56 g/m*3 12.3 C 0 km/h
1458 25-09-2009 03:44:05 12.3 C 9.56 g/m*3 12.3 C 0 km/h
1459 25-09-2009 03:56:05 12.4 C 9.62 g/m*3 12.4 C 0 km/h
1460 25-09-2009 04:08:05 12.3 C 9.56 g/m*3 12.3 C 0 km/h
1461 25-09-2009 04:20:05 11.8 C 9.26 g/m*3 11.8 C 0 km/h
1462 25-09-2009 04:32:05 11.7 C 9.2 g/m*3 11.7 C 0 km/h
1463 25-09-2009 04:44:05 11.7 C 9.31 g/m*3 11.7 C 0 km/h
1464 25-09-2009 04:56:05 11.5 C 9.19 g/m*3 11.5 C 0 km/h
1465 25-09-2009 05:08:05 11.2 C 9.02 g/m*3 11.2 C 0 km/h
1466 25-09-2009 05:20:05 11.1 C 8.96 g/m*3 11.1 C 0 km/h
1467 25-09-2009 05:32:05 11.1 C 9.07 g/m*3 11.1 C 0 km/h
1468 25-09-2009 05:44:05 11 C 9.01 g/m*3 11 C 0 km/h
1469 25-09-2009 05:56:05 10.8 C 8.9 g/m*3 10.8 C 0 km/h
1470 25-09-2009 06:08:05 10.8 C 8.99 g/m*3 10.8 C 0 km/h
1471 25-09-2009 06:20:05 10.9 C 9.05 g/m*3 10.9 C 0 km/h
1472 25-09-2009 06:32:05 11 C 9.01 g/m*3 11 C 0 km/h
1473 25-09-2009 06:44:05 10.9 C 8.95 g/m*3 10.9 C 0 km/h
1474 25-09-2009 06:56:05 10.9 C 8.95 g/m*3 10.9 C 0 km/h
1475 25-09-2009 07:08:06 11.1 C 8.96 g/m*3 11.1 C 0 km/h
Sensor: Nr:Datum:Temp:Abs-Feuchte:Windchill:Wind:
Aussen-T/F 1476 25-09-2009 07:20:06 11.1 C 8.96 g/m*3 11.1 C 0 km/h
1477 25-09-2009 07:32:04 11 C 8.91 g/m*3 11 C 0 km/h
1478 25-09-2009 07:44:04 10.9 C 8.95 g/m*3 10.9 C 0 km/h
1479 25-09-2009 07:56:02 11.1 C 9.07 g/m*3 11.1 C 0 km/h
1480 25-09-2009 08:08:02 11.3 C 9.18 g/m*3 11.3 C 0 km/h
1481 25-09-2009 08:20:02 11.4 C 9.14 g/m*3 11.4 C 0 km/h
1482 25-09-2009 08:32:02 11.6 C 9.25 g/m*3 11.6 C 0 km/h
1483 25-09-2009 08:44:02 11.9 C 9.43 g/m*3 11.9 C 0 km/h
1484 25-09-2009 08:56:02 11.8 C 9.16 g/m*3 11.8 C 0 km/h
1485 25-09-2009 09:08:01 11.9 C 9.21 g/m*3 11.9 C 0 km/h
1486 25-09-2009 09:20:01 12.4 C 9.4 g/m*3 12.4 C 0 km/h
1487 25-09-2009 09:32:02 12.7 C 9.35 g/m*3 12.7 C 0 km/h
1488 25-09-2009 09:44:02 13.2 C 9.42 g/m*3 13.2 C 0 km/h
1489 25-09-2009 09:56:02 13.4 C 9.18 g/m*3 13.4 C 0 km/h
1490 25-09-2009 10:08:02 14 C 9.17 g/m*3 14 C 0 km/h
1491 25-09-2009 10:20:02 14.1 C 8.86 g/m*3 14.1 C 0 km/h
1492 25-09-2009 10:32:02 14.3 C 8.85 g/m*3 14.3 C 0 km/h
1493 25-09-2009 10:44:02 14.4 C 8.65 g/m*3 14.4 C 0 km/h
1494 25-09-2009 10:56:02 14.6 C 8.76 g/m*3 14.6 C 0 km/h
1495 25-09-2009 11:08:02 14.7 C 8.69 g/m*3 14.7 C 0 km/h
1496 25-09-2009 11:20:01 15 C 8.59 g/m*3 15 C 0 km/h
1497 25-09-2009 11:32:02 15 C 8.72 g/m*3 15 C 0 km/h
1498 25-09-2009 11:44:02 15 C 8.85 g/m*3 15 C 0 km/h
1499 25-09-2009 11:56:02 15.5 C 8.99 g/m*3 15.5 C 0 km/h
1500 25-09-2009 12:08:02 15.7 C 8.83 g/m*3 15.7 C 0 km/h
Sensor: Nr:Datum:Temp:Abs-Feuchte:Windchill:Wind:
Aussen-T/F 1501 25-09-2009 12:20:02 16.3 C 8.74 g/m*3 16.3 C 0 km/h
1502 25-09-2009 12:32:02 16.6 C 8.9 g/m*3 16.6 C 0 km/h
1503 25-09-2009 12:44:02 16.9 C 8.77 g/m*3 16.9 C 0 km/h
1504 25-09-2009 12:56:03 17.7 C 8.6 g/m*3 17.7 C 0 km/h
1505 25-09-2009 13:08:02 18.2 C 8.24 g/m*3 18.2 C 0 km/h
1506 25-09-2009 13:20:02 18.8 C 8.37 g/m*3 18.8 C 0 km/h
1507 25-09-2009 13:32:02 19.4 C 7.67 g/m*3 19.4 C 0 km/h
1508 25-09-2009 13:44:02 20 C 7.09 g/m*3 20 C 0 km/h
1509 25-09-2009 13:56:02 20.9 C 7.1 g/m*3 20.9 C 0 km/h
1510 25-09-2009 14:08:02 21 C 5.86 g/m*3 21 C 0 km/h
1511 25-09-2009 14:20:01 21.3 C 6.15 g/m*3 21.3 C 0 km/h
1512 25-09-2009 14:32:02 22.7 C 6.26 g/m*3 22.7 C 0 km/h
1513 25-09-2009 14:44:02 22.1 C 6.05 g/m*3 22.1 C 0 km/h
1514 25-09-2009 14:56:02 21.5 C 6.6 g/m*3 21.5 C 0 km/h
1515 25-09-2009 15:08:02 20.4 C 6.55 g/m*3 20.4 C 0 km/h
1516 25-09-2009 15:20:02 20.5 C 7.12 g/m*3 20.5 C 0 km/h
1517 25-09-2009 15:32:02 22.1 C 6.44 g/m*3 22.1 C 0 km/h
1518 25-09-2009 15:44:02 23.1 C 5.58 g/m*3 23.1 C 0 km/h
1519 25-09-2009 15:56:02 21.1 C 5.53 g/m*3 21.1 C 0 km/h
1520 25-09-2009 16:08:02 21.3 C 5.96 g/m*3 21.3 C 0 km/h
1521 25-09-2009 16:20:02 21.2 C 6.12 g/m*3 21.2 C 0 km/h
1522 25-09-2009 16:32:02 20.4 C 6.37 g/m*3 20.4 C 0 km/h
1523 25-09-2009 16:44:02 20.5 C 6.41 g/m*3 20.5 C 0 km/h
1524 25-09-2009 16:56:02 21.4 C 6.19 g/m*3 21.4 C 0 km/h
1525 25-09-2009 17:08:02 20.8 C 5.98 g/m*3 20.8 C 0 km/h
Sensor: Nr:Datum:Temp:Abs-Feuchte:Windchill:Wind:
Aussen-T/F 1526 25-09-2009 17:20:02 21.5 C 6.22 g/m*3 21.5 C 0 km/h
1527 25-09-2009 17:32:02 21.5 C 6.41 g/m*3 21.5 C 0 km/h
1528 25-09-2009 17:44:02 20.8 C 6.7 g/m*3 20.8 C 0 km/h
1529 25-09-2009 17:56:01 20 C 6.91 g/m*3 20 C 0 km/h
1530 25-09-2009 18:08:01 19.9 C 7.39 g/m*3 19.9 C 0 km/h
1531 25-09-2009 18:20:02 19.5 C 7.55 g/m*3 19.5 C 0 km/h
1532 25-09-2009 18:32:01 19.1 C 7.38 g/m*3 19.1 C 0 km/h
1533 25-09-2009 18:44:01 18.6 C 7.48 g/m*3 18.6 C 0 km/h
1534 25-09-2009 18:56:02 18.4 C 7.55 g/m*3 18.4 C 0 km/h
1535 25-09-2009 19:08:02 17.8 C 7.44 g/m*3 17.8 C 0 km/h
1536 25-09-2009 19:20:03 17 C 7.23 g/m*3 17 C 0 km/h
1537 25-09-2009 19:32:02 16.8 C 7.43 g/m*3 16.8 C 0 km/h
1538 25-09-2009 19:44:02 16.5 C 7.44 g/m*3 16.5 C 0 km/h
1539 25-09-2009 19:56:03 16.2 C 7.31 g/m*3 16.2 C 0 km/h
1540 25-09-2009 20:08:02 16 C 7.49 g/m*3 16 C 0 km/h
1541 25-09-2009 20:20:02 15.6 C 7.45 g/m*3 15.6 C 0 km/h
1542 25-09-2009 20:32:02 15.2 C 7.53 g/m*3 15.2 C 0 km/h
1543 25-09-2009 20:44:02 15.1 C 7.61 g/m*3 15.1 C 0 km/h
1544 25-09-2009 20:56:02 15.3 C 7.7 g/m*3 15.3 C 0 km/h
1545 25-09-2009 21:08:02 15.5 C 7.93 g/m*3 15.5 C 0 km/h
1546 25-09-2009 21:20:02 15.5 C 8.06 g/m*3 15.5 C 0 km/h
1547 25-09-2009 21:32:02 15.6 C 8.11 g/m*3 15.6 C 0 km/h
1548 25-09-2009 21:44:02 15.4 C 8.01 g/m*3 15.4 C 0 km/h
1549 25-09-2009 21:56:02 15.1 C 8 g/m*3 15.1 C 0 km/h
1550 25-09-2009 22:08:02 14.9 C 8.03 g/m*3 14.9 C 0 km/h
Sensor: Nr:Datum:Temp:Abs-Feuchte:Windchill:Wind:
Aussen-T/F 1551 25-09-2009 22:21:03 14.6 C 8.01 g/m*3 14.6 C 0 km/h
1552 25-09-2009 22:33:03 14.3 C 7.86 g/m*3 14.3 C 0 km/h
1553 25-09-2009 22:45:03 13.9 C 7.91 g/m*3 13.9 C 0 km/h
1554 25-09-2009 22:57:03 13.7 C 7.93 g/m*3 13.7 C 0 km/h
1555 25-09-2009 23:09:03 13.3 C 7.97 g/m*3 13.3 C 0 km/h
1556 25-09-2009 23:21:03 13.1 C 7.99 g/m*3 13.1 C 0 km/h
1557 25-09-2009 23:33:03 13 C 8.05 g/m*3 13 C 0 km/h
1558 25-09-2009 23:45:03 12.7 C 8.13 g/m*3 12.7 C 0 km/h
1559 25-09-2009 23:57:03 12.6 C 8.08 g/m*3 12.6 C 0 km/h
1560 26-09-2009 00:09:03 12.4 C 8.09 g/m*3 12.4 C 0 km/h
1561 26-09-2009 00:21:03 12.1 C 7.94 g/m*3 12.1 C 0 km/h
1562 26-09-2009 00:33:03 12.1 C 8.04 g/m*3 12.1 C 0 km/h
1563 26-09-2009 00:45:03 11.8 C 8.1 g/m*3 11.8 C 0 km/h
1564 26-09-2009 00:57:03 11.8 C 8.1 g/m*3 11.8 C 0 km/h
1565 26-09-2009 01:09:03 11.7 C 8.05 g/m*3 11.7 C 0 km/h
1566 26-09-2009 01:21:03 11.6 C 8.11 g/m*3 11.6 C 0 km/h
1567 26-09-2009 01:33:03 11.7 C 8.16 g/m*3 11.7 C 0 km/h
1568 26-09-2009 01:45:03 11.5 C 8.06 g/m*3 11.5 C 0 km/h
1569 26-09-2009 01:57:03 11.2 C 7.91 g/m*3 11.2 C 0 km/h
1570 26-09-2009 02:09:04 11.1 C 7.86 g/m*3 11.1 C 0 km/h
1571 26-09-2009 02:21:04 10.9 C 7.86 g/m*3 10.9 C 0 km/h
1572 26-09-2009 02:33:04 10.7 C 7.86 g/m*3 10.7 C 0 km/h
1573 26-09-2009 02:45:04 10.6 C 7.81 g/m*3 10.6 C 0 km/h
1574 26-09-2009 02:57:04 10.4 C 7.81 g/m*3 10.4 C 0 km/h
1575 26-09-2009 03:09:04 10.1 C 7.66 g/m*3 10.1 C 0 km/h
Sensor: Nr:Datum:Temp:Abs-Feuchte:Windchill:Wind:
Aussen-T/F 1576 26-09-2009 03:21:04 10 C 7.61 g/m*3 10 C 0 km/h
1577 26-09-2009 03:33:04 9.8 C 7.61 g/m*3 9.8 C 0 km/h
1578 26-09-2009 03:45:04 9.7 C 7.65 g/m*3 9.7 C 0 km/h
1579 26-09-2009 03:57:04 9.5 C 7.55 g/m*3 9.5 C 0 km/h
1580 26-09-2009 04:09:04 9.3 C 7.55 g/m*3 9.3 C 0 km/h
1581 26-09-2009 04:21:04 9.2 C 7.5 g/m*3 9.2 C 0 km/h
1582 26-09-2009 04:33:04 9.1 C 7.54 g/m*3 9.1 C 0 km/h
1583 26-09-2009 04:45:04 9 C 7.49 g/m*3 9 C 0 km/h
1584 26-09-2009 04:57:04 8.8 C 7.57 g/m*3 8.8 C 0 km/h
1585 26-09-2009 05:09:04 8.7 C 7.52 g/m*3 8.7 C 0 km/h
1586 26-09-2009 05:21:04 8.6 C 7.48 g/m*3 8.6 C 0 km/h
1587 26-09-2009 05:33:04 8.5 C 7.43 g/m*3 8.5 C 0 km/h
1588 26-09-2009 05:45:04 8.4 C 7.3 g/m*3 8.4 C 0 km/h
1589 26-09-2009 05:57:04 8.2 C 7.29 g/m*3 8.2 C 0 km/h
1590 26-09-2009 06:09:05 8 C 7.19 g/m*3 8 C 0 km/h
1591 26-09-2009 06:21:05 7.8 C 7.26 g/m*3 7.8 C 0 km/h
1592 26-09-2009 06:33:05 7.8 C 7.26 g/m*3 7.8 C 0 km/h
1593 26-09-2009 06:45:05 7.8 C 7.26 g/m*3 7.8 C 0 km/h
1594 26-09-2009 06:57:05 7.8 C 7.35 g/m*3 7.8 C 0 km/h
1595 26-09-2009 07:09:05 7.9 C 7.39 g/m*3 7.9 C 0 km/h
1596 26-09-2009 07:21:05 7.9 C 7.39 g/m*3 7.9 C 0 km/h
1597 26-09-2009 07:33:05 7.9 C 7.39 g/m*3 7.9 C 0 km/h
1598 26-09-2009 07:45:05 8.1 C 7.41 g/m*3 8.1 C 0 km/h
1599 26-09-2009 07:57:05 7.9 C 7.39 g/m*3 7.9 C 0 km/h
1600 26-09-2009 08:09:05 7.8 C 7.43 g/m*3 7.8 C 0 km/h
Sensor: Nr:Datum:Temp:Abs-Feuchte:Windchill:Wind:
Aussen-T/F 1601 26-09-2009 08:21:05 7.9 C 7.47 g/m*3 7.9 C 0 km/h
1602 26-09-2009 08:33:05 8 C 7.44 g/m*3 8 C 0 km/h
1603 26-09-2009 08:45:02 8.1 C 7.49 g/m*3 8.1 C 0 km/h
1604 26-09-2009 08:57:02 8.5 C 7.77 g/m*3 8.5 C 0 km/h
1605 26-09-2009 09:09:03 8.7 C 7.78 g/m*3 8.7 C 0 km/h
1606 26-09-2009 09:21:02 9.1 C 7.9 g/m*3 9.1 C 0 km/h
1607 26-09-2009 09:33:02 9.2 C 7.95 g/m*3 9.2 C 0 km/h
1608 26-09-2009 09:45:01 9.5 C 8.1 g/m*3 9.5 C 0 km/h
1609 26-09-2009 09:57:01 9.9 C 8.31 g/m*3 9.9 C 0 km/h
1610 26-09-2009 10:09:02 10.2 C 8.37 g/m*3 10.2 C 0 km/h
1611 26-09-2009 10:21:01 10.9 C 8.65 g/m*3 10.9 C 0 km/h
1612 26-09-2009 10:33:02 11.1 C 8.36 g/m*3 11.1 C 0 km/h
1613 26-09-2009 10:45:01 11.2 C 8.41 g/m*3 11.2 C 0 km/h
1614 26-09-2009 10:57:01 11.7 C 8.79 g/m*3 11.7 C 0 km/h
1615 26-09-2009 11:09:02 12.2 C 8.85 g/m*3 12.2 C 0 km/h
1616 26-09-2009 11:21:01 12.8 C 8.85 g/m*3 12.8 C 0 km/h
1617 26-09-2009 11:33:02 13.4 C 8.72 g/m*3 13.4 C 0 km/h
1618 26-09-2009 11:45:02 14.1 C 8.86 g/m*3 14.1 C 0 km/h
1619 26-09-2009 11:57:02 14.7 C 8.81 g/m*3 14.7 C 0 km/h
1620 26-09-2009 12:09:02 15.2 C 8.83 g/m*3 15.2 C 0 km/h
1621 26-09-2009 12:21:01 15.6 C 8.64 g/m*3 15.6 C 0 km/h
1622 26-09-2009 12:33:02 16.1 C 8.5 g/m*3 16.1 C 0 km/h
1623 26-09-2009 12:45:02 16.4 C 8.65 g/m*3 16.4 C 0 km/h
1624 26-09-2009 12:57:02 17.1 C 8.73 g/m*3 17.1 C 0 km/h
1625 26-09-2009 13:09:02 17.6 C 8.85 g/m*3 17.6 C 0 km/h
Sensor: Nr:Datum:Temp:Abs-Feuchte:Windchill:Wind:
Aussen-T/F 1626 26-09-2009 13:21:02 18.2 C 8.39 g/m*3 18.2 C 0 km/h
1627 26-09-2009 13:33:02 18.9 C 8.1 g/m*3 18.9 C 0 km/h
1628 26-09-2009 13:45:01 19.7 C 7.81 g/m*3 19.7 C 0 km/h
1629 26-09-2009 13:57:01 20.4 C 8.14 g/m*3 20.4 C 0 km/h
1630 26-09-2009 14:09:02 20.9 C 7.29 g/m*3 20.9 C 0 km/h
1631 26-09-2009 14:21:02 21.1 C 6.82 g/m*3 21.1 C 0 km/h
1632 26-09-2009 14:33:02 21.9 C 6.95 g/m*3 21.9 C 0 km/h
1633 26-09-2009 14:45:02 22.7 C 7.07 g/m*3 22.7 C 0 km/h
1634 26-09-2009 14:57:02 23 C 6.37 g/m*3 23 C 0 km/h
1635 26-09-2009 15:09:01 23.4 C 6.52 g/m*3 23.4 C 0 km/h
1636 26-09-2009 15:21:02 23.8 C 6.45 g/m*3 23.8 C 0 km/h
1637 26-09-2009 15:33:01 24.1 C 6.56 g/m*3 24.1 C 0 km/h
1638 26-09-2009 15:45:02 23.9 C 6.06 g/m*3 23.9 C 0 km/h
1639 26-09-2009 15:57:02 24 C 5.87 g/m*3 24 C 0 km/h
1640 26-09-2009 16:09:01 24.2 C 5.94 g/m*3 24.2 C 0 km/h
1641 26-09-2009 16:21:02 24.4 C 6.68 g/m*3 24.4 C 0 km/h
1642 26-09-2009 16:33:02 24.7 C 5.88 g/m*3 24.7 C 0 km/h
1643 26-09-2009 16:45:02 24.7 C 6.11 g/m*3 24.7 C 0 km/h
1644 26-09-2009 16:57:03 25.7 C 6.46 g/m*3 25.7 C 0 km/h
1645 26-09-2009 17:09:02 25.6 C 6.19 g/m*3 25.6 C 0 km/h
1646 26-09-2009 17:21:02 26 C 6.33 g/m*3 26 C 0 km/h
1647 26-09-2009 17:33:02 25.7 C 6.94 g/m*3 25.7 C 0 km/h
1648 26-09-2009 17:45:02 25.5 C 7.1 g/m*3 25.5 C 0 km/h
1649 26-09-2009 17:57:02 25 C 6.91 g/m*3 25 C 0 km/h
1650 26-09-2009 18:09:02 24.5 C 6.94 g/m*3 24.5 C 0 km/h
Sensor: Nr:Datum:Temp:Abs-Feuchte:Windchill:Wind:
Aussen-T/F 1651 26-09-2009 18:21:01 23.7 C 7.06 g/m*3 23.7 C 0 km/h
1652 26-09-2009 18:33:02 22.7 C 7.07 g/m*3 22.7 C 0 km/h
1653 26-09-2009 18:45:02 22 C 7.18 g/m*3 22 C 0 km/h
1654 26-09-2009 18:57:02 21.1 C 7.19 g/m*3 21.1 C 0 km/h
1655 26-09-2009 19:09:02 20 C 7.26 g/m*3 20 C 0 km/h
1656 26-09-2009 19:21:02 19.1 C 7.38 g/m*3 19.1 C 0 km/h
1657 26-09-2009 19:33:02 18.3 C 7.35 g/m*3 18.3 C 0 km/h
1658 26-09-2009 19:45:02 17.8 C 7.44 g/m*3 17.8 C 0 km/h
1659 26-09-2009 19:57:02 17.2 C 7.47 g/m*3 17.2 C 0 km/h
1660 26-09-2009 20:09:02 17.1 C 7.57 g/m*3 17.1 C 0 km/h
1661 26-09-2009 20:21:02 16.7 C 7.53 g/m*3 16.7 C 0 km/h
1662 26-09-2009 20:33:02 16.2 C 7.58 g/m*3 16.2 C 0 km/h
1663 26-09-2009 20:45:01 16 C 7.49 g/m*3 16 C 0 km/h
1664 26-09-2009 20:57:01 15.8 C 7.67 g/m*3 15.8 C 0 km/h
1665 26-09-2009 21:09:02 15.5 C 7.67 g/m*3 15.5 C 0 km/h
1666 26-09-2009 21:21:01 15.3 C 7.57 g/m*3 15.3 C 0 km/h
1667 26-09-2009 21:33:01 14.9 C 7.65 g/m*3 14.9 C 0 km/h
1668 26-09-2009 21:45:01 14.7 C 7.81 g/m*3 14.7 C 0 km/h
1669 26-09-2009 21:57:01 14.5 C 7.71 g/m*3 14.5 C 0 km/h
1670 26-09-2009 22:09:01 14.3 C 7.74 g/m*3 14.3 C 0 km/h
1671 26-09-2009 22:21:01 14 C 7.72 g/m*3 14 C 0 km/h
1672 26-09-2009 22:33:02 13.8 C 7.86 g/m*3 13.8 C 0 km/h
1673 26-09-2009 22:45:02 13.6 C 7.89 g/m*3 13.6 C 0 km/h
1674 26-09-2009 22:57:02 13.4 C 7.79 g/m*3 13.4 C 0 km/h
1675 26-09-2009 23:09:02 13.2 C 7.81 g/m*3 13.2 C 0 km/h
Sensor: Nr:Datum:Temp:Abs-Feuchte:Windchill:Wind:
Aussen-T/F 1676 26-09-2009 23:21:02 13 C 7.94 g/m*3 13 C 0 km/h
1677 26-09-2009 23:33:02 12.6 C 8.08 g/m*3 12.6 C 0 km/h
1678 26-09-2009 23:45:02 12.5 C 8.25 g/m*3 12.5 C 0 km/h
1679 26-09-2009 23:57:02 12.2 C 8.09 g/m*3 12.2 C 0 km/h
1680 27-09-2009 00:09:03 12.1 C 8.04 g/m*3 12.1 C 0 km/h
1681 27-09-2009 00:21:02 11.9 C 8.05 g/m*3 11.9 C 0 km/h
1682 27-09-2009 00:33:02 11.7 C 8.16 g/m*3 11.7 C 0 km/h
1683 27-09-2009 00:45:02 11.5 C 8.06 g/m*3 11.5 C 0 km/h
1684 27-09-2009 00:57:02 11.5 C 8.16 g/m*3 11.5 C 0 km/h
1685 27-09-2009 01:09:02 11.4 C 8.11 g/m*3 11.4 C 0 km/h
1686 27-09-2009 01:21:02 11.1 C 7.96 g/m*3 11.1 C 0 km/h
1687 27-09-2009 01:33:02 11.1 C 7.96 g/m*3 11.1 C 0 km/h
1688 27-09-2009 01:45:02 10.9 C 7.96 g/m*3 10.9 C 0 km/h
1689 27-09-2009 01:57:02 10.8 C 8.01 g/m*3 10.8 C 0 km/h
1690 27-09-2009 02:09:01 10.6 C 8 g/m*3 10.6 C 0 km/h
1691 27-09-2009 02:21:02 10.5 C 7.95 g/m*3 10.5 C 0 km/h
1692 27-09-2009 02:33:02 10.4 C 7.9 g/m*3 10.4 C 0 km/h
1693 27-09-2009 02:45:01 10.2 C 7.8 g/m*3 10.2 C 0 km/h
1694 27-09-2009 02:57:01 10.1 C 7.75 g/m*3 10.1 C 0 km/h
1695 27-09-2009 03:09:01 9.9 C 7.75 g/m*3 9.9 C 0 km/h
1696 27-09-2009 03:21:01 9.8 C 7.7 g/m*3 9.8 C 0 km/h
1697 27-09-2009 03:33:01 9.7 C 7.65 g/m*3 9.7 C 0 km/h
1698 27-09-2009 03:45:01 9.6 C 7.69 g/m*3 9.6 C 0 km/h
1699 27-09-2009 03:57:02 9.5 C 7.65 g/m*3 9.5 C 0 km/h
1700 27-09-2009 04:09:01 9.3 C 7.55 g/m*3 9.3 C 0 km/h
Sensor: Nr:Datum:Temp:Abs-Feuchte:Windchill:Wind:
Aussen-T/F 1701 27-09-2009 04:21:01 9.3 C 7.55 g/m*3 9.3 C 0 km/h
1702 27-09-2009 04:33:02 9.2 C 7.5 g/m*3 9.2 C 0 km/h
1703 27-09-2009 04:45:01 9 C 7.41 g/m*3 9 C 0 km/h
1704 27-09-2009 04:57:01 8.9 C 7.45 g/m*3 8.9 C 0 km/h
1705 27-09-2009 05:09:02 8.8 C 7.4 g/m*3 8.8 C 0 km/h
1706 27-09-2009 05:21:01 8.6 C 7.3 g/m*3 8.6 C 0 km/h
1707 27-09-2009 05:33:02 8.5 C 7.34 g/m*3 8.5 C 0 km/h
1708 27-09-2009 05:45:01 8.5 C 7.43 g/m*3 8.5 C 0 km/h
1709 27-09-2009 05:57:01 8.6 C 7.48 g/m*3 8.6 C 0 km/h
1710 27-09-2009 06:09:02 8.6 C 7.56 g/m*3 8.6 C 0 km/h
1711 27-09-2009 06:21:01 8.6 C 7.56 g/m*3 8.6 C 0 km/h
1712 27-09-2009 06:33:01 8.7 C 7.7 g/m*3 8.7 C 0 km/h
1713 27-09-2009 06:45:01 8.9 C 7.8 g/m*3 8.9 C 0 km/h
1714 27-09-2009 06:57:01 8.8 C 7.66 g/m*3 8.8 C 0 km/h
1715 27-09-2009 07:09:02 8.8 C 7.66 g/m*3 8.8 C 0 km/h
1716 27-09-2009 07:21:01 8.7 C 7.61 g/m*3 8.7 C 0 km/h
1717 27-09-2009 07:33:01 8.8 C 7.66 g/m*3 8.8 C 0 km/h
1718 27-09-2009 07:45:01 8.8 C 7.57 g/m*3 8.8 C 0 km/h
1719 27-09-2009 07:57:01 8.5 C 7.43 g/m*3 8.5 C 0 km/h
1720 27-09-2009 08:09:01 8.5 C 7.51 g/m*3 8.5 C 0 km/h
1721 27-09-2009 08:21:01 8.5 C 7.51 g/m*3 8.5 C 0 km/h
1722 27-09-2009 08:33:01 8.3 C 7.42 g/m*3 8.3 C 0 km/h
1723 27-09-2009 08:45:01 8.5 C 7.6 g/m*3 8.5 C 0 km/h
1724 27-09-2009 08:57:01 8.7 C 7.7 g/m*3 8.7 C 0 km/h
1725 27-09-2009 09:09:01 8.8 C 7.66 g/m*3 8.8 C 0 km/h
Sensor: Nr:Datum:Temp:Abs-Feuchte:Windchill:Wind:
Aussen-T/F 1726 27-09-2009 09:21:02 8.9 C 7.71 g/m*3 8.9 C 0 km/h
1727 27-09-2009 09:33:01 9.3 C 7.73 g/m*3 9.3 C 0 km/h
1728 27-09-2009 09:45:02 9.4 C 7.69 g/m*3 9.4 C 0 km/h
1729 27-09-2009 09:57:02 9.7 C 7.74 g/m*3 9.7 C 0 km/h
1730 27-09-2009 10:09:01 10.3 C 7.95 g/m*3 10.3 C 0 km/h
1731 27-09-2009 10:21:02 11 C 8.11 g/m*3 11 C 0 km/h
1732 27-09-2009 10:33:01 11.5 C 8.06 g/m*3 11.5 C 0 km/h
1733 27-09-2009 10:45:02 11.9 C 8.05 g/m*3 11.9 C 0 km/h
1734 27-09-2009 10:57:02 12.5 C 8.14 g/m*3 12.5 C 0 km/h
1735 27-09-2009 11:09:01 12.6 C 7.97 g/m*3 12.6 C 0 km/h
1736 27-09-2009 11:21:02 13 C 8.05 g/m*3 13 C 0 km/h
1737 27-09-2009 11:33:01 13.1 C 8.1 g/m*3 13.1 C 0 km/h
1738 27-09-2009 11:45:02 13 C 8.28 g/m*3 13 C 0 km/h
1739 27-09-2009 11:57:02 13.3 C 8.55 g/m*3 13.3 C 0 km/h
1740 27-09-2009 12:09:01 13.8 C 8.7 g/m*3 13.8 C 0 km/h
1741 27-09-2009 12:21:01 14.4 C 8.65 g/m*3 14.4 C 0 km/h
1742 27-09-2009 12:33:02 15 C 8.85 g/m*3 15 C 0 km/h
1743 27-09-2009 12:45:02 15.8 C 8.75 g/m*3 15.8 C 0 km/h
1744 27-09-2009 12:57:02 16.4 C 8.79 g/m*3 16.4 C 0 km/h
1745 27-09-2009 13:09:01 17.1 C 8.59 g/m*3 17.1 C 0 km/h
1746 27-09-2009 13:21:01 18.2 C 8.7 g/m*3 18.2 C 0 km/h
1747 27-09-2009 13:33:02 18.9 C 8.42 g/m*3 18.9 C 0 km/h
1748 27-09-2009 13:45:01 19.3 C 8.79 g/m*3 19.3 C 0 km/h
1749 27-09-2009 13:57:01 20.3 C 8.27 g/m*3 20.3 C 0 km/h
1750 27-09-2009 14:09:01 21.1 C 8.29 g/m*3 21.1 C 0 km/h
Sensor: Nr:Datum:Temp:Abs-Feuchte:Windchill:Wind:
Aussen-T/F 1751 27-09-2009 14:21:01 22 C 7.96 g/m*3 22 C 0 km/h
1752 27-09-2009 14:33:02 22.3 C 8.29 g/m*3 22.3 C 0 km/h
1753 27-09-2009 14:45:01 22.8 C 8.13 g/m*3 22.8 C 0 km/h
1754 27-09-2009 14:57:01 23.3 C 7.74 g/m*3 23.3 C 0 km/h
1755 27-09-2009 15:09:02 23.8 C 8.17 g/m*3 23.8 C 0 km/h
1756 27-09-2009 15:21:01 24 C 6.53 g/m*3 24 C 0 km/h
1757 27-09-2009 15:33:02 24.5 C 7.39 g/m*3 24.5 C 0 km/h
1758 27-09-2009 15:45:01 25 C 6.68 g/m*3 25 C 0 km/h
1759 27-09-2009 15:57:01 25.4 C 7.06 g/m*3 25.4 C 0 km/h
1760 27-09-2009 16:09:02 25.7 C 7.18 g/m*3 25.7 C 0 km/h
1761 27-09-2009 16:21:01 26 C 7.06 g/m*3 26 C 0 km/h
1762 27-09-2009 16:33:01 25.9 C 7.02 g/m*3 25.9 C 0 km/h
1763 27-09-2009 16:45:01 26.1 C 6.85 g/m*3 26.1 C 0 km/h
1764 27-09-2009 16:57:01 26.2 C 6.65 g/m*3 26.2 C 0 km/h
1765 27-09-2009 17:09:01 26.4 C 6.97 g/m*3 26.4 C 0 km/h
1766 27-09-2009 17:21:01 26.4 C 6.47 g/m*3 26.4 C 0 km/h
1767 27-09-2009 17:33:01 26.2 C 6.65 g/m*3 26.2 C 0 km/h
1768 27-09-2009 17:45:01 25.1 C 6.71 g/m*3 25.1 C 0 km/h
1769 27-09-2009 17:57:01 24.4 C 6.45 g/m*3 24.4 C 0 km/h
1770 27-09-2009 18:09:01 23.9 C 6.49 g/m*3 23.9 C 0 km/h
1771 27-09-2009 18:21:02 23.2 C 6.44 g/m*3 23.2 C 0 km/h
1772 27-09-2009 18:33:01 22.3 C 6.52 g/m*3 22.3 C 0 km/h
1773 27-09-2009 18:45:02 21.5 C 6.6 g/m*3 21.5 C 0 km/h
1774 27-09-2009 18:57:02 20.3 C 6.86 g/m*3 20.3 C 0 km/h
1775 27-09-2009 19:09:01 19.4 C 7.01 g/m*3 19.4 C 0 km/h
Sensor: Nr:Datum:Temp:Abs-Feuchte:Windchill:Wind:
Aussen-T/F 1776 27-09-2009 19:21:02 18.7 C 7.04 g/m*3 18.7 C 0 km/h
1777 27-09-2009 19:33:02 18.2 C 6.99 g/m*3 18.2 C 0 km/h
1778 27-09-2009 19:45:01 17.9 C 7.18 g/m*3 17.9 C 0 km/h
1779 27-09-2009 19:57:01 17.3 C 7.22 g/m*3 17.3 C 0 km/h
1780 27-09-2009 20:09:01 16.9 C 7.34 g/m*3 16.9 C 0 km/h
1781 27-09-2009 20:21:02 16.6 C 7.35 g/m*3 16.6 C 0 km/h
1782 27-09-2009 20:33:01 16.3 C 7.49 g/m*3 16.3 C 0 km/h
1783 27-09-2009 20:45:01 16.2 C 7.45 g/m*3 16.2 C 0 km/h
1784 27-09-2009 20:57:01 16.1 C 7.4 g/m*3 16.1 C 0 km/h
1785 27-09-2009 21:09:01 15.8 C 7.54 g/m*3 15.8 C 0 km/h
1786 27-09-2009 21:21:02 15.5 C 7.67 g/m*3 15.5 C 0 km/h
1787 27-09-2009 21:33:01 15.2 C 7.53 g/m*3 15.2 C 0 km/h
1788 27-09-2009 21:45:02 14.9 C 7.77 g/m*3 14.9 C 0 km/h
1789 27-09-2009 21:57:02 14.7 C 7.81 g/m*3 14.7 C 0 km/h
1790 27-09-2009 22:09:01 14.5 C 7.84 g/m*3 14.5 C 0 km/h
1791 27-09-2009 22:21:02 14 C 7.72 g/m*3 14 C 0 km/h
1792 27-09-2009 22:33:01 13.8 C 7.86 g/m*3 13.8 C 0 km/h
1793 27-09-2009 22:45:01 13.7 C 7.93 g/m*3 13.7 C 0 km/h
1794 27-09-2009 22:57:01 13.3 C 7.97 g/m*3 13.3 C 0 km/h
1795 27-09-2009 23:09:01 12.9 C 8.11 g/m*3 12.9 C 0 km/h
1796 27-09-2009 23:21:02 12.9 C 8.11 g/m*3 12.9 C 0 km/h
1797 27-09-2009 23:33:01 12.8 C 8.06 g/m*3 12.8 C 0 km/h
1798 27-09-2009 23:45:02 12.7 C 8.01 g/m*3 12.7 C 0 km/h
1799 27-09-2009 23:57:02 12.5 C 7.92 g/m*3 12.5 C 0 km/h
1800 28-09-2009 00:09:01 12.5 C 8.14 g/m*3 12.5 C 0 km/h
Sensor: Nr:Datum:Temp:Abs-Feuchte:Windchill:Wind:
Aussen-T/F 1801 28-09-2009 00:21:02 12.3 C 8.04 g/m*3 12.3 C 0 km/h
1802 28-09-2009 00:33:01 12.1 C 8.04 g/m*3 12.1 C 0 km/h
1803 28-09-2009 00:45:02 11.8 C 8 g/m*3 11.8 C 0 km/h
1804 28-09-2009 00:57:02 11.6 C 8 g/m*3 11.6 C 0 km/h
1805 28-09-2009 01:09:01 11.5 C 7.95 g/m*3 11.5 C 0 km/h
1806 28-09-2009 01:21:02 11.4 C 8.01 g/m*3 11.4 C 0 km/h
1807 28-09-2009 01:33:01 11.3 C 7.96 g/m*3 11.3 C 0 km/h
1808 28-09-2009 01:45:02 11.2 C 7.91 g/m*3 11.2 C 0 km/h
1809 28-09-2009 01:57:02 11.1 C 7.96 g/m*3 11.1 C 0 km/h
1810 28-09-2009 02:09:01 11 C 7.91 g/m*3 11 C 0 km/h
1811 28-09-2009 02:21:02 10.8 C 7.91 g/m*3 10.8 C 0 km/h
1812 28-09-2009 02:33:01 10.8 C 7.91 g/m*3 10.8 C 0 km/h
1813 28-09-2009 02:46:06 10.6 C 7.91 g/m*3 10.6 C 0 km/h
1814 28-09-2009 02:58:06 10.5 C 7.95 g/m*3 10.5 C 0 km/h
1815 28-09-2009 03:10:06 10.4 C 7.9 g/m*3 10.4 C 0 km/h
1816 28-09-2009 03:22:06 10.2 C 7.9 g/m*3 10.2 C 0 km/h
1817 28-09-2009 03:34:01 10 C 7.8 g/m*3 10 C 0 km/h
1818 28-09-2009 03:46:01 9.9 C 7.94 g/m*3 9.9 C 0 km/h
1819 28-09-2009 03:58:01 9.8 C 7.89 g/m*3 9.8 C 0 km/h
1820 28-09-2009 04:10:02 9.7 C 7.93 g/m*3 9.7 C 0 km/h
1821 28-09-2009 04:22:02 9.7 C 7.93 g/m*3 9.7 C 0 km/h
1822 28-09-2009 04:34:02 9.5 C 7.83 g/m*3 9.5 C 0 km/h
1823 28-09-2009 04:46:01 9.4 C 7.78 g/m*3 9.4 C 0 km/h
1824 28-09-2009 04:58:01 9.3 C 7.73 g/m*3 9.3 C 0 km/h
1825 28-09-2009 05:10:02 9.2 C 7.68 g/m*3 9.2 C 0 km/h
Sensor: Nr:Datum:Temp:Abs-Feuchte:Windchill:Wind:
Aussen-T/F 1826 28-09-2009 05:22:02 9 C 7.58 g/m*3 9 C 0 km/h
1827 28-09-2009 05:34:01 8.9 C 7.62 g/m*3 8.9 C 0 km/h
1828 28-09-2009 05:46:02 8.9 C 7.71 g/m*3 8.9 C 0 km/h
1829 28-09-2009 05:58:02 8.7 C 7.61 g/m*3 8.7 C 0 km/h
1830 28-09-2009 06:10:01 8.7 C 7.61 g/m*3 8.7 C 0 km/h
1831 28-09-2009 06:22:02 8.7 C 7.61 g/m*3 8.7 C 0 km/h
1832 28-09-2009 06:34:01 8.5 C 7.51 g/m*3 8.5 C 0 km/h
1833 28-09-2009 06:46:02 8.5 C 7.51 g/m*3 8.5 C 0 km/h
1834 28-09-2009 06:58:02 8.4 C 7.47 g/m*3 8.4 C 0 km/h
1835 28-09-2009 07:10:02 8.2 C 7.37 g/m*3 8.2 C 0 km/h
1836 28-09-2009 07:22:02 8.2 C 7.45 g/m*3 8.2 C 0 km/h
1837 28-09-2009 07:34:03 8 C 7.36 g/m*3 8 C 0 km/h
1838 28-09-2009 07:46:02 8 C 7.36 g/m*3 8 C 0 km/h
1839 28-09-2009 07:58:03 8 C 7.36 g/m*3 8 C 0 km/h
1840 28-09-2009 08:10:01 8 C 7.36 g/m*3 8 C 0 km/h
1841 28-09-2009 08:22:02 8 C 7.36 g/m*3 8 C 0 km/h
1842 28-09-2009 08:34:02 8.1 C 7.41 g/m*3 8.1 C 0 km/h
1843 28-09-2009 08:46:02 8.4 C 7.55 g/m*3 8.4 C 0 km/h
1844 28-09-2009 08:58:02 8.3 C 7.5 g/m*3 8.3 C 0 km/h
1845 28-09-2009 09:10:03 8.6 C 7.73 g/m*3 8.6 C 0 km/h
1846 28-09-2009 09:22:02 8.9 C 7.88 g/m*3 8.9 C 0 km/h
1847 28-09-2009 09:34:01 9.4 C 8.05 g/m*3 9.4 C 0 km/h
1848 28-09-2009 09:46:02 9.4 C 7.87 g/m*3 9.4 C 0 km/h
1849 28-09-2009 09:58:02 9.6 C 7.88 g/m*3 9.6 C 0 km/h
1850 28-09-2009 10:10:01 10 C 7.89 g/m*3 10 C 0 km/h
Sensor: Nr:Datum:Temp:Abs-Feuchte:Windchill:Wind:
Aussen-T/F 1851 28-09-2009 10:22:02 10.4 C 8 g/m*3 10.4 C 0 km/h
1852 28-09-2009 10:34:01 10.4 C 7.9 g/m*3 10.4 C 0 km/h
1853 28-09-2009 10:46:02 11.2 C 8.21 g/m*3 11.2 C 0 km/h
1854 28-09-2009 10:58:02 12.1 C 8.47 g/m*3 12.1 C 0 km/h
1855 28-09-2009 11:10:02 12.7 C 8.46 g/m*3 12.7 C 0 km/h
1856 28-09-2009 11:22:02 13.5 C 8.54 g/m*3 13.5 C 0 km/h
1857 28-09-2009 11:34:03 14.1 C 8.37 g/m*3 14.1 C 0 km/h
1858 28-09-2009 11:46:02 14.8 C 8.36 g/m*3 14.8 C 0 km/h
1859 28-09-2009 11:58:02 15.8 C 8.21 g/m*3 15.8 C 0 km/h
1860 28-09-2009 12:10:01 16.2 C 8 g/m*3 16.2 C 0 km/h
1861 28-09-2009 12:22:02 16.4 C 8.23 g/m*3 16.4 C 0 km/h
1862 28-09-2009 12:34:02 16.9 C 8.2 g/m*3 16.9 C 0 km/h
1863 28-09-2009 12:46:02 17.4 C 8.3 g/m*3 17.4 C 0 km/h
1864 28-09-2009 12:58:02 18.1 C 8.19 g/m*3 18.1 C 0 km/h
1865 28-09-2009 13:10:02 18.5 C 8.23 g/m*3 18.5 C 0 km/h
1866 28-09-2009 13:22:02 18.9 C 8.26 g/m*3 18.9 C 0 km/h
1867 28-09-2009 13:34:02 19.2 C 8.08 g/m*3 19.2 C 0 km/h
1868 28-09-2009 13:46:01 19.8 C 8.2 g/m*3 19.8 C 0 km/h
1869 28-09-2009 13:58:01 20.8 C 8.15 g/m*3 20.8 C 0 km/h
1870 28-09-2009 14:10:02 21.2 C 7.6 g/m*3 21.2 C 0 km/h
1871 28-09-2009 14:22:01 21 C 7.69 g/m*3 21 C 0 km/h
1872 28-09-2009 14:34:01 20.6 C 7.87 g/m*3 20.6 C 0 km/h
1873 28-09-2009 14:46:01 20.6 C 8.23 g/m*3 20.6 C 0 km/h
1874 28-09-2009 14:58:01 21.4 C 7.87 g/m*3 21.4 C 0 km/h
1875 28-09-2009 15:10:02 22 C 7.57 g/m*3 22 C 0 km/h
Sensor: Nr:Datum:Temp:Abs-Feuchte:Windchill:Wind:
Aussen-T/F 1876 28-09-2009 15:22:01 22 C 7.76 g/m*3 22 C 0 km/h
1877 28-09-2009 15:34:01 21.6 C 7.78 g/m*3 21.6 C 0 km/h
1878 28-09-2009 15:46:01 22.5 C 7.99 g/m*3 22.5 C 0 km/h
1879 28-09-2009 15:58:01 22.6 C 7.83 g/m*3 22.6 C 0 km/h
1880 28-09-2009 16:10:02 22.8 C 7.72 g/m*3 22.8 C 0 km/h
1881 28-09-2009 16:22:01 23 C 7.6 g/m*3 23 C 0 km/h
1882 28-09-2009 16:34:01 23.5 C 7.61 g/m*3 23.5 C 0 km/h
1883 28-09-2009 16:46:01 22.8 C 7.32 g/m*3 22.8 C 0 km/h
1884 28-09-2009 16:58:01 22.7 C 8.08 g/m*3 22.7 C 0 km/h
1885 28-09-2009 17:10:01 22.5 C 7.99 g/m*3 22.5 C 0 km/h
1886 28-09-2009 17:22:02 21.9 C 8.1 g/m*3 21.9 C 0 km/h
1887 28-09-2009 17:34:01 22.1 C 7.81 g/m*3 22.1 C 0 km/h
1888 28-09-2009 17:46:03 21.9 C 8.1 g/m*3 21.9 C 0 km/h
1889 28-09-2009 17:58:03 20.8 C 8.33 g/m*3 20.8 C 0 km/h
1890 28-09-2009 18:10:02 19.8 C 8.37 g/m*3 19.8 C 0 km/h
1891 28-09-2009 18:22:02 19.2 C 8.41 g/m*3 19.2 C 0 km/h
1892 28-09-2009 18:34:02 18.7 C 8.65 g/m*3 18.7 C 0 km/h
1893 28-09-2009 18:46:02 18.3 C 8.76 g/m*3 18.3 C 0 km/h
1894 28-09-2009 18:58:02 18.1 C 8.81 g/m*3 18.1 C 0 km/h
1895 28-09-2009 19:10:02 17.8 C 8.95 g/m*3 17.8 C 0 km/h
1896 28-09-2009 19:22:02 17.3 C 8.84 g/m*3 17.3 C 0 km/h
1897 28-09-2009 19:34:01 17 C 8.83 g/m*3 17 C 0 km/h
1898 28-09-2009 19:46:02 16.6 C 8.9 g/m*3 16.6 C 0 km/h
1899 28-09-2009 19:58:02 16.3 C 8.88 g/m*3 16.3 C 0 km/h
1900 28-09-2009 20:10:01 16.1 C 9.05 g/m*3 16.1 C 0 km/h
Sensor: Nr:Datum:Temp:Abs-Feuchte:Windchill:Wind:
Aussen-T/F 1901 28-09-2009 20:22:02 15.8 C 9.15 g/m*3 15.8 C 0 km/h
1902 28-09-2009 20:34:02 15.6 C 9.04 g/m*3 15.6 C 0 km/h
1903 28-09-2009 20:46:02 15.6 C 9.18 g/m*3 15.6 C 0 km/h
1904 28-09-2009 20:58:02 15.4 C 9.07 g/m*3 15.4 C 0 km/h
1905 28-09-2009 21:10:02 15.3 C 9.01 g/m*3 15.3 C 0 km/h
1906 28-09-2009 21:22:02 15.3 C 9.01 g/m*3 15.3 C 0 km/h
1907 28-09-2009 21:34:02 15.2 C 8.96 g/m*3 15.2 C 0 km/h
1908 28-09-2009 21:46:01 15.2 C 8.96 g/m*3 15.2 C 0 km/h
1909 28-09-2009 21:58:01 14.8 C 8.99 g/m*3 14.8 C 0 km/h
1910 28-09-2009 22:11:02 14.6 C 9.01 g/m*3 14.6 C 0 km/h
1911 28-09-2009 22:23:02 14.5 C 8.95 g/m*3 14.5 C 0 km/h
1912 28-09-2009 22:35:02 14.5 C 8.95 g/m*3 14.5 C 0 km/h
1913 28-09-2009 22:47:02 14 C 8.81 g/m*3 14 C 0 km/h
1914 28-09-2009 22:59:02 13.9 C 8.99 g/m*3 13.9 C 0 km/h
1915 28-09-2009 23:11:02 14 C 9.17 g/m*3 14 C 0 km/h
1916 28-09-2009 23:23:02 14.2 C 9.4 g/m*3 14.2 C 0 km/h
1917 28-09-2009 23:35:02 14.5 C 9.33 g/m*3 14.5 C 0 km/h
1918 28-09-2009 23:47:02 14.2 C 9.28 g/m*3 14.2 C 0 km/h
1919 28-09-2009 23:59:02 14.4 C 9.39 g/m*3 14.4 C 0 km/h
1920 29-09-2009 00:11:02 14.5 C 9.33 g/m*3 14.5 C 0 km/h
1921 29-09-2009 00:23:02 14.7 C 9.32 g/m*3 14.7 C 0 km/h
1922 29-09-2009 00:35:03 14.7 C 9.32 g/m*3 14.7 C 0 km/h
1923 29-09-2009 00:47:03 14.7 C 9.19 g/m*3 14.7 C 0 km/h
1924 29-09-2009 00:59:03 14.6 C 9.13 g/m*3 14.6 C 0 km/h
1925 29-09-2009 01:11:03 14.6 C 9.13 g/m*3 14.6 C 0 km/h
Sensor: Nr:Datum:Temp:Abs-Feuchte:Windchill:Wind:
Aussen-T/F 1926 29-09-2009 01:23:03 14.6 C 9.13 g/m*3 14.6 C 0 km/h
1927 29-09-2009 01:35:03 14.6 C 9.13 g/m*3 14.6 C 0 km/h
1928 29-09-2009 01:47:03 14.7 C 9.19 g/m*3 14.7 C 0 km/h
1929 29-09-2009 01:59:03 14.6 C 9.26 g/m*3 14.6 C 0 km/h
1930 29-09-2009 02:11:03 14.7 C 9.32 g/m*3 14.7 C 0 km/h
1931 29-09-2009 02:23:03 14.7 C 9.32 g/m*3 14.7 C 0 km/h
1932 29-09-2009 02:35:03 14.8 C 9.12 g/m*3 14.8 C 0 km/h
1933 29-09-2009 02:47:03 15 C 8.85 g/m*3 15 C 0 km/h
1934 29-09-2009 02:59:03 15.1 C 8.77 g/m*3 15.1 C 0 km/h
1935 29-09-2009 03:11:03 15.2 C 8.7 g/m*3 15.2 C 0 km/h
1936 29-09-2009 03:23:03 15.2 C 8.44 g/m*3 15.2 C 0 km/h
1937 29-09-2009 03:35:03 15.2 C 8.44 g/m*3 15.2 C 0 km/h
1938 29-09-2009 03:47:03 15.2 C 8.31 g/m*3 15.2 C 0 km/h
1939 29-09-2009 03:59:03 15.2 C 8.18 g/m*3 15.2 C 0 km/h
1940 29-09-2009 04:11:03 15.2 C 8.05 g/m*3 15.2 C 0 km/h
1941 29-09-2009 04:23:04 15.2 C 8.05 g/m*3 15.2 C 0 km/h
1942 29-09-2009 04:35:04 15 C 7.95 g/m*3 15 C 0 km/h
1943 29-09-2009 04:47:04 14.9 C 8.03 g/m*3 14.9 C 0 km/h
1944 29-09-2009 04:59:04 14.9 C 7.9 g/m*3 14.9 C 0 km/h
1945 29-09-2009 05:11:04 14.9 C 7.9 g/m*3 14.9 C 0 km/h
1946 29-09-2009 05:23:04 14.7 C 7.68 g/m*3 14.7 C 0 km/h
1947 29-09-2009 05:35:04 14.2 C 7.57 g/m*3 14.2 C 0 km/h
1948 29-09-2009 05:47:04 13.9 C 7.79 g/m*3 13.9 C 0 km/h
1949 29-09-2009 05:59:04 13.7 C 7.82 g/m*3 13.7 C 0 km/h
1950 29-09-2009 06:11:04 13.4 C 7.79 g/m*3 13.4 C 0 km/h
Sensor: Nr:Datum:Temp:Abs-Feuchte:Windchill:Wind:
Aussen-T/F 1951 29-09-2009 06:23:04 13.2 C 7.92 g/m*3 13.2 C 0 km/h
1952 29-09-2009 06:35:04 13 C 7.94 g/m*3 13 C 0 km/h
1953 29-09-2009 06:47:04 13.1 C 7.87 g/m*3 13.1 C 0 km/h
1954 29-09-2009 06:59:04 13.2 C 7.81 g/m*3 13.2 C 0 km/h
1955 29-09-2009 07:11:02 13.4 C 7.9 g/m*3 13.4 C 0 km/h
1956 29-09-2009 07:23:02 13.4 C 7.9 g/m*3 13.4 C 0 km/h
1957 29-09-2009 07:35:02 13.5 C 7.95 g/m*3 13.5 C 0 km/h
1958 29-09-2009 07:47:01 13.4 C 8.02 g/m*3 13.4 C 0 km/h
1959 29-09-2009 07:59:01 13.6 C 7.89 g/m*3 13.6 C 0 km/h
1960 29-09-2009 08:11:02 13.6 C 7.89 g/m*3 13.6 C 0 km/h
1961 29-09-2009 08:23:01 13.6 C 7.89 g/m*3 13.6 C 0 km/h
1962 29-09-2009 08:35:01 13.8 C 7.98 g/m*3 13.8 C 0 km/h
1963 29-09-2009 08:47:01 14 C 7.84 g/m*3 14 C 0 km/h
1964 29-09-2009 08:59:01 14 C 7.96 g/m*3 14 C 0 km/h
1965 29-09-2009 09:11:01 14.2 C 7.94 g/m*3 14.2 C 0 km/h
1966 29-09-2009 09:23:02 14.6 C 8.13 g/m*3 14.6 C 0 km/h
1967 29-09-2009 09:35:01 14.7 C 8.06 g/m*3 14.7 C 0 km/h
1968 29-09-2009 09:47:03 14.7 C 8.06 g/m*3 14.7 C 0 km/h
1969 29-09-2009 09:59:03 15 C 8.21 g/m*3 15 C 0 km/h
1970 29-09-2009 10:11:02 15 C 8.08 g/m*3 15 C 0 km/h
1971 29-09-2009 10:23:03 15 C 8.08 g/m*3 15 C 0 km/h
1972 29-09-2009 10:35:02 15.2 C 8.18 g/m*3 15.2 C 0 km/h
1973 29-09-2009 10:47:02 15.1 C 8.13 g/m*3 15.1 C 0 km/h
1974 29-09-2009 10:59:02 15.3 C 8.23 g/m*3 15.3 C 0 km/h
1975 29-09-2009 11:11:02 15.3 C 8.23 g/m*3 15.3 C 0 km/h
Sensor: Nr:Datum:Temp:Abs-Feuchte:Windchill:Wind:
Aussen-T/F 1976 29-09-2009 11:23:02 15.4 C 8.41 g/m*3 15.4 C 0 km/h
1977 29-09-2009 11:35:02 15.3 C 8.49 g/m*3 15.3 C 0 km/h
1978 29-09-2009 11:47:02 15.6 C 8.64 g/m*3 15.6 C 0 km/h
1979 29-09-2009 11:59:02 15.7 C 8.7 g/m*3 15.7 C 0 km/h
1980 29-09-2009 12:11:01 16.1 C 8.64 g/m*3 16.1 C 0 km/h
1981 29-09-2009 12:23:02 16.2 C 8.41 g/m*3 16.2 C 0 km/h
1982 29-09-2009 12:35:02 16.6 C 8.48 g/m*3 16.6 C 0 km/h
1983 29-09-2009 12:47:02 17 C 8.39 g/m*3 17 C 0 km/h
1984 29-09-2009 12:59:02 17.5 C 8.2 g/m*3 17.5 C 0 km/h
1985 29-09-2009 13:11:02 17.8 C 8.35 g/m*3 17.8 C 0 km/h
1986 29-09-2009 13:23:02 17.7 C 8.45 g/m*3 17.7 C 0 km/h
1987 29-09-2009 13:35:02 17.9 C 8.7 g/m*3 17.9 C 0 km/h
1988 29-09-2009 13:47:02 18.7 C 8.33 g/m*3 18.7 C 0 km/h
1989 29-09-2009 13:59:02 18.6 C 8.44 g/m*3 18.6 C 0 km/h
1990 29-09-2009 14:11:02 18.5 C 8.39 g/m*3 18.5 C 0 km/h
1991 29-09-2009 14:23:01 18.6 C 8.59 g/m*3 18.6 C 0 km/h
1992 29-09-2009 14:35:02 18.3 C 8.44 g/m*3 18.3 C 0 km/h
1993 29-09-2009 14:47:02 18.4 C 8.34 g/m*3 18.4 C 0 km/h
1994 29-09-2009 14:59:02 18.1 C 8.34 g/m*3 18.1 C 0 km/h
1995 29-09-2009 15:11:02 18.1 C 8.34 g/m*3 18.1 C 0 km/h
1996 29-09-2009 15:23:02 18.2 C 8.55 g/m*3 18.2 C 0 km/h
1997 29-09-2009 15:35:02 18 C 8.45 g/m*3 18 C 0 km/h
1998 29-09-2009 15:47:02 17.8 C 8.5 g/m*3 17.8 C 0 km/h
1999 29-09-2009 15:59:02 17.6 C 8.85 g/m*3 17.6 C 0 km/h
2000 29-09-2009 16:11:02 17.6 C 8.7 g/m*3 17.6 C 0 km/h
Sensor: Nr:Datum:Temp:Abs-Feuchte:Windchill:Wind:
Aussen-T/F 2001 29-09-2009 16:23:02 17.8 C 8.65 g/m*3 17.8 C 0 km/h
2002 29-09-2009 16:35:02 17.6 C 8.85 g/m*3 17.6 C 0 km/h
2003 29-09-2009 16:47:02 17.5 C 9.09 g/m*3 17.5 C 0 km/h
2004 29-09-2009 16:59:02 17.7 C 9.05 g/m*3 17.7 C 0 km/h
2005 29-09-2009 17:11:02 17.9 C 8.86 g/m*3 17.9 C 0 km/h
2006 29-09-2009 17:23:02 18 C 9.06 g/m*3 18 C 0 km/h
2007 29-09-2009 17:35:02 17.7 C 9.05 g/m*3 17.7 C 0 km/h
2008 29-09-2009 17:47:02 17.5 C 9.09 g/m*3 17.5 C 0 km/h
2009 29-09-2009 17:59:02 17.4 C 9.04 g/m*3 17.4 C 0 km/h
2010 29-09-2009 18:11:02 17.3 C 8.99 g/m*3 17.3 C 0 km/h
2011 29-09-2009 18:23:03 17.3 C 8.84 g/m*3 17.3 C 0 km/h
2012 29-09-2009 18:35:02 17.2 C 8.93 g/m*3 17.2 C 0 km/h
2013 29-09-2009 18:47:02 17.2 C 9.08 g/m*3 17.2 C 0 km/h
2014 29-09-2009 18:59:02 17.3 C 9.13 g/m*3 17.3 C 0 km/h
2015 29-09-2009 19:11:02 17.1 C 8.88 g/m*3 17.1 C 0 km/h
2016 29-09-2009 19:23:03 17.2 C 8.93 g/m*3 17.2 C 0 km/h
2017 29-09-2009 19:35:02 17.2 C 8.93 g/m*3 17.2 C 0 km/h
2018 29-09-2009 19:47:02 17.2 C 8.79 g/m*3 17.2 C 0 km/h
2019 29-09-2009 19:59:02 17 C 8.83 g/m*3 17 C 0 km/h
2020 29-09-2009 20:11:02 17 C 8.83 g/m*3 17 C 0 km/h
2021 29-09-2009 20:23:02 17.1 C 9.03 g/m*3 17.1 C 0 km/h
2022 29-09-2009 20:35:02 17.2 C 9.23 g/m*3 17.2 C 0 km/h
2023 29-09-2009 20:47:02 17 C 9.26 g/m*3 17 C 0 km/h
2024 29-09-2009 20:59:02 16.9 C 9.49 g/m*3 16.9 C 0 km/h
2025 29-09-2009 21:11:02 16.8 C 9.44 g/m*3 16.8 C 0 km/h
Sensor: Nr:Datum:Temp:Abs-Feuchte:Windchill:Wind:
Aussen-T/F 2026 29-09-2009 21:23:02 16.8 C 9.58 g/m*3 16.8 C 0 km/h
2027 29-09-2009 21:35:01 16.6 C 9.61 g/m*3 16.6 C 0 km/h
2028 29-09-2009 21:47:02 16.6 C 9.61 g/m*3 16.6 C 0 km/h
2029 29-09-2009 21:59:02 16.6 C 9.61 g/m*3 16.6 C 0 km/h
2030 29-09-2009 22:11:02 16.4 C 9.63 g/m*3 16.4 C 0 km/h
2031 29-09-2009 22:24:03 16.4 C 9.77 g/m*3 16.4 C 0 km/h
2032 29-09-2009 22:36:03 16.3 C 9.71 g/m*3 16.3 C 0 km/h
2033 29-09-2009 22:48:03 16.2 C 9.79 g/m*3 16.2 C 0 km/h
2034 29-09-2009 23:00:03 16.2 C 9.93 g/m*3 16.2 C 0 km/h
2035 29-09-2009 23:12:03 16.1 C 9.87 g/m*3 16.1 C 0 km/h
2036 29-09-2009 23:24:03 16 C 9.95 g/m*3 16 C 0 km/h
2037 29-09-2009 23:36:03 16 C 9.95 g/m*3 16 C 0 km/h
2038 29-09-2009 23:48:03 16 C 9.95 g/m*3 16 C 0 km/h
2039 30-09-2009 00:00:03 15.9 C 10.16 g/m*3 15.9 C 0 km/h
2040 30-09-2009 00:12:03 15.7 C 10.03 g/m*3 15.7 C 0 km/h
2041 30-09-2009 00:24:03 15.6 C 10.11 g/m*3 15.6 C 0 km/h
2042 30-09-2009 00:36:03 15.6 C 10.11 g/m*3 15.6 C 0 km/h
2043 30-09-2009 00:48:03 15.6 C 10.11 g/m*3 15.6 C 0 km/h
2044 30-09-2009 01:00:03 15.6 C 10.11 g/m*3 15.6 C 0 km/h
2045 30-09-2009 01:12:04 15.6 C 10.11 g/m*3 15.6 C 0 km/h
2046 30-09-2009 01:24:04 15.6 C 10.11 g/m*3 15.6 C 0 km/h
2047 30-09-2009 01:36:04 15.6 C 10.11 g/m*3 15.6 C 0 km/h
2048 30-09-2009 01:48:04 15.6 C 10.11 g/m*3 15.6 C 0 km/h
2049 30-09-2009 02:00:04 15.6 C 9.97 g/m*3 15.6 C 0 km/h
2050 30-09-2009 02:12:04 15.5 C 9.91 g/m*3 15.5 C 0 km/h
Sensor: Nr:Datum:Temp:Abs-Feuchte:Windchill:Wind:
Aussen-T/F 2051 30-09-2009 02:24:04 15.5 C 9.91 g/m*3 15.5 C 0 km/h
2052 30-09-2009 02:36:04 15.5 C 9.78 g/m*3 15.5 C 0 km/h
2053 30-09-2009 02:48:04 15.6 C 9.84 g/m*3 15.6 C 0 km/h
2054 30-09-2009 03:00:04 15.6 C 9.84 g/m*3 15.6 C 0 km/h
2055 30-09-2009 03:12:04 15.6 C 9.84 g/m*3 15.6 C 0 km/h
2056 30-09-2009 03:24:04 15.5 C 9.78 g/m*3 15.5 C 0 km/h
2057 30-09-2009 03:36:04 15.5 C 9.78 g/m*3 15.5 C 0 km/h
2058 30-09-2009 03:48:04 15.4 C 9.72 g/m*3 15.4 C 0 km/h
2059 30-09-2009 04:00:04 15.4 C 9.72 g/m*3 15.4 C 0 km/h
2060 30-09-2009 04:12:04 15.4 C 9.85 g/m*3 15.4 C 0 km/h
2061 30-09-2009 04:24:04 15.3 C 9.79 g/m*3 15.3 C 0 km/h
2062 30-09-2009 04:36:04 15.2 C 9.86 g/m*3 15.2 C 0 km/h
2063 30-09-2009 04:48:04 15.2 C 9.86 g/m*3 15.2 C 0 km/h
2064 30-09-2009 05:00:05 15.2 C 9.99 g/m*3 15.2 C 0 km/h
2065 30-09-2009 05:12:05 15.2 C 10.12 g/m*3 15.2 C 0 km/h
2066 30-09-2009 05:24:05 15.2 C 9.99 g/m*3 15.2 C 0 km/h
2067 30-09-2009 05:36:05 15.3 C 10.06 g/m*3 15.3 C 0 km/h
2068 30-09-2009 05:48:05 15.3 C 10.06 g/m*3 15.3 C 0 km/h
2069 30-09-2009 06:00:05 15.3 C 9.92 g/m*3 15.3 C 0 km/h
2070 30-09-2009 06:12:05 15.3 C 9.92 g/m*3 15.3 C 0 km/h
2071 30-09-2009 06:24:05 15.3 C 9.92 g/m*3 15.3 C 0 km/h
2072 30-09-2009 06:36:05 15.2 C 9.86 g/m*3 15.2 C 0 km/h
2073 30-09-2009 06:48:05 15.2 C 9.99 g/m*3 15.2 C 0 km/h
2074 30-09-2009 07:00:05 15.2 C 9.99 g/m*3 15.2 C 0 km/h
2075 30-09-2009 07:12:05 15.1 C 9.93 g/m*3 15.1 C 0 km/h
Sensor: Nr:Datum:Temp:Abs-Feuchte:Windchill:Wind:
Aussen-T/F 2076 30-09-2009 07:24:02 15.1 C 9.93 g/m*3 15.1 C 0 km/h
2077 30-09-2009 07:36:02 15.1 C 9.93 g/m*3 15.1 C 0 km/h
2078 30-09-2009 07:48:02 15.1 C 9.93 g/m*3 15.1 C 0 km/h
2079 30-09-2009 08:00:02 15.2 C 9.99 g/m*3 15.2 C 0 km/h
2080 30-09-2009 08:12:02 15.2 C 9.99 g/m*3 15.2 C 0 km/h
2081 30-09-2009 08:24:02 15.4 C 10.12 g/m*3 15.4 C 0 km/h
2082 30-09-2009 08:36:01 15.6 C 10.24 g/m*3 15.6 C 0 km/h
2083 30-09-2009 08:48:02 15.8 C 10.36 g/m*3 15.8 C 0 km/h
2084 30-09-2009 09:00:02 16 C 10.22 g/m*3 16 C 0 km/h
2085 30-09-2009 09:12:01 16.1 C 10.01 g/m*3 16.1 C 0 km/h
2086 30-09-2009 09:24:01 16.1 C 10.01 g/m*3 16.1 C 0 km/h
2087 30-09-2009 09:36:02 16.3 C 10.13 g/m*3 16.3 C 0 km/h
2088 30-09-2009 09:48:02 16.3 C 10.13 g/m*3 16.3 C 0 km/h
2089 30-09-2009 10:00:02 16.2 C 9.93 g/m*3 16.2 C 0 km/h
2090 30-09-2009 10:12:01 16.3 C 9.99 g/m*3 16.3 C 0 km/h
2091 30-09-2009 10:24:02 16.3 C 9.99 g/m*3 16.3 C 0 km/h
2092 30-09-2009 10:36:02 16 C 10.08 g/m*3 16 C 0 km/h
2093 30-09-2009 10:48:02 16.2 C 10.2 g/m*3 16.2 C 0 km/h
2094 30-09-2009 11:00:02 16.6 C 10.03 g/m*3 16.6 C 0 km/h
2095 30-09-2009 11:12:03 17.4 C 10.08 g/m*3 17.4 C 0 km/h
2096 30-09-2009 11:24:02 17.9 C 10.54 g/m*3 17.9 C 0 km/h
2097 30-09-2009 11:36:02 18.4 C 9.91 g/m*3 18.4 C 0 km/h
2098 30-09-2009 11:48:01 19 C 9.78 g/m*3 19 C 0 km/h
2099 30-09-2009 12:00:01 19.1 C 9.67 g/m*3 19.1 C 0 km/h
2100 30-09-2009 12:12:02 19.2 C 9.4 g/m*3 19.2 C 0 km/h
Sensor: Nr:Datum:Temp:Abs-Feuchte:Windchill:Wind:
Aussen-T/F 2101 30-09-2009 12:24:01 19.7 C 9.51 g/m*3 19.7 C 0 km/h
2102 30-09-2009 12:36:02 19.6 C 9.45 g/m*3 19.6 C 0 km/h
2103 30-09-2009 12:48:02 19.4 C 9.34 g/m*3 19.4 C 0 km/h
2104 30-09-2009 13:00:02 19.4 C 9.34 g/m*3 19.4 C 0 km/h
2105 30-09-2009 13:12:02 19.6 C 9.79 g/m*3 19.6 C 0 km/h
2106 30-09-2009 13:24:03 20.5 C 9.79 g/m*3 20.5 C 0 km/h
2107 30-09-2009 13:36:02 20.6 C 9.66 g/m*3 20.6 C 0 km/h
2108 30-09-2009 13:48:03 20.2 C 9.62 g/m*3 20.2 C 0 km/h
2109 30-09-2009 14:00:03 20 C 9.51 g/m*3 20 C 0 km/h
2110 30-09-2009 14:12:02 19.7 C 9.68 g/m*3 19.7 C 0 km/h
2111 30-09-2009 14:24:02 19.4 C 9.51 g/m*3 19.4 C 0 km/h
2112 30-09-2009 14:36:02 19.4 C 9.51 g/m*3 19.4 C 0 km/h
2113 30-09-2009 14:48:02 19.3 C 9.62 g/m*3 19.3 C 0 km/h
2114 30-09-2009 15:00:02 19.1 C 9.67 g/m*3 19.1 C 0 km/h
2115 30-09-2009 15:12:02 19 C 9.61 g/m*3 19 C 0 km/h
2116 30-09-2009 15:24:02 19.1 C 9.84 g/m*3 19.1 C 0 km/h
2117 30-09-2009 15:36:02 19.2 C 9.73 g/m*3 19.2 C 0 km/h
2118 30-09-2009 15:48:02 19.2 C 9.89 g/m*3 19.2 C 0 km/h
2119 30-09-2009 16:00:02 19.1 C 9.84 g/m*3 19.1 C 0 km/h
2120 30-09-2009 16:12:01 19.1 C 9.67 g/m*3 19.1 C 0 km/h
2121 30-09-2009 16:24:02 19.3 C 9.62 g/m*3 19.3 C 0 km/h
2122 30-09-2009 16:36:02 19.1 C 9.67 g/m*3 19.1 C 0 km/h
2123 30-09-2009 16:48:01 19.1 C 10 g/m*3 19.1 C 0 km/h
2124 30-09-2009 17:00:01 19.3 C 9.95 g/m*3 19.3 C 0 km/h
2125 30-09-2009 17:12:02 19.3 C 9.62 g/m*3 19.3 C 0 km/h
Sensor: Nr:Datum:Temp:Abs-Feuchte:Windchill:Wind:
Aussen-T/F 2126 30-09-2009 17:24:01 19.1 C 9.84 g/m*3 19.1 C 0 km/h
2127 30-09-2009 17:36:02 18.9 C 10.21 g/m*3 18.9 C 0 km/h
2128 30-09-2009 17:48:02 18.7 C 10.41 g/m*3 18.7 C 0 km/h
2129 30-09-2009 18:00:02 18.4 C 10.38 g/m*3 18.4 C 0 km/h
2130 30-09-2009 18:12:02 18.4 C 10.54 g/m*3 18.4 C 0 km/h
2131 30-09-2009 18:24:01 18.4 C 10.54 g/m*3 18.4 C 0 km/h
2132 30-09-2009 18:36:02 18.3 C 10.48 g/m*3 18.3 C 0 km/h
2133 30-09-2009 18:48:02 17.8 C 10.47 g/m*3 17.8 C 0 km/h
2134 30-09-2009 19:00:02 17.3 C 9.72 g/m*3 17.3 C 0 km/h
2135 30-09-2009 19:12:02 16.9 C 9.78 g/m*3 16.9 C 0 km/h
2136 30-09-2009 19:24:02 16.5 C 9.69 g/m*3 16.5 C 0 km/h
2137 30-09-2009 19:36:02 16.3 C 9.71 g/m*3 16.3 C 0 km/h
2138 30-09-2009 19:48:02 16.2 C 9.65 g/m*3 16.2 C 0 km/h
2139 30-09-2009 20:00:02 16 C 9.54 g/m*3 16 C 0 km/h
2140 30-09-2009 20:12:02 15.5 C 9.65 g/m*3 15.5 C 0 km/h
2141 30-09-2009 20:24:02 15 C 9.62 g/m*3 15 C 0 km/h
2142 30-09-2009 20:36:02 14.8 C 9.75 g/m*3 14.8 C 0 km/h
2143 30-09-2009 20:48:02 14.6 C 9.64 g/m*3 14.6 C 0 km/h
2144 30-09-2009 21:00:02 14.4 C 9.64 g/m*3 14.4 C 0 km/h
2145 30-09-2009 21:12:03 14.5 C 9.95 g/m*3 14.5 C 0 km/h
2146 30-09-2009 21:24:02 14.2 C 9.77 g/m*3 14.2 C 0 km/h
2147 30-09-2009 21:36:02 14.1 C 9.71 g/m*3 14.1 C 0 km/h
2148 30-09-2009 21:48:01 13.9 C 9.83 g/m*3 13.9 C 0 km/h
2149 30-09-2009 22:00:01 13.8 C 9.89 g/m*3 13.8 C 0 km/h
2150 30-09-2009 22:12:02 13.7 C 9.83 g/m*3 13.7 C 0 km/h
Sensor: Nr:Datum:Temp:Abs-Feuchte:Windchill:Wind:
Aussen-T/F 2151 30-09-2009 22:24:01 13.6 C 9.77 g/m*3 13.6 C 0 km/h
2152 30-09-2009 22:37:02 13.6 C 9.89 g/m*3 13.6 C 0 km/h
2153 30-09-2009 22:49:02 13.4 C 9.76 g/m*3 13.4 C 0 km/h
2154 30-09-2009 23:01:02 13.6 C 10 g/m*3 13.6 C 0 km/h
2155 30-09-2009 23:13:02 13.6 C 10 g/m*3 13.6 C 0 km/h
2156 30-09-2009 23:25:03 13.7 C 10.07 g/m*3 13.7 C 0 km/h
2157 30-09-2009 23:37:03 13.7 C 10.07 g/m*3 13.7 C 0 km/h
2158 30-09-2009 23:49:03 13.7 C 9.95 g/m*3 13.7 C 0 km/h
2159 01-10-2009 00:01:03 13.8 C 10.01 g/m*3 13.8 C 0 km/h
2160 01-10-2009 00:13:03 13.6 C 9.89 g/m*3 13.6 C 0 km/h
2161 01-10-2009 00:25:03 13.4 C 9.76 g/m*3 13.4 C 0 km/h
2162 01-10-2009 00:37:03 13.1 C 9.7 g/m*3 13.1 C 0 km/h
2163 01-10-2009 00:49:03 13.2 C 9.87 g/m*3 13.2 C 0 km/h
2164 01-10-2009 01:01:03 13.4 C 10 g/m*3 13.4 C 0 km/h
2165 01-10-2009 01:13:03 13.5 C 10.06 g/m*3 13.5 C 0 km/h
2166 01-10-2009 01:25:03 13.6 C 10 g/m*3 13.6 C 0 km/h
2167 01-10-2009 01:37:03 13.5 C 9.94 g/m*3 13.5 C 0 km/h
2168 01-10-2009 01:49:03 13.7 C 10.07 g/m*3 13.7 C 0 km/h
2169 01-10-2009 02:01:03 13.7 C 9.95 g/m*3 13.7 C 0 km/h
2170 01-10-2009 02:13:03 13.8 C 9.89 g/m*3 13.8 C 0 km/h
2171 01-10-2009 02:25:03 13.7 C 9.83 g/m*3 13.7 C 0 km/h
2172 01-10-2009 02:37:03 13.7 C 9.83 g/m*3 13.7 C 0 km/h
2173 01-10-2009 02:49:03 13.7 C 9.83 g/m*3 13.7 C 0 km/h
2174 01-10-2009 03:01:03 13.6 C 9.77 g/m*3 13.6 C 0 km/h
2175 01-10-2009 03:13:04 13.6 C 9.89 g/m*3 13.6 C 0 km/h
Sensor: Nr:Datum:Temp:Abs-Feuchte:Windchill:Wind:
Aussen-T/F 2176 01-10-2009 03:25:04 13.5 C 9.83 g/m*3 13.5 C 0 km/h
2177 01-10-2009 03:37:04 13.4 C 9.76 g/m*3 13.4 C 0 km/h
2178 01-10-2009 03:49:04 13.4 C 9.76 g/m*3 13.4 C 0 km/h
2179 01-10-2009 04:01:04 13.4 C 9.76 g/m*3 13.4 C 0 km/h
2180 01-10-2009 04:13:04 13.4 C 9.76 g/m*3 13.4 C 0 km/h
2181 01-10-2009 04:25:04 13.3 C 9.82 g/m*3 13.3 C 0 km/h
2182 01-10-2009 04:37:04 13.3 C 9.82 g/m*3 13.3 C 0 km/h
2183 01-10-2009 04:49:04 13.3 C 9.82 g/m*3 13.3 C 0 km/h
2184 01-10-2009 05:01:04 13.3 C 9.82 g/m*3 13.3 C 0 km/h
2185 01-10-2009 05:13:04 13.3 C 9.82 g/m*3 13.3 C 0 km/h
2186 01-10-2009 05:25:04 13.2 C 9.76 g/m*3 13.2 C 0 km/h
2187 01-10-2009 05:37:04 13.1 C 9.7 g/m*3 13.1 C 0 km/h
2188 01-10-2009 05:49:04 13 C 9.75 g/m*3 13 C 0 km/h
2189 01-10-2009 06:01:04 12.9 C 9.81 g/m*3 12.9 C 0 km/h
2190 01-10-2009 06:13:04 12.8 C 9.86 g/m*3 12.8 C 0 km/h
2191 01-10-2009 06:25:04 13 C 9.87 g/m*3 13 C 0 km/h
2192 01-10-2009 06:37:04 13.1 C 9.93 g/m*3 13.1 C 0 km/h
2193 01-10-2009 06:49:04 13.2 C 9.99 g/m*3 13.2 C 0 km/h
2194 01-10-2009 07:01:02 13.2 C 9.87 g/m*3 13.2 C 0 km/h
2195 01-10-2009 07:13:02 13.3 C 9.94 g/m*3 13.3 C 0 km/h
2196 01-10-2009 07:25:03 13.2 C 9.76 g/m*3 13.2 C 0 km/h
2197 01-10-2009 07:37:02 13.2 C 9.76 g/m*3 13.2 C 0 km/h
2198 01-10-2009 07:49:03 13.1 C 9.7 g/m*3 13.1 C 0 km/h
2199 01-10-2009 08:01:02 13 C 9.64 g/m*3 13 C 0 km/h
2200 01-10-2009 08:13:02 13.2 C 9.76 g/m*3 13.2 C 0 km/h
Sensor: Nr:Datum:Temp:Abs-Feuchte:Windchill:Wind:
Aussen-T/F 2201 01-10-2009 08:25:02 13.5 C 9.83 g/m*3 13.5 C 0 km/h
2202 01-10-2009 08:37:02 13.7 C 9.95 g/m*3 13.7 C 0 km/h
2203 01-10-2009 08:49:02 13.8 C 9.77 g/m*3 13.8 C 0 km/h
2204 01-10-2009 09:01:01 13.9 C 9.83 g/m*3 13.9 C 0 km/h
2205 01-10-2009 09:13:01 14 C 9.77 g/m*3 14 C 0 km/h
2206 01-10-2009 09:25:02 14.1 C 9.71 g/m*3 14.1 C 0 km/h
2207 01-10-2009 09:37:01 14.2 C 9.65 g/m*3 14.2 C 0 km/h
2208 01-10-2009 09:49:02 14.2 C 9.4 g/m*3 14.2 C 0 km/h
2209 01-10-2009 10:01:01 14.6 C 9.39 g/m*3 14.6 C 0 km/h
2210 01-10-2009 10:13:01 14.7 C 9.32 g/m*3 14.7 C 0 km/h
2211 01-10-2009 10:25:01 15 C 9.23 g/m*3 15 C 0 km/h
2212 01-10-2009 10:37:02 15.4 C 9.2 g/m*3 15.4 C 0 km/h
2213 01-10-2009 10:49:02 15.7 C 9.23 g/m*3 15.7 C 0 km/h
2214 01-10-2009 11:01:02 15.4 C 9.2 g/m*3 15.4 C 0 km/h
2215 01-10-2009 11:13:02 16.4 C 9.07 g/m*3 16.4 C 0 km/h
2216 01-10-2009 11:25:02 17 C 8.68 g/m*3 17 C 0 km/h
2217 01-10-2009 11:37:02 17.7 C 8.75 g/m*3 17.7 C 0 km/h
2218 01-10-2009 11:49:02 17.9 C 8.7 g/m*3 17.9 C 0 km/h
2219 01-10-2009 12:01:02 18.2 C 8.55 g/m*3 18.2 C 0 km/h
2220 01-10-2009 12:13:02 18.5 C 7.75 g/m*3 18.5 C 0 km/h
2221 01-10-2009 12:25:02 18.2 C 7.31 g/m*3 18.2 C 0 km/h
2222 01-10-2009 12:37:02 18.1 C 7.57 g/m*3 18.1 C 0 km/h
2223 01-10-2009 12:49:01 17.9 C 7.94 g/m*3 17.9 C 0 km/h
2224 01-10-2009 13:01:01 16.9 C 8.63 g/m*3 16.9 C 0 km/h
2225 01-10-2009 13:13:02 16.8 C 9.01 g/m*3 16.8 C 0 km/h
Sensor: Nr:Datum:Temp:Abs-Feuchte:Windchill:Wind:
Aussen-T/F 2226 01-10-2009 13:25:01 17.5 C 8.65 g/m*3 17.5 C 0 km/h
2227 01-10-2009 13:37:01 18.3 C 7.97 g/m*3 18.3 C 0 km/h
2228 01-10-2009 13:49:01 18.7 C 8.01 g/m*3 18.7 C 0 km/h
2229 01-10-2009 14:01:01 18.6 C 7.8 g/m*3 18.6 C 0 km/h
2230 01-10-2009 14:13:01 18.1 C 7.73 g/m*3 18.1 C 0 km/h
2231 01-10-2009 14:25:02 17.9 C 8.09 g/m*3 17.9 C 0 km/h
2232 01-10-2009 14:37:01 18.3 C 8.13 g/m*3 18.3 C 0 km/h
2233 01-10-2009 14:49:03 18.7 C 8.01 g/m*3 18.7 C 0 km/h
2234 01-10-2009 15:01:02 19 C 7.82 g/m*3 19 C 0 km/h
2235 01-10-2009 15:13:02 19.2 C 7.91 g/m*3 19.2 C 0 km/h
2236 01-10-2009 15:25:02 19.1 C 7.87 g/m*3 19.1 C 0 km/h
2237 01-10-2009 15:37:02 18.7 C 7.84 g/m*3 18.7 C 0 km/h
2238 01-10-2009 15:49:02 18 C 7.83 g/m*3 18 C 0 km/h
2239 01-10-2009 16:01:02 17.4 C 8.15 g/m*3 17.4 C 0 km/h
2240 01-10-2009 16:13:02 17 C 7.81 g/m*3 17 C 0 km/h
2241 01-10-2009 16:25:02 16.8 C 7.86 g/m*3 16.8 C 0 km/h
2242 01-10-2009 16:37:01 16.5 C 7.44 g/m*3 16.5 C 0 km/h
2243 01-10-2009 16:49:02 16.2 C 7.31 g/m*3 16.2 C 0 km/h
2244 01-10-2009 17:01:01 16 C 7.49 g/m*3 16 C 0 km/h
2245 01-10-2009 17:13:01 15.6 C 7.85 g/m*3 15.6 C 0 km/h
2246 01-10-2009 17:25:01 15.6 C 7.98 g/m*3 15.6 C 0 km/h
2247 01-10-2009 17:37:02 15.5 C 8.06 g/m*3 15.5 C 0 km/h
2248 01-10-2009 17:49:02 15.1 C 8 g/m*3 15.1 C 0 km/h
2249 01-10-2009 18:01:02 14.9 C 8.16 g/m*3 14.9 C 0 km/h
2250 01-10-2009 18:13:02 15 C 8.08 g/m*3 15 C 0 km/h
Sensor: Nr:Datum:Temp:Abs-Feuchte:Windchill:Wind:
Aussen-T/F 2251 01-10-2009 18:25:02 14.9 C 8.16 g/m*3 14.9 C 0 km/h
2252 01-10-2009 18:37:02 15 C 8.08 g/m*3 15 C 0 km/h
2253 01-10-2009 18:49:02 14.9 C 8.16 g/m*3 14.9 C 0 km/h
2254 01-10-2009 19:01:02 14.7 C 8.06 g/m*3 14.7 C 0 km/h
2255 01-10-2009 19:13:02 14.7 C 8.06 g/m*3 14.7 C 0 km/h
2256 01-10-2009 19:25:02 14.7 C 8.06 g/m*3 14.7 C 0 km/h
2257 01-10-2009 19:37:02 14.7 C 8.06 g/m*3 14.7 C 0 km/h
2258 01-10-2009 19:49:01 14.6 C 8.13 g/m*3 14.6 C 0 km/h
2259 01-10-2009 20:01:01 14.7 C 8.44 g/m*3 14.7 C 0 km/h
2260 01-10-2009 20:13:01 13.5 C 8.3 g/m*3 13.5 C 0 km/h
2261 01-10-2009 20:25:01 13.4 C 8.37 g/m*3 13.4 C 0 km/h
2262 01-10-2009 20:37:01 13.6 C 8.36 g/m*3 13.6 C 0 km/h
2263 01-10-2009 20:49:02 13.6 C 7.77 g/m*3 13.6 C 0 km/h
2264 01-10-2009 21:01:02 13.3 C 7.63 g/m*3 13.3 C 0 km/h
2265 01-10-2009 21:13:02 13.4 C 7.44 g/m*3 13.4 C 0 km/h
2266 01-10-2009 21:25:03 13.4 C 7.44 g/m*3 13.4 C 0 km/h
2267 01-10-2009 21:37:02 13.4 C 7.21 g/m*3 13.4 C 0 km/h
2268 01-10-2009 21:49:03 13.3 C 7.16 g/m*3 13.3 C 0 km/h
2269 01-10-2009 22:01:02 13.2 C 7.23 g/m*3 13.2 C 0 km/h
2270 01-10-2009 22:13:02 13.1 C 7.19 g/m*3 13.1 C 0 km/h
2271 01-10-2009 22:25:02 12.8 C 7.28 g/m*3 12.8 C 0 km/h
2272 01-10-2009 22:38:02 12.4 C 7.21 g/m*3 12.4 C 0 km/h
2273 01-10-2009 22:50:02 12.3 C 7.38 g/m*3 12.3 C 0 km/h
2274 01-10-2009 23:02:02 12.4 C 7.43 g/m*3 12.4 C 0 km/h
2275 01-10-2009 23:14:02 12.4 C 7.32 g/m*3 12.4 C 0 km/h
Sensor: Nr:Datum:Temp:Abs-Feuchte:Windchill:Wind:
Aussen-T/F 2276 01-10-2009 23:26:02 12 C 7.25 g/m*3 12 C 0 km/h
2277 01-10-2009 23:38:02 11.7 C 7.32 g/m*3 11.7 C 0 km/h
2278 01-10-2009 23:50:02 11.6 C 7.28 g/m*3 11.6 C 0 km/h
2279 02-10-2009 00:02:02 11.7 C 7.32 g/m*3 11.7 C 0 km/h
2280 02-10-2009 00:14:02 12 C 7.35 g/m*3 12 C 0 km/h
2281 02-10-2009 00:26:02 11.9 C 7.41 g/m*3 11.9 C 0 km/h
2282 02-10-2009 00:38:02 11.7 C 7.43 g/m*3 11.7 C 0 km/h
2283 02-10-2009 00:50:02 11.5 C 7.02 g/m*3 11.5 C 0 km/h
2284 02-10-2009 01:02:02 11.3 C 6.83 g/m*3 11.3 C 0 km/h
2285 02-10-2009 01:14:02 11.3 C 6.83 g/m*3 11.3 C 0 km/h
2286 02-10-2009 01:26:02 11.1 C 6.75 g/m*3 11.1 C 0 km/h
2287 02-10-2009 01:38:02 10.8 C 6.82 g/m*3 10.8 C 0 km/h
2288 02-10-2009 01:50:02 10.6 C 6.93 g/m*3 10.6 C 0 km/h
2289 02-10-2009 02:02:02 10.4 C 7.04 g/m*3 10.4 C 0 km/h
2290 02-10-2009 02:14:02 10.1 C 7 g/m*3 10.1 C 0 km/h
2291 02-10-2009 02:26:03 10 C 7.05 g/m*3 10 C 0 km/h
2292 02-10-2009 02:38:03 10 C 6.95 g/m*3 10 C 0 km/h
2293 02-10-2009 02:50:03 9.9 C 7.1 g/m*3 9.9 C 0 km/h
2294 02-10-2009 03:02:03 9.8 C 7.05 g/m*3 9.8 C 0 km/h
2295 02-10-2009 03:14:03 9.5 C 6.92 g/m*3 9.5 C 0 km/h
2296 02-10-2009 03:26:03 9.2 C 6.88 g/m*3 9.2 C 0 km/h
2297 02-10-2009 03:38:03 9.1 C 7.01 g/m*3 9.1 C 0 km/h
2298 02-10-2009 03:50:03 8.8 C 7.05 g/m*3 8.8 C 0 km/h
2299 02-10-2009 04:02:03 8.6 C 6.96 g/m*3 8.6 C 0 km/h
2300 02-10-2009 04:14:03 8.6 C 7.13 g/m*3 8.6 C 0 km/h
Sensor: Nr:Datum:Temp:Abs-Feuchte:Windchill:Wind:
Aussen-T/F 2301 02-10-2009 04:26:03 8.4 C 7.04 g/m*3 8.4 C 0 km/h
2302 02-10-2009 04:38:03 8.2 C 7.03 g/m*3 8.2 C 0 km/h
2303 02-10-2009 04:50:03 8.2 C 7.03 g/m*3 8.2 C 0 km/h
2304 02-10-2009 05:02:03 8 C 6.94 g/m*3 8 C 0 km/h
2305 02-10-2009 05:14:03 7.8 C 7.02 g/m*3 7.8 C 0 km/h
2306 02-10-2009 05:26:03 7.8 C 7.1 g/m*3 7.8 C 0 km/h
2307 02-10-2009 05:38:03 7.6 C 7.01 g/m*3 7.6 C 0 km/h
2308 02-10-2009 05:50:03 7.5 C 6.96 g/m*3 7.5 C 0 km/h
2309 02-10-2009 06:02:03 7.5 C 7.04 g/m*3 7.5 C 0 km/h
2310 02-10-2009 06:14:04 7.5 C 7.04 g/m*3 7.5 C 0 km/h
2311 02-10-2009 06:26:04 7.3 C 6.95 g/m*3 7.3 C 0 km/h
2312 02-10-2009 06:38:04 7.3 C 6.95 g/m*3 7.3 C 0 km/h
2313 02-10-2009 06:50:04 7.3 C 6.95 g/m*3 7.3 C 0 km/h
2314 02-10-2009 07:02:02 7.2 C 6.91 g/m*3 7.2 C 0 km/h
2315 02-10-2009 07:14:02 7.1 C 6.94 g/m*3 7.1 C 0 km/h
2316 02-10-2009 07:26:02 7.2 C 6.99 g/m*3 7.2 C 0 km/h
2317 02-10-2009 07:38:01 7.1 C 6.94 g/m*3 7.1 C 0 km/h
2318 02-10-2009 07:50:02 7.2 C 6.99 g/m*3 7.2 C 0 km/h
2319 02-10-2009 08:02:01 7.5 C 7.12 g/m*3 7.5 C 0 km/h
2320 02-10-2009 08:14:01 7.4 C 7 g/m*3 7.4 C 0 km/h
2321 02-10-2009 08:26:02 7.5 C 6.96 g/m*3 7.5 C 0 km/h
2322 02-10-2009 08:38:01 7.4 C 6.92 g/m*3 7.4 C 0 km/h
2323 02-10-2009 08:50:03 7.5 C 6.96 g/m*3 7.5 C 0 km/h
2324 02-10-2009 09:02:02 7.6 C 7.01 g/m*3 7.6 C 0 km/h
2325 02-10-2009 09:14:02 7.9 C 7.06 g/m*3 7.9 C 0 km/h
Sensor: Nr:Datum:Temp:Abs-Feuchte:Windchill:Wind:
Aussen-T/F 2326 02-10-2009 09:26:02 8.2 C 7.03 g/m*3 8.2 C 0 km/h
2327 02-10-2009 09:38:03 8.5 C 7.09 g/m*3 8.5 C 0 km/h
2328 02-10-2009 09:50:02 8.5 C 7 g/m*3 8.5 C 0 km/h
2329 02-10-2009 10:02:02 8.7 C 7.18 g/m*3 8.7 C 0 km/h
2330 02-10-2009 10:14:02 9.3 C 7.19 g/m*3 9.3 C 0 km/h
2331 02-10-2009 10:26:02 10 C 6.77 g/m*3 10 C 0 km/h
2332 02-10-2009 10:38:02 10.1 C 6.62 g/m*3 10.1 C 0 km/h
2333 02-10-2009 10:50:01 10.6 C 6.73 g/m*3 10.6 C 0 km/h
2334 02-10-2009 11:02:02 11.2 C 6.49 g/m*3 11.2 C 0 km/h
2335 02-10-2009 11:14:02 11.5 C 6.51 g/m*3 11.5 C 0 km/h
2336 02-10-2009 11:26:01 11.8 C 6.31 g/m*3 11.8 C 0 km/h
2337 02-10-2009 11:38:01 12.1 C 6.22 g/m*3 12.1 C 0 km/h
2338 02-10-2009 11:50:01 12.8 C 6.05 g/m*3 12.8 C 0 km/h
2339 02-10-2009 12:02:02 13.4 C 5.81 g/m*3 13.4 C 0 km/h
2340 02-10-2009 12:14:02 13.6 C 5.65 g/m*3 13.6 C 0 km/h
2341 02-10-2009 12:26:01 14.1 C 5.58 g/m*3 14.1 C 0 km/h
2342 02-10-2009 12:38:02 14.3 C 5.28 g/m*3 14.3 C 0 km/h
2343 02-10-2009 12:50:01 14.6 C 5.13 g/m*3 14.6 C 0 km/h
2344 02-10-2009 13:02:02 14.5 C 4.97 g/m*3 14.5 C 0 km/h
2345 02-10-2009 13:14:02 14.6 C 4.76 g/m*3 14.6 C 0 km/h
2346 02-10-2009 13:26:01 14.6 C 5.01 g/m*3 14.6 C 0 km/h
2347 02-10-2009 13:38:02 14.7 C 5.04 g/m*3 14.7 C 0 km/h
2348 02-10-2009 13:50:01 14.1 C 4.98 g/m*3 14.1 C 0 km/h
2349 02-10-2009 14:02:02 13.9 C 4.92 g/m*3 13.9 C 0 km/h
2350 02-10-2009 14:14:02 13.9 C 5.15 g/m*3 13.9 C 0 km/h
Sensor: Nr:Datum:Temp:Abs-Feuchte:Windchill:Wind:
Aussen-T/F 2351 02-10-2009 14:26:02 13.8 C 5.24 g/m*3 13.8 C 0 km/h
2352 02-10-2009 14:38:01 13.8 C 5.36 g/m*3 13.8 C 0 km/h
2353 02-10-2009 14:50:02 14.2 C 5.37 g/m*3 14.2 C 0 km/h
2354 02-10-2009 15:02:01 14.4 C 5.44 g/m*3 14.4 C 0 km/h
2355 02-10-2009 15:14:01 14.8 C 5.32 g/m*3 14.8 C 0 km/h
2356 02-10-2009 15:26:02 15.2 C 5.45 g/m*3 15.2 C 0 km/h
2357 02-10-2009 15:38:01 15.3 C 5.62 g/m*3 15.3 C 0 km/h
2358 02-10-2009 15:50:03 14.9 C 5.48 g/m*3 14.9 C 0 km/h
2359 02-10-2009 16:02:02 14.8 C 5.57 g/m*3 14.8 C 0 km/h
2360 02-10-2009 16:14:02 15 C 5.39 g/m*3 15 C 0 km/h
2361 02-10-2009 16:26:02 15 C 5.51 g/m*3 15 C 0 km/h
2362 02-10-2009 16:38:02 14.9 C 5.61 g/m*3 14.9 C 0 km/h
2363 02-10-2009 16:50:02 14.9 C 5.74 g/m*3 14.9 C 0 km/h
2364 02-10-2009 17:02:01 14.8 C 5.7 g/m*3 14.8 C 0 km/h
2365 02-10-2009 17:14:01 14.9 C 5.74 g/m*3 14.9 C 0 km/h
2366 02-10-2009 17:26:02 14.8 C 5.57 g/m*3 14.8 C 0 km/h
2367 02-10-2009 17:38:02 14.7 C 5.41 g/m*3 14.7 C 0 km/h
2368 02-10-2009 17:50:01 14.7 C 5.54 g/m*3 14.7 C 0 km/h
2369 02-10-2009 18:02:02 14.5 C 5.47 g/m*3 14.5 C 0 km/h
2370 02-10-2009 18:14:02 14.4 C 5.69 g/m*3 14.4 C 0 km/h
2371 02-10-2009 18:26:01 14.4 C 5.69 g/m*3 14.4 C 0 km/h
2372 02-10-2009 18:38:02 14.6 C 5.76 g/m*3 14.6 C 0 km/h
2373 02-10-2009 18:50:02 14.1 C 5.7 g/m*3 14.1 C 0 km/h
2374 02-10-2009 19:02:02 14 C 5.79 g/m*3 14 C 0 km/h
2375 02-10-2009 19:14:02 13.8 C 5.96 g/m*3 13.8 C 0 km/h
Sensor: Nr:Datum:Temp:Abs-Feuchte:Windchill:Wind:
Aussen-T/F 2376 02-10-2009 19:26:01 13.7 C 6.04 g/m*3 13.7 C 0 km/h
2377 02-10-2009 19:38:02 13.6 C 6 g/m*3 13.6 C 0 km/h
2378 02-10-2009 19:50:02 13.5 C 6.08 g/m*3 13.5 C 0 km/h
2379 02-10-2009 20:02:02 13.4 C 6.16 g/m*3 13.4 C 0 km/h
2380 02-10-2009 20:14:02 13.1 C 6.16 g/m*3 13.1 C 0 km/h
2381 02-10-2009 20:26:01 12.9 C 6.31 g/m*3 12.9 C 0 km/h
2382 02-10-2009 20:38:02 12.7 C 6.35 g/m*3 12.7 C 0 km/h
2383 02-10-2009 20:50:02 12.6 C 6.31 g/m*3 12.6 C 0 km/h
2384 02-10-2009 21:02:02 12.6 C 6.42 g/m*3 12.6 C 0 km/h
2385 02-10-2009 21:14:03 12.3 C 6.41 g/m*3 12.3 C 0 km/h
2386 02-10-2009 21:26:01 12.2 C 6.47 g/m*3 12.2 C 0 km/h
2387 02-10-2009 21:38:02 12 C 6.5 g/m*3 12 C 0 km/h
2388 02-10-2009 21:50:02 11.9 C 6.57 g/m*3 11.9 C 0 km/h
2389 02-10-2009 22:02:02 11.7 C 6.48 g/m*3 11.7 C 0 km/h
2390 02-10-2009 22:14:02 11.5 C 6.61 g/m*3 11.5 C 0 km/h
2391 02-10-2009 22:26:02 11 C 6.41 g/m*3 11 C 0 km/h
2392 02-10-2009 22:39:04 10.8 C 6.52 g/m*3 10.8 C 0 km/h
2393 02-10-2009 22:51:04 10.7 C 6.58 g/m*3 10.7 C 0 km/h
2394 02-10-2009 23:03:04 10.7 C 6.68 g/m*3 10.7 C 0 km/h
2395 02-10-2009 23:15:04 10.5 C 6.6 g/m*3 10.5 C 0 km/h
2396 02-10-2009 23:27:05 10.2 C 6.57 g/m*3 10.2 C 0 km/h
2397 02-10-2009 23:39:05 10 C 6.58 g/m*3 10 C 0 km/h
2398 02-10-2009 23:51:05 9.8 C 6.68 g/m*3 9.8 C 0 km/h
2399 03-10-2009 00:03:05 9.6 C 6.69 g/m*3 9.6 C 0 km/h
2400 03-10-2009 00:15:05 9.5 C 6.64 g/m*3 9.5 C 0 km/h
Sensor: Nr:Datum:Temp:Abs-Feuchte:Windchill:Wind:
Aussen-T/F 2401 03-10-2009 00:27:05 9.2 C 6.7 g/m*3 9.2 C 0 km/h
2402 03-10-2009 00:39:05 9 C 6.79 g/m*3 9 C 0 km/h
2403 03-10-2009 00:51:05 9.1 C 6.83 g/m*3 9.1 C 0 km/h
2404 03-10-2009 01:03:05 8.9 C 6.83 g/m*3 8.9 C 0 km/h
2405 03-10-2009 01:15:05 8.7 C 6.83 g/m*3 8.7 C 0 km/h
2406 03-10-2009 01:27:05 8.6 C 6.87 g/m*3 8.6 C 0 km/h
2407 03-10-2009 01:39:05 8.4 C 6.79 g/m*3 8.4 C 0 km/h
2408 03-10-2009 01:51:05 8.4 C 6.87 g/m*3 8.4 C 0 km/h
2409 03-10-2009 02:03:05 8.1 C 6.74 g/m*3 8.1 C 0 km/h
2410 03-10-2009 02:15:05 8.1 C 6.82 g/m*3 8.1 C 0 km/h
2411 03-10-2009 02:27:05 8 C 6.78 g/m*3 8 C 0 km/h
2412 03-10-2009 02:39:05 7.7 C 6.73 g/m*3 7.7 C 0 km/h
2413 03-10-2009 02:51:05 7.5 C 6.72 g/m*3 7.5 C 0 km/h
2414 03-10-2009 03:03:06 7.4 C 6.76 g/m*3 7.4 C 0 km/h
2415 03-10-2009 03:15:06 7.3 C 6.79 g/m*3 7.3 C 0 km/h
2416 03-10-2009 03:27:06 7.3 C 6.79 g/m*3 7.3 C 0 km/h
2417 03-10-2009 03:39:06 7.4 C 6.84 g/m*3 7.4 C 0 km/h
2418 03-10-2009 03:51:06 7.1 C 6.79 g/m*3 7.1 C 0 km/h
2419 03-10-2009 04:03:06 6.9 C 6.77 g/m*3 6.9 C 0 km/h
2420 03-10-2009 04:15:06 6.9 C 6.77 g/m*3 6.9 C 0 km/h
2421 03-10-2009 04:27:06 6.9 C 6.77 g/m*3 6.9 C 0 km/h
2422 03-10-2009 04:39:06 6.8 C 6.73 g/m*3 6.8 C 0 km/h
2423 03-10-2009 04:51:06 6.6 C 6.72 g/m*3 6.6 C 0 km/h
2424 03-10-2009 05:03:06 6.5 C 6.67 g/m*3 6.5 C 0 km/h
2425 03-10-2009 05:15:06 6.4 C 6.63 g/m*3 6.4 C 0 km/h
Sensor: Nr:Datum:Temp:Abs-Feuchte:Windchill:Wind:
Aussen-T/F 2426 03-10-2009 05:27:06 6.4 C 6.63 g/m*3 6.4 C 0 km/h
2427 03-10-2009 05:39:06 6.4 C 6.71 g/m*3 6.4 C 0 km/h
2428 03-10-2009 05:51:06 6.7 C 6.91 g/m*3 6.7 C 0 km/h
2429 03-10-2009 06:03:06 7 C 6.97 g/m*3 7 C 0 km/h
2430 03-10-2009 06:15:06 7.2 C 7.06 g/m*3 7.2 C 0 km/h
2431 03-10-2009 06:27:06 7.3 C 7.03 g/m*3 7.3 C 0 km/h
2432 03-10-2009 06:39:06 7.4 C 7.08 g/m*3 7.4 C 0 km/h
2433 03-10-2009 06:51:06 7.4 C 7 g/m*3 7.4 C 0 km/h
2434 03-10-2009 07:03:07 7.4 C 6.92 g/m*3 7.4 C 0 km/h
2435 03-10-2009 07:15:07 7.4 C 6.92 g/m*3 7.4 C 0 km/h
2436 03-10-2009 07:27:07 7.5 C 6.96 g/m*3 7.5 C 0 km/h
2437 03-10-2009 07:39:07 7.5 C 6.88 g/m*3 7.5 C 0 km/h
2438 03-10-2009 07:51:07 7.6 C 7.01 g/m*3 7.6 C 0 km/h
2439 03-10-2009 08:03:07 8.1 C 7.16 g/m*3 8.1 C 0 km/h
2440 03-10-2009 08:15:04 8.7 C 7.01 g/m*3 8.7 C 0 km/h
2441 03-10-2009 08:27:04 9.1 C 6.83 g/m*3 9.1 C 0 km/h
2442 03-10-2009 08:39:04 9.4 C 6.78 g/m*3 9.4 C 0 km/h
2443 03-10-2009 08:51:02 9.6 C 6.6 g/m*3 9.6 C 0 km/h
2444 03-10-2009 09:03:01 9.8 C 6.68 g/m*3 9.8 C 0 km/h
2445 03-10-2009 09:15:01 10 C 6.48 g/m*3 10 C 0 km/h
2446 03-10-2009 09:27:01 10.2 C 6.47 g/m*3 10.2 C 0 km/h
2447 03-10-2009 09:39:02 10.4 C 6.55 g/m*3 10.4 C 0 km/h
2448 03-10-2009 09:51:02 10.6 C 6.54 g/m*3 10.6 C 0 km/h
2449 03-10-2009 10:03:02 10.8 C 6.52 g/m*3 10.8 C 0 km/h
2450 03-10-2009 10:15:02 11 C 6.51 g/m*3 11 C 0 km/h
Sensor: Nr:Datum:Temp:Abs-Feuchte:Windchill:Wind:
Aussen-T/F 2451 03-10-2009 10:27:02 11.4 C 6.57 g/m*3 11.4 C 0 km/h
2452 03-10-2009 10:39:02 11.8 C 6.53 g/m*3 11.8 C 0 km/h
2453 03-10-2009 10:51:02 12.1 C 6.43 g/m*3 12.1 C 0 km/h
2454 03-10-2009 11:03:02 12.5 C 6.49 g/m*3 12.5 C 0 km/h
2455 03-10-2009 11:15:02 13.1 C 6.28 g/m*3 13.1 C 0 km/h
2456 03-10-2009 11:27:02 13.4 C 6.28 g/m*3 13.4 C 0 km/h
2457 03-10-2009 11:39:02 13.6 C 6.12 g/m*3 13.6 C 0 km/h
2458 03-10-2009 11:51:02 13.8 C 6.08 g/m*3 13.8 C 0 km/h
2459 03-10-2009 12:03:02 14.1 C 6.07 g/m*3 14.1 C 0 km/h
2460 03-10-2009 12:15:03 14.4 C 6.06 g/m*3 14.4 C 0 km/h
2461 03-10-2009 12:27:03 14.7 C 6.17 g/m*3 14.7 C 0 km/h
2462 03-10-2009 12:39:02 15.1 C 6.19 g/m*3 15.1 C 0 km/h
2463 03-10-2009 12:51:02 15.4 C 6.04 g/m*3 15.4 C 0 km/h
2464 03-10-2009 13:03:02 15.1 C 6.06 g/m*3 15.1 C 0 km/h
2465 03-10-2009 13:15:03 15.1 C 6.06 g/m*3 15.1 C 0 km/h
2466 03-10-2009 13:27:03 14.9 C 6.12 g/m*3 14.9 C 0 km/h
2467 03-10-2009 13:39:02 15.3 C 6.14 g/m*3 15.3 C 0 km/h
2468 03-10-2009 13:51:02 15.2 C 6.1 g/m*3 15.2 C 0 km/h
2469 03-10-2009 14:03:02 15.3 C 6.01 g/m*3 15.3 C 0 km/h
2470 03-10-2009 14:15:02 15.3 C 6.14 g/m*3 15.3 C 0 km/h
2471 03-10-2009 14:27:03 15.8 C 6.06 g/m*3 15.8 C 0 km/h
2472 03-10-2009 14:39:02 16.1 C 6.03 g/m*3 16.1 C 0 km/h
2473 03-10-2009 14:51:02 15.8 C 6.06 g/m*3 15.8 C 0 km/h
2474 03-10-2009 15:03:01 15.8 C 6.06 g/m*3 15.8 C 0 km/h
2475 03-10-2009 15:15:02 15.9 C 6.09 g/m*3 15.9 C 0 km/h
Sensor: Nr:Datum:Temp:Abs-Feuchte:Windchill:Wind:
Aussen-T/F 2476 03-10-2009 15:27:02 16.3 C 5.97 g/m*3 16.3 C 0 km/h
2477 03-10-2009 15:39:02 16.1 C 6.03 g/m*3 16.1 C 0 km/h
2478 03-10-2009 15:51:02 15.7 C 6.15 g/m*3 15.7 C 0 km/h
2479 03-10-2009 16:03:03 15.7 C 6.15 g/m*3 15.7 C 0 km/h
2480 03-10-2009 16:15:02 15.6 C 6.12 g/m*3 15.6 C 0 km/h
2481 03-10-2009 16:27:02 15.4 C 6.04 g/m*3 15.4 C 0 km/h
2482 03-10-2009 16:39:02 15.3 C 6.01 g/m*3 15.3 C 0 km/h
2483 03-10-2009 16:51:02 15.2 C 6.1 g/m*3 15.2 C 0 km/h
2484 03-10-2009 17:03:02 15.2 C 6.1 g/m*3 15.2 C 0 km/h
2485 03-10-2009 17:15:01 15.4 C 6.04 g/m*3 15.4 C 0 km/h
2486 03-10-2009 17:27:01 15.5 C 6.08 g/m*3 15.5 C 0 km/h
2487 03-10-2009 17:39:02 15.6 C 6.12 g/m*3 15.6 C 0 km/h
2488 03-10-2009 17:51:02 15.5 C 6.08 g/m*3 15.5 C 0 km/h
2489 03-10-2009 18:03:02 15.4 C 6.04 g/m*3 15.4 C 0 km/h
2490 03-10-2009 18:15:01 15.4 C 6.04 g/m*3 15.4 C 0 km/h
2491 03-10-2009 18:27:01 15.7 C 6.15 g/m*3 15.7 C 0 km/h
2492 03-10-2009 18:39:02 15.7 C 6.15 g/m*3 15.7 C 0 km/h
2493 03-10-2009 18:51:01 15.3 C 6.14 g/m*3 15.3 C 0 km/h
2494 03-10-2009 19:03:02 15 C 6.15 g/m*3 15 C 0 km/h
2495 03-10-2009 19:15:02 14.8 C 6.46 g/m*3 14.8 C 0 km/h
2496 03-10-2009 19:27:02 14.6 C 6.51 g/m*3 14.6 C 0 km/h
2497 03-10-2009 19:39:02 14.5 C 6.47 g/m*3 14.5 C 0 km/h
2498 03-10-2009 19:51:02 14.6 C 6.63 g/m*3 14.6 C 0 km/h
2499 03-10-2009 20:03:01 14.3 C 6.63 g/m*3 14.3 C 0 km/h
2500 03-10-2009 20:15:02 13.9 C 6.71 g/m*3 13.9 C 0 km/h
Sensor: Nr:Datum:Temp:Abs-Feuchte:Windchill:Wind:
Aussen-T/F 2501 03-10-2009 20:27:02 13.4 C 6.74 g/m*3 13.4 C 0 km/h
2502 03-10-2009 20:39:01 13 C 6.8 g/m*3 13 C 0 km/h
2503 03-10-2009 20:51:02 12.8 C 6.94 g/m*3 12.8 C 0 km/h
2504 03-10-2009 21:03:02 13 C 6.92 g/m*3 13 C 0 km/h
2505 03-10-2009 21:15:01 13 C 6.92 g/m*3 13 C 0 km/h
2506 03-10-2009 21:27:01 12.9 C 7.1 g/m*3 12.9 C 0 km/h
2507 03-10-2009 21:39:01 13.1 C 6.96 g/m*3 13.1 C 0 km/h
2508 03-10-2009 21:51:01 13.1 C 6.96 g/m*3 13.1 C 0 km/h
2509 03-10-2009 22:03:01 13.1 C 6.96 g/m*3 13.1 C 0 km/h
2510 03-10-2009 22:15:02 13.2 C 7.12 g/m*3 13.2 C 0 km/h
2511 03-10-2009 22:27:02 13.3 C 6.93 g/m*3 13.3 C 0 km/h
2512 03-10-2009 22:39:01 13.4 C 6.97 g/m*3 13.4 C 0 km/h
2513 03-10-2009 22:52:03 13.7 C 6.63 g/m*3 13.7 C 0 km/h
2514 03-10-2009 23:04:03 14 C 6.39 g/m*3 14 C 0 km/h
2515 03-10-2009 23:16:03 14 C 6.39 g/m*3 14 C 0 km/h
2516 03-10-2009 23:28:03 14 C 6.39 g/m*3 14 C 0 km/h
2517 03-10-2009 23:40:03 14 C 6.39 g/m*3 14 C 0 km/h
2518 03-10-2009 23:52:03 13.9 C 6.47 g/m*3 13.9 C 0 km/h
2519 04-10-2009 00:04:03 13.9 C 6.47 g/m*3 13.9 C 0 km/h
2520 04-10-2009 00:16:03 13.8 C 6.55 g/m*3 13.8 C 0 km/h
2521 04-10-2009 00:28:03 13.8 C 6.43 g/m*3 13.8 C 0 km/h
2522 04-10-2009 00:40:03 13.7 C 6.51 g/m*3 13.7 C 0 km/h
2523 04-10-2009 00:52:03 13.5 C 6.43 g/m*3 13.5 C 0 km/h
2524 04-10-2009 01:04:04 13.2 C 6.32 g/m*3 13.2 C 0 km/h
2525 04-10-2009 01:16:04 13.2 C 6.32 g/m*3 13.2 C 0 km/h
Sensor: Nr:Datum:Temp:Abs-Feuchte:Windchill:Wind:
Aussen-T/F 2526 04-10-2009 01:28:04 13.2 C 6.32 g/m*3 13.2 C 0 km/h
2527 04-10-2009 01:40:04 12.9 C 6.31 g/m*3 12.9 C 0 km/h
2528 04-10-2009 01:52:04 13 C 6.35 g/m*3 13 C 0 km/h
2529 04-10-2009 02:04:04 13.2 C 6.32 g/m*3 13.2 C 0 km/h
2530 04-10-2009 02:16:04 13.3 C 6.24 g/m*3 13.3 C 0 km/h
2531 04-10-2009 02:28:04 13.3 C 6.35 g/m*3 13.3 C 0 km/h
2532 04-10-2009 02:40:04 13.2 C 6.32 g/m*3 13.2 C 0 km/h
2533 04-10-2009 02:52:04 13.1 C 6.28 g/m*3 13.1 C 0 km/h
2534 04-10-2009 03:04:04 12.9 C 6.42 g/m*3 12.9 C 0 km/h
2535 04-10-2009 03:16:04 12.8 C 6.38 g/m*3 12.8 C 0 km/h
2536 04-10-2009 03:28:04 12.7 C 6.35 g/m*3 12.7 C 0 km/h
2537 04-10-2009 03:40:04 12.6 C 6.42 g/m*3 12.6 C 0 km/h
2538 04-10-2009 03:52:04 12.8 C 6.38 g/m*3 12.8 C 0 km/h
2539 04-10-2009 04:04:04 12.7 C 6.46 g/m*3 12.7 C 0 km/h
2540 04-10-2009 04:16:04 12.6 C 6.53 g/m*3 12.6 C 0 km/h
2541 04-10-2009 04:28:04 12.7 C 6.46 g/m*3 12.7 C 0 km/h
2542 04-10-2009 04:40:04 12.8 C 6.5 g/m*3 12.8 C 0 km/h
2543 04-10-2009 04:52:04 12.7 C 6.57 g/m*3 12.7 C 0 km/h
2544 04-10-2009 05:04:04 12.6 C 6.53 g/m*3 12.6 C 0 km/h
2545 04-10-2009 05:16:05 12.9 C 6.65 g/m*3 12.9 C 0 km/h
2546 04-10-2009 05:28:05 13 C 6.58 g/m*3 13 C 0 km/h
2547 04-10-2009 05:40:05 13.1 C 6.5 g/m*3 13.1 C 0 km/h
2548 04-10-2009 05:52:05 13.2 C 6.54 g/m*3 13.2 C 0 km/h
2549 04-10-2009 06:04:05 13.1 C 6.5 g/m*3 13.1 C 0 km/h
2550 04-10-2009 06:16:05 13.1 C 6.5 g/m*3 13.1 C 0 km/h
Sensor: Nr:Datum:Temp:Abs-Feuchte:Windchill:Wind:
Aussen-T/F 2551 04-10-2009 06:28:05 13.1 C 6.5 g/m*3 13.1 C 0 km/h
2552 04-10-2009 06:40:05 13 C 6.46 g/m*3 13 C 0 km/h
2553 04-10-2009 06:52:05 12.8 C 6.61 g/m*3 12.8 C 0 km/h
2554 04-10-2009 07:04:05 12.9 C 6.65 g/m*3 12.9 C 0 km/h
2555 04-10-2009 07:16:05 13 C 6.46 g/m*3 13 C 0 km/h
2556 04-10-2009 07:28:05 13 C 6.58 g/m*3 13 C 0 km/h
2557 04-10-2009 07:40:05 12.9 C 6.65 g/m*3 12.9 C 0 km/h
2558 04-10-2009 07:52:05 12.8 C 6.61 g/m*3 12.8 C 0 km/h
2559 04-10-2009 08:04:05 12.9 C 6.76 g/m*3 12.9 C 0 km/h
2560 04-10-2009 08:16:05 12.9 C 6.76 g/m*3 12.9 C 0 km/h
2561 04-10-2009 08:28:05 13 C 6.69 g/m*3 13 C 0 km/h
2562 04-10-2009 08:40:03 13.1 C 6.62 g/m*3 13.1 C 0 km/h
2563 04-10-2009 08:52:02 13.3 C 6.7 g/m*3 13.3 C 0 km/h
2564 04-10-2009 09:04:02 13.5 C 6.78 g/m*3 13.5 C 0 km/h
2565 04-10-2009 09:16:02 13.7 C 6.87 g/m*3 13.7 C 0 km/h
2566 04-10-2009 09:28:02 13.8 C 6.91 g/m*3 13.8 C 0 km/h
2567 04-10-2009 09:40:02 13.8 C 6.91 g/m*3 13.8 C 0 km/h
2568 04-10-2009 09:52:01 13.9 C 7.07 g/m*3 13.9 C 0 km/h
2569 04-10-2009 10:04:02 14.1 C 7.04 g/m*3 14.1 C 0 km/h
2570 04-10-2009 10:16:01 14.2 C 6.96 g/m*3 14.2 C 0 km/h
2571 04-10-2009 10:28:01 14.6 C 7.13 g/m*3 14.6 C 0 km/h
2572 04-10-2009 10:40:01 14.8 C 7.09 g/m*3 14.8 C 0 km/h
2573 04-10-2009 10:52:01 14.8 C 7.09 g/m*3 14.8 C 0 km/h
2574 04-10-2009 11:04:02 14.7 C 7.18 g/m*3 14.7 C 0 km/h
2575 04-10-2009 11:16:01 14.9 C 7.26 g/m*3 14.9 C 0 km/h
Sensor: Nr:Datum:Temp:Abs-Feuchte:Windchill:Wind:
Aussen-T/F 2576 04-10-2009 11:28:01 15.3 C 7.31 g/m*3 15.3 C 0 km/h
2577 04-10-2009 11:40:02 15 C 7.18 g/m*3 15 C 0 km/h
2578 04-10-2009 11:52:01 14.8 C 7.47 g/m*3 14.8 C 0 km/h
2579 04-10-2009 12:04:02 14.8 C 7.47 g/m*3 14.8 C 0 km/h
2580 04-10-2009 12:16:02 14.7 C 7.55 g/m*3 14.7 C 0 km/h
2581 04-10-2009 12:28:02 14.7 C 7.55 g/m*3 14.7 C 0 km/h
2582 04-10-2009 12:40:01 14.9 C 7.65 g/m*3 14.9 C 0 km/h
2583 04-10-2009 12:52:01 15.3 C 7.84 g/m*3 15.3 C 0 km/h
2584 04-10-2009 13:04:01 15.6 C 7.58 g/m*3 15.6 C 0 km/h
2585 04-10-2009 13:16:02 15.8 C 7.54 g/m*3 15.8 C 0 km/h
2586 04-10-2009 13:28:02 15.5 C 7.67 g/m*3 15.5 C 0 km/h
2587 04-10-2009 13:40:01 15.4 C 7.62 g/m*3 15.4 C 0 km/h
2588 04-10-2009 13:52:02 15.6 C 7.58 g/m*3 15.6 C 0 km/h
2589 04-10-2009 14:04:01 15.8 C 7.81 g/m*3 15.8 C 0 km/h
2590 04-10-2009 14:16:01 15.9 C 7.72 g/m*3 15.9 C 0 km/h
2591 04-10-2009 14:28:01 15.8 C 7.67 g/m*3 15.8 C 0 km/h
2592 04-10-2009 14:40:01 15.6 C 7.58 g/m*3 15.6 C 0 km/h
2593 04-10-2009 14:52:02 15.9 C 7.72 g/m*3 15.9 C 0 km/h
2594 04-10-2009 15:04:02 16.2 C 7.58 g/m*3 16.2 C 0 km/h
2595 04-10-2009 15:16:02 16 C 7.63 g/m*3 16 C 0 km/h
2596 04-10-2009 15:28:02 15.8 C 7.81 g/m*3 15.8 C 0 km/h
2597 04-10-2009 15:40:02 15.8 C 7.81 g/m*3 15.8 C 0 km/h
2598 04-10-2009 15:52:02 15.8 C 7.81 g/m*3 15.8 C 0 km/h
2599 04-10-2009 16:04:01 15.6 C 7.98 g/m*3 15.6 C 0 km/h
2600 04-10-2009 16:16:01 14.6 C 8.76 g/m*3 14.6 C 0 km/h
Sensor: Nr:Datum:Temp:Abs-Feuchte:Windchill:Wind:
Aussen-T/F 2601 04-10-2009 16:28:01 13.6 C 9.53 g/m*3 13.6 C 0 km/h
2602 04-10-2009 16:40:02 13.2 C 9.76 g/m*3 13.2 C 0 km/h
2603 04-10-2009 16:52:02 13.3 C 10.05 g/m*3 13.3 C 0 km/h
2604 04-10-2009 17:04:02 13.3 C 10.17 g/m*3 13.3 C 0 km/h
2605 04-10-2009 17:16:01 13.2 C 10.1 g/m*3 13.2 C 0 km/h
2606 04-10-2009 17:28:01 13.3 C 10.28 g/m*3 13.3 C 0 km/h
2607 04-10-2009 17:40:02 13.2 C 10.22 g/m*3 13.2 C 0 km/h
2608 04-10-2009 17:52:02 13.2 C 10.22 g/m*3 13.2 C 0 km/h
2609 04-10-2009 18:04:02 13.1 C 10.27 g/m*3 13.1 C 0 km/h
2610 04-10-2009 18:16:02 13.1 C 10.27 g/m*3 13.1 C 0 km/h
2611 04-10-2009 18:28:02 12.9 C 10.14 g/m*3 12.9 C 0 km/h
2612 04-10-2009 18:40:02 12.8 C 10.08 g/m*3 12.8 C 0 km/h
2613 04-10-2009 18:52:02 12.9 C 10.14 g/m*3 12.9 C 0 km/h
2614 04-10-2009 19:04:02 12.9 C 10.14 g/m*3 12.9 C 0 km/h
2615 04-10-2009 19:16:03 12.9 C 10.14 g/m*3 12.9 C 0 km/h
2616 04-10-2009 19:28:03 13 C 10.21 g/m*3 13 C 0 km/h
2617 04-10-2009 19:40:02 13 C 10.21 g/m*3 13 C 0 km/h
2618 04-10-2009 19:52:02 13 C 10.09 g/m*3 13 C 0 km/h
2619 04-10-2009 20:04:02 12.9 C 10.03 g/m*3 12.9 C 0 km/h
2620 04-10-2009 20:16:02 12.6 C 9.85 g/m*3 12.6 C 0 km/h
2621 04-10-2009 20:28:02 12.5 C 9.78 g/m*3 12.5 C 0 km/h
2622 04-10-2009 20:40:02 12.4 C 9.83 g/m*3 12.4 C 0 km/h
2623 04-10-2009 20:52:02 12.2 C 9.71 g/m*3 12.2 C 0 km/h
2624 04-10-2009 21:04:02 12.2 C 9.71 g/m*3 12.2 C 0 km/h
2625 04-10-2009 21:16:01 12.2 C 9.82 g/m*3 12.2 C 0 km/h
Sensor: Nr:Datum:Temp:Abs-Feuchte:Windchill:Wind:
Aussen-T/F 2626 04-10-2009 21:28:01 12.2 C 9.82 g/m*3 12.2 C 0 km/h
2627 04-10-2009 21:40:02 12.2 C 9.82 g/m*3 12.2 C 0 km/h
2628 04-10-2009 21:52:01 12.2 C 9.82 g/m*3 12.2 C 0 km/h
2629 04-10-2009 22:04:02 12.2 C 9.82 g/m*3 12.2 C 0 km/h
2630 04-10-2009 22:16:02 12.2 C 9.93 g/m*3 12.2 C 0 km/h
2631 04-10-2009 22:28:02 12.1 C 9.87 g/m*3 12.1 C 0 km/h
2632 04-10-2009 22:41:03 12.1 C 9.87 g/m*3 12.1 C 0 km/h
2633 04-10-2009 22:53:03 12.1 C 9.87 g/m*3 12.1 C 0 km/h
2634 04-10-2009 23:05:03 12.1 C 9.87 g/m*3 12.1 C 0 km/h
2635 04-10-2009 23:17:03 12.1 C 9.87 g/m*3 12.1 C 0 km/h
2636 04-10-2009 23:29:03 12.1 C 9.87 g/m*3 12.1 C 0 km/h
2637 04-10-2009 23:41:03 12.1 C 9.76 g/m*3 12.1 C 0 km/h
2638 04-10-2009 23:53:03 12.1 C 9.76 g/m*3 12.1 C 0 km/h
2639 05-10-2009 00:05:03 11.9 C 9.74 g/m*3 11.9 C 0 km/h
2640 05-10-2009 00:17:04 11.9 C 9.74 g/m*3 11.9 C 0 km/h
2641 05-10-2009 00:29:04 11.9 C 9.74 g/m*3 11.9 C 0 km/h
2642 05-10-2009 00:41:04 11.9 C 9.74 g/m*3 11.9 C 0 km/h
2643 05-10-2009 00:53:04 11.8 C 9.68 g/m*3 11.8 C 0 km/h
2644 05-10-2009 01:05:04 11.7 C 9.62 g/m*3 11.7 C 0 km/h
2645 05-10-2009 01:17:04 11.7 C 9.62 g/m*3 11.7 C 0 km/h
2646 05-10-2009 01:29:04 11.6 C 9.56 g/m*3 11.6 C 0 km/h
2647 05-10-2009 01:41:04 11.6 C 9.56 g/m*3 11.6 C 0 km/h
2648 05-10-2009 01:53:04 11.5 C 9.61 g/m*3 11.5 C 0 km/h
2649 05-10-2009 02:05:04 11.3 C 9.49 g/m*3 11.3 C 0 km/h
2650 05-10-2009 02:17:04 11.2 C 9.43 g/m*3 11.2 C 0 km/h
Sensor: Nr:Datum:Temp:Abs-Feuchte:Windchill:Wind:
Aussen-T/F 2651 05-10-2009 02:29:04 11.2 C 9.43 g/m*3 11.2 C 0 km/h
2652 05-10-2009 02:41:04 11 C 9.31 g/m*3 11 C 0 km/h
2653 05-10-2009 02:53:04 11 C 9.31 g/m*3 11 C 0 km/h
2654 05-10-2009 03:05:04 11 C 9.31 g/m*3 11 C 0 km/h
2655 05-10-2009 03:17:04 11.1 C 9.47 g/m*3 11.1 C 0 km/h
2656 05-10-2009 03:29:04 11.1 C 9.47 g/m*3 11.1 C 0 km/h
2657 05-10-2009 03:41:04 11.1 C 9.47 g/m*3 11.1 C 0 km/h
2658 05-10-2009 03:53:04 11.2 C 9.53 g/m*3 11.2 C 0 km/h
2659 05-10-2009 04:05:04 11.3 C 9.59 g/m*3 11.3 C 0 km/h
2660 05-10-2009 04:17:04 11.2 C 9.53 g/m*3 11.2 C 0 km/h
2661 05-10-2009 04:29:05 11.2 C 9.53 g/m*3 11.2 C 0 km/h
2662 05-10-2009 04:41:05 11.1 C 9.47 g/m*3 11.1 C 0 km/h
2663 05-10-2009 04:53:05 11.1 C 9.47 g/m*3 11.1 C 0 km/h
2664 05-10-2009 05:05:05 11 C 9.41 g/m*3 11 C 0 km/h
2665 05-10-2009 05:17:05 11 C 9.41 g/m*3 11 C 0 km/h
2666 05-10-2009 05:29:05 11 C 9.41 g/m*3 11 C 0 km/h
2667 05-10-2009 05:41:05 11 C 9.41 g/m*3 11 C 0 km/h
2668 05-10-2009 05:53:05 11 C 9.51 g/m*3 11 C 0 km/h
2669 05-10-2009 06:05:05 11 C 9.41 g/m*3 11 C 0 km/h
2670 05-10-2009 06:17:05 11.1 C 9.57 g/m*3 11.1 C 0 km/h
2671 05-10-2009 06:29:05 11.1 C 9.57 g/m*3 11.1 C 0 km/h
2672 05-10-2009 06:41:05 11.1 C 9.57 g/m*3 11.1 C 0 km/h
2673 05-10-2009 06:53:05 11.1 C 9.57 g/m*3 11.1 C 0 km/h
2674 05-10-2009 07:05:03 11.1 C 9.57 g/m*3 11.1 C 0 km/h
2675 05-10-2009 07:17:03 11.1 C 9.57 g/m*3 11.1 C 0 km/h
Sensor: Nr:Datum:Temp:Abs-Feuchte:Windchill:Wind:
Aussen-T/F 2676 05-10-2009 07:29:03 11.1 C 9.57 g/m*3 11.1 C 0 km/h
2677 05-10-2009 07:41:03 11.2 C 9.63 g/m*3 11.2 C 0 km/h
2678 05-10-2009 07:53:02 11.2 C 9.63 g/m*3 11.2 C 0 km/h
2679 05-10-2009 08:05:02 11.3 C 9.69 g/m*3 11.3 C 0 km/h
2680 05-10-2009 08:17:03 11.4 C 9.75 g/m*3 11.4 C 0 km/h
2681 05-10-2009 08:29:03 11.4 C 9.75 g/m*3 11.4 C 0 km/h
2682 05-10-2009 08:41:02 11.6 C 9.87 g/m*3 11.6 C 0 km/h
2683 05-10-2009 08:53:01 11.8 C 10 g/m*3 11.8 C 0 km/h
2684 05-10-2009 09:05:01 11.9 C 10.06 g/m*3 11.9 C 0 km/h
2685 05-10-2009 09:17:02 12.1 C 10.19 g/m*3 12.1 C 0 km/h
2686 05-10-2009 09:29:02 12.2 C 10.25 g/m*3 12.2 C 0 km/h
2687 05-10-2009 09:41:01 12.3 C 10.32 g/m*3 12.3 C 0 km/h
2688 05-10-2009 09:53:02 12.4 C 10.38 g/m*3 12.4 C 0 km/h
2689 05-10-2009 10:05:01 12.8 C 10.64 g/m*3 12.8 C 0 km/h
2690 05-10-2009 10:17:02 13 C 10.66 g/m*3 13 C 0 km/h
2691 05-10-2009 10:29:02 13.2 C 10.79 g/m*3 13.2 C 0 km/h
2692 05-10-2009 10:41:01 13.2 C 10.68 g/m*3 13.2 C 0 km/h
2693 05-10-2009 10:53:02 13.4 C 10.69 g/m*3 13.4 C 0 km/h
2694 05-10-2009 11:05:02 13.3 C 10.4 g/m*3 13.3 C 0 km/h
2695 05-10-2009 11:17:02 13.4 C 10 g/m*3 13.4 C 0 km/h
2696 05-10-2009 11:29:02 13.8 C 10.13 g/m*3 13.8 C 0 km/h
2697 05-10-2009 11:41:02 14.2 C 10.26 g/m*3 14.2 C 0 km/h
2698 05-10-2009 11:53:02 14.1 C 10.07 g/m*3 14.1 C 0 km/h
2699 05-10-2009 12:05:01 14.6 C 10.39 g/m*3 14.6 C 0 km/h
2700 05-10-2009 12:17:02 15.2 C 10.25 g/m*3 15.2 C 0 km/h
Sensor: Nr:Datum:Temp:Abs-Feuchte:Windchill:Wind:
Aussen-T/F 2701 05-10-2009 12:29:02 15.4 C 9.99 g/m*3 15.4 C 0 km/h
2702 05-10-2009 12:41:02 15.5 C 9.91 g/m*3 15.5 C 0 km/h
2703 05-10-2009 12:53:02 15.4 C 9.85 g/m*3 15.4 C 0 km/h
2704 05-10-2009 13:05:03 15.3 C 10.06 g/m*3 15.3 C 0 km/h
2705 05-10-2009 13:17:02 14.9 C 10.07 g/m*3 14.9 C 0 km/h
2706 05-10-2009 13:29:02 14.8 C 10.26 g/m*3 14.8 C 0 km/h
2707 05-10-2009 13:41:02 14.7 C 10.2 g/m*3 14.7 C 0 km/h
2708 05-10-2009 13:53:01 14.7 C 10.45 g/m*3 14.7 C 0 km/h
2709 05-10-2009 14:05:02 14.7 C 10.45 g/m*3 14.7 C 0 km/h
2710 05-10-2009 14:17:01 14.6 C 10.51 g/m*3 14.6 C 0 km/h
2711 05-10-2009 14:29:01 14.4 C 10.26 g/m*3 14.4 C 0 km/h
2712 05-10-2009 14:41:02 14.3 C 10.2 g/m*3 14.3 C 0 km/h
2713 05-10-2009 14:53:01 14.1 C 10.19 g/m*3 14.1 C 0 km/h
2714 05-10-2009 15:05:02 14 C 10.13 g/m*3 14 C 0 km/h
2715 05-10-2009 15:17:02 13.6 C 10 g/m*3 13.6 C 0 km/h
2716 05-10-2009 15:29:02 13.5 C 10.18 g/m*3 13.5 C 0 km/h
2717 05-10-2009 15:41:01 13.5 C 10.29 g/m*3 13.5 C 0 km/h
2718 05-10-2009 15:53:01 13.7 C 10.54 g/m*3 13.7 C 0 km/h
2719 05-10-2009 16:05:02 13.8 C 10.6 g/m*3 13.8 C 0 km/h
2720 05-10-2009 16:17:02 13.5 C 10.53 g/m*3 13.5 C 0 km/h
2721 05-10-2009 16:29:02 13.4 C 10.46 g/m*3 13.4 C 0 km/h
2722 05-10-2009 16:41:01 13.2 C 10.33 g/m*3 13.2 C 0 km/h
2723 05-10-2009 16:53:02 13.1 C 10.38 g/m*3 13.1 C 0 km/h
2724 05-10-2009 17:05:01 13 C 10.32 g/m*3 13 C 0 km/h
2725 05-10-2009 17:17:02 12.7 C 10.24 g/m*3 12.7 C 0 km/h
Sensor: Nr:Datum:Temp:Abs-Feuchte:Windchill:Wind:
Aussen-T/F 2726 05-10-2009 17:29:02 12.4 C 10.05 g/m*3 12.4 C 0 km/h
2727 05-10-2009 17:41:01 12.3 C 9.99 g/m*3 12.3 C 0 km/h
2728 05-10-2009 17:53:02 12.1 C 9.87 g/m*3 12.1 C 0 km/h
2729 05-10-2009 18:05:02 12.2 C 9.82 g/m*3 12.2 C 0 km/h
2730 05-10-2009 18:17:02 12 C 9.8 g/m*3 12 C 0 km/h
2731 05-10-2009 18:29:02 12 C 9.8 g/m*3 12 C 0 km/h
2732 05-10-2009 18:41:02 12 C 9.8 g/m*3 12 C 0 km/h
2733 05-10-2009 18:53:02 12 C 9.91 g/m*3 12 C 0 km/h
2734 05-10-2009 19:05:01 12 C 9.91 g/m*3 12 C 0 km/h
2735 05-10-2009 19:17:01 12 C 9.91 g/m*3 12 C 0 km/h
2736 05-10-2009 19:29:01 12 C 9.91 g/m*3 12 C 0 km/h
2737 05-10-2009 19:41:02 12 C 10.02 g/m*3 12 C 0 km/h
2738 05-10-2009 19:53:02 12 C 10.02 g/m*3 12 C 0 km/h
2739 05-10-2009 20:05:02 12 C 10.02 g/m*3 12 C 0 km/h
2740 05-10-2009 20:17:02 12 C 10.02 g/m*3 12 C 0 km/h
2741 05-10-2009 20:29:02 12 C 10.02 g/m*3 12 C 0 km/h
2742 05-10-2009 20:41:02 12 C 10.02 g/m*3 12 C 0 km/h
2743 05-10-2009 20:53:01 12.3 C 10.32 g/m*3 12.3 C 0 km/h
2744 05-10-2009 21:05:01 12.2 C 10.25 g/m*3 12.2 C 0 km/h
2745 05-10-2009 21:17:02 12.1 C 10.19 g/m*3 12.1 C 0 km/h
2746 05-10-2009 21:29:02 12.1 C 10.19 g/m*3 12.1 C 0 km/h
2747 05-10-2009 21:41:01 12.2 C 10.25 g/m*3 12.2 C 0 km/h
2748 05-10-2009 21:53:03 12.2 C 10.25 g/m*3 12.2 C 0 km/h
2749 05-10-2009 22:05:02 12.2 C 10.25 g/m*3 12.2 C 0 km/h
2750 05-10-2009 22:18:02 12.3 C 10.32 g/m*3 12.3 C 0 km/h
Sensor: Nr:Datum:Temp:Abs-Feuchte:Windchill:Wind:
Aussen-T/F 2751 05-10-2009 22:30:02 12.3 C 10.32 g/m*3 12.3 C 0 km/h
2752 05-10-2009 22:42:03 12.3 C 10.32 g/m*3 12.3 C 0 km/h
2753 05-10-2009 22:54:03 12.4 C 10.38 g/m*3 12.4 C 0 km/h
2754 05-10-2009 23:06:03 12.4 C 10.38 g/m*3 12.4 C 0 km/h
2755 05-10-2009 23:18:03 12.4 C 10.38 g/m*3 12.4 C 0 km/h
2756 05-10-2009 23:30:03 12.4 C 10.38 g/m*3 12.4 C 0 km/h
2757 05-10-2009 23:42:03 12.5 C 10.44 g/m*3 12.5 C 0 km/h
2758 05-10-2009 23:54:03 12.5 C 10.44 g/m*3 12.5 C 0 km/h
2759 06-10-2009 00:06:03 12.6 C 10.51 g/m*3 12.6 C 0 km/h
2760 06-10-2009 00:18:03 12.6 C 10.51 g/m*3 12.6 C 0 km/h
2761 06-10-2009 00:30:03 12.6 C 10.51 g/m*3 12.6 C 0 km/h
2762 06-10-2009 00:42:03 12.7 C 10.58 g/m*3 12.7 C 0 km/h
2763 06-10-2009 00:54:03 12.6 C 10.51 g/m*3 12.6 C 0 km/h
2764 06-10-2009 01:06:03 12.6 C 10.51 g/m*3 12.6 C 0 km/h
2765 06-10-2009 01:18:03 12.7 C 10.58 g/m*3 12.7 C 0 km/h
2766 06-10-2009 01:30:03 12.8 C 10.64 g/m*3 12.8 C 0 km/h
2767 06-10-2009 01:42:03 12.8 C 10.64 g/m*3 12.8 C 0 km/h
2768 06-10-2009 01:54:03 12.9 C 10.71 g/m*3 12.9 C 0 km/h
2769 06-10-2009 02:06:03 12.9 C 10.71 g/m*3 12.9 C 0 km/h
2770 06-10-2009 02:18:03 12.8 C 10.64 g/m*3 12.8 C 0 km/h
2771 06-10-2009 02:30:03 12.9 C 10.71 g/m*3 12.9 C 0 km/h
2772 06-10-2009 02:42:04 13 C 10.77 g/m*3 13 C 0 km/h
2773 06-10-2009 02:54:04 13 C 10.77 g/m*3 13 C 0 km/h
2774 06-10-2009 03:06:04 13 C 10.77 g/m*3 13 C 0 km/h
2775 06-10-2009 03:18:04 12.9 C 10.71 g/m*3 12.9 C 0 km/h
Sensor: Nr:Datum:Temp:Abs-Feuchte:Windchill:Wind:
Aussen-T/F 2776 06-10-2009 03:30:04 13.1 C 10.84 g/m*3 13.1 C 0 km/h
2777 06-10-2009 03:42:04 13.2 C 10.91 g/m*3 13.2 C 0 km/h
2778 06-10-2009 03:54:04 13.5 C 11.11 g/m*3 13.5 C 0 km/h
2779 06-10-2009 04:06:04 13.7 C 11.25 g/m*3 13.7 C 0 km/h
2780 06-10-2009 04:18:04 14.4 C 11.74 g/m*3 14.4 C 0 km/h
2781 06-10-2009 04:30:04 14.9 C 12.11 g/m*3 14.9 C 0 km/h
2782 06-10-2009 04:42:04 14.3 C 11.67 g/m*3 14.3 C 0 km/h
2783 06-10-2009 04:54:04 14.2 C 11.6 g/m*3 14.2 C 0 km/h
2784 06-10-2009 05:06:04 14.5 C 11.82 g/m*3 14.5 C 0 km/h
2785 06-10-2009 05:18:04 14.7 C 11.96 g/m*3 14.7 C 0 km/h
2786 06-10-2009 05:30:04 15.2 C 12.33 g/m*3 15.2 C 0 km/h
2787 06-10-2009 05:42:04 15.3 C 12.41 g/m*3 15.3 C 0 km/h
2788 06-10-2009 05:54:04 15.2 C 12.33 g/m*3 15.2 C 0 km/h
2789 06-10-2009 06:06:04 15.2 C 12.33 g/m*3 15.2 C 0 km/h
2790 06-10-2009 06:18:04 15.2 C 12.33 g/m*3 15.2 C 0 km/h
2791 06-10-2009 06:30:05 15.2 C 12.33 g/m*3 15.2 C 0 km/h
2792 06-10-2009 06:42:05 15.2 C 12.33 g/m*3 15.2 C 0 km/h
2793 06-10-2009 06:54:05 15.2 C 12.33 g/m*3 15.2 C 0 km/h
2794 06-10-2009 07:06:01 15.3 C 12.41 g/m*3 15.3 C 0 km/h
2795 06-10-2009 07:18:02 15.4 C 12.35 g/m*3 15.4 C 0 km/h
2796 06-10-2009 07:30:02 15.4 C 12.22 g/m*3 15.4 C 0 km/h
2797 06-10-2009 07:42:01 15.3 C 12.01 g/m*3 15.3 C 0 km/h
2798 06-10-2009 07:54:02 15.2 C 11.94 g/m*3 15.2 C 0 km/h
2799 06-10-2009 08:06:02 15.1 C 11.87 g/m*3 15.1 C 0 km/h
2800 06-10-2009 08:18:02 15.1 C 11.87 g/m*3 15.1 C 0 km/h
Sensor: Nr:Datum:Temp:Abs-Feuchte:Windchill:Wind:
Aussen-T/F 2801 06-10-2009 08:30:02 15 C 11.8 g/m*3 15 C 0 km/h
2802 06-10-2009 08:42:02 15.2 C 11.94 g/m*3 15.2 C 0 km/h
2803 06-10-2009 08:54:02 15.3 C 12.14 g/m*3 15.3 C 0 km/h
2804 06-10-2009 09:06:02 15.3 C 12.01 g/m*3 15.3 C 0 km/h
2805 06-10-2009 09:18:02 15.2 C 11.94 g/m*3 15.2 C 0 km/h
2806 06-10-2009 09:30:02 15.1 C 11.87 g/m*3 15.1 C 0 km/h
2807 06-10-2009 09:42:02 15.4 C 12.09 g/m*3 15.4 C 0 km/h
2808 06-10-2009 09:54:02 15.7 C 12.31 g/m*3 15.7 C 0 km/h
2809 06-10-2009 10:06:02 15.8 C 12.25 g/m*3 15.8 C 0 km/h
2810 06-10-2009 10:18:02 16.3 C 12.49 g/m*3 16.3 C 0 km/h
2811 06-10-2009 10:30:02 16.5 C 12.5 g/m*3 16.5 C 0 km/h
2812 06-10-2009 10:42:02 16.7 C 12.51 g/m*3 16.7 C 0 km/h
2813 06-10-2009 10:54:02 17 C 11.14 g/m*3 17 C 0 km/h
2814 06-10-2009 11:06:03 17.6 C 10.5 g/m*3 17.6 C 0 km/h
2815 06-10-2009 11:18:03 17.7 C 10.41 g/m*3 17.7 C 0 km/h
2816 06-10-2009 11:30:03 17.9 C 10.54 g/m*3 17.9 C 0 km/h
2817 06-10-2009 11:42:03 17.8 C 10.17 g/m*3 17.8 C 0 km/h
2818 06-10-2009 11:54:02 18.1 C 10.2 g/m*3 18.1 C 0 km/h
2819 06-10-2009 12:06:02 18.2 C 10.1 g/m*3 18.2 C 0 km/h
2820 06-10-2009 12:18:03 18 C 10.29 g/m*3 18 C 0 km/h
2821 06-10-2009 12:30:03 17.9 C 10.38 g/m*3 17.9 C 0 km/h
2822 06-10-2009 12:42:02 17.9 C 10.54 g/m*3 17.9 C 0 km/h
2823 06-10-2009 12:54:02 17.8 C 10.93 g/m*3 17.8 C 0 km/h
2824 06-10-2009 13:06:02 17.8 C 11.23 g/m*3 17.8 C 0 km/h
2825 06-10-2009 13:18:03 17.8 C 11.23 g/m*3 17.8 C 0 km/h
Sensor: Nr:Datum:Temp:Abs-Feuchte:Windchill:Wind:
Aussen-T/F 2826 06-10-2009 13:30:03 17.2 C 11.28 g/m*3 17.2 C 0 km/h
2827 06-10-2009 13:42:02 17 C 11.43 g/m*3 17 C 0 km/h
2828 06-10-2009 13:54:02 16.9 C 11.65 g/m*3 16.9 C 0 km/h
2829 06-10-2009 14:06:02 17.1 C 11.79 g/m*3 17.1 C 0 km/h
2830 06-10-2009 14:18:02 17.4 C 12 g/m*3 17.4 C 0 km/h
2831 06-10-2009 14:30:02 17.4 C 12.15 g/m*3 17.4 C 0 km/h
2832 06-10-2009 14:42:02 17 C 12.01 g/m*3 17 C 0 km/h
2833 06-10-2009 14:54:02 16.8 C 12.15 g/m*3 16.8 C 0 km/h
2834 06-10-2009 15:06:01 16.8 C 12.3 g/m*3 16.8 C 0 km/h
2835 06-10-2009 15:18:02 16.9 C 12.51 g/m*3 16.9 C 0 km/h
2836 06-10-2009 15:30:02 17.1 C 12.66 g/m*3 17.1 C 0 km/h
2837 06-10-2009 15:42:02 17 C 12.59 g/m*3 17 C 0 km/h
2838 06-10-2009 15:54:02 17.3 C 12.96 g/m*3 17.3 C 0 km/h
2839 06-10-2009 16:06:03 17.5 C 13.12 g/m*3 17.5 C 0 km/h
2840 06-10-2009 16:18:02 17.4 C 13.04 g/m*3 17.4 C 0 km/h
2841 06-10-2009 16:30:02 17.2 C 12.89 g/m*3 17.2 C 0 km/h
2842 06-10-2009 16:42:03 17.1 C 12.96 g/m*3 17.1 C 0 km/h
2843 06-10-2009 16:54:02 17.2 C 13.03 g/m*3 17.2 C 0 km/h
2844 06-10-2009 17:06:02 17.1 C 12.96 g/m*3 17.1 C 0 km/h
2845 06-10-2009 17:18:01 17 C 12.88 g/m*3 17 C 0 km/h
2846 06-10-2009 17:30:01 17.1 C 12.96 g/m*3 17.1 C 0 km/h
2847 06-10-2009 17:42:02 17.1 C 13.1 g/m*3 17.1 C 0 km/h
2848 06-10-2009 17:54:02 17.1 C 13.1 g/m*3 17.1 C 0 km/h
2849 06-10-2009 18:06:02 16.8 C 13.01 g/m*3 16.8 C 0 km/h
2850 06-10-2009 18:18:01 16.8 C 13.01 g/m*3 16.8 C 0 km/h
Sensor: Nr:Datum:Temp:Abs-Feuchte:Windchill:Wind:
Aussen-T/F 2851 06-10-2009 18:30:01 16.7 C 13.07 g/m*3 16.7 C 0 km/h
2852 06-10-2009 18:42:02 16.7 C 13.07 g/m*3 16.7 C 0 km/h
2853 06-10-2009 18:54:02 16.7 C 13.07 g/m*3 16.7 C 0 km/h
2854 06-10-2009 19:06:02 16.7 C 13.22 g/m*3 16.7 C 0 km/h
2855 06-10-2009 19:18:02 17.2 C 13.62 g/m*3 17.2 C 0 km/h
2856 06-10-2009 19:30:02 17.5 C 13.87 g/m*3 17.5 C 0 km/h
2857 06-10-2009 19:42:02 18.1 C 14.06 g/m*3 18.1 C 0 km/h
2858 06-10-2009 19:54:01 18.2 C 13.68 g/m*3 18.2 C 0 km/h
2859 06-10-2009 20:06:02 18.4 C 13.53 g/m*3 18.4 C 0 km/h
2860 06-10-2009 20:18:02 18.3 C 13.29 g/m*3 18.3 C 0 km/h
2861 06-10-2009 20:30:02 18.4 C 13.37 g/m*3 18.4 C 0 km/h
2862 06-10-2009 20:42:02 18.4 C 13.21 g/m*3 18.4 C 0 km/h
2863 06-10-2009 20:54:01 18.5 C 13.13 g/m*3 18.5 C 0 km/h
2864 06-10-2009 21:06:02 18.4 C 13.05 g/m*3 18.4 C 0 km/h
2865 06-10-2009 21:18:02 18.3 C 12.98 g/m*3 18.3 C 0 km/h
2866 06-10-2009 21:30:02 18.4 C 13.05 g/m*3 18.4 C 0 km/h
2867 06-10-2009 21:42:02 18.5 C 13.13 g/m*3 18.5 C 0 km/h
2868 06-10-2009 21:54:02 18.5 C 13.13 g/m*3 18.5 C 0 km/h
2869 06-10-2009 22:06:01 18.4 C 13.05 g/m*3 18.4 C 0 km/h
2870 06-10-2009 22:19:03 18.3 C 13.13 g/m*3 18.3 C 0 km/h
2871 06-10-2009 22:31:04 18.3 C 13.13 g/m*3 18.3 C 0 km/h
2872 06-10-2009 22:43:04 18.3 C 13.13 g/m*3 18.3 C 0 km/h
2873 06-10-2009 22:55:04 18.3 C 13.13 g/m*3 18.3 C 0 km/h
2874 06-10-2009 23:07:04 18.3 C 13.13 g/m*3 18.3 C 0 km/h
2875 06-10-2009 23:19:04 18.1 C 13.13 g/m*3 18.1 C 0 km/h
Sensor: Nr:Datum:Temp:Abs-Feuchte:Windchill:Wind:
Aussen-T/F 2876 06-10-2009 23:31:04 18 C 13.21 g/m*3 18 C 0 km/h
2877 06-10-2009 23:43:04 17.8 C 13.2 g/m*3 17.8 C 0 km/h
2878 06-10-2009 23:55:04 17.7 C 13.13 g/m*3 17.7 C 0 km/h
2879 07-10-2009 00:07:04 17.8 C 13.36 g/m*3 17.8 C 0 km/h
2880 07-10-2009 00:19:04 17.9 C 13.44 g/m*3 17.9 C 0 km/h
2881 07-10-2009 00:31:04 17.8 C 13.2 g/m*3 17.8 C 0 km/h
2882 07-10-2009 00:43:04 17.7 C 13.13 g/m*3 17.7 C 0 km/h
2883 07-10-2009 00:55:04 18 C 13.21 g/m*3 18 C 0 km/h
2884 07-10-2009 01:07:04 17.9 C 13.28 g/m*3 17.9 C 0 km/h
2885 07-10-2009 01:19:04 18 C 13.06 g/m*3 18 C 0 km/h
2886 07-10-2009 01:31:04 18.1 C 13.13 g/m*3 18.1 C 0 km/h
2887 07-10-2009 01:43:04 17.8 C 13.05 g/m*3 17.8 C 0 km/h
2888 07-10-2009 01:55:04 17.5 C 12.97 g/m*3 17.5 C 0 km/h
2889 07-10-2009 02:07:04 17.1 C 12.66 g/m*3 17.1 C 0 km/h
2890 07-10-2009 02:19:05 17.1 C 12.96 g/m*3 17.1 C 0 km/h
2891 07-10-2009 02:31:05 17 C 12.88 g/m*3 17 C 0 km/h
2892 07-10-2009 02:43:05 17.2 C 13.18 g/m*3 17.2 C 0 km/h
2893 07-10-2009 02:55:05 17 C 13.02 g/m*3 17 C 0 km/h
2894 07-10-2009 03:07:05 16.9 C 13.09 g/m*3 16.9 C 0 km/h
2895 07-10-2009 03:19:05 16.7 C 12.93 g/m*3 16.7 C 0 km/h
2896 07-10-2009 03:31:05 16.5 C 12.92 g/m*3 16.5 C 0 km/h
2897 07-10-2009 03:43:05 16.5 C 12.92 g/m*3 16.5 C 0 km/h
2898 07-10-2009 03:55:05 16.3 C 12.76 g/m*3 16.3 C 0 km/h
2899 07-10-2009 04:07:05 16.1 C 12.61 g/m*3 16.1 C 0 km/h
2900 07-10-2009 04:19:05 16.2 C 12.69 g/m*3 16.2 C 0 km/h
Sensor: Nr:Datum:Temp:Abs-Feuchte:Windchill:Wind:
Aussen-T/F 2901 07-10-2009 04:31:05 16.4 C 12.98 g/m*3 16.4 C 0 km/h
2902 07-10-2009 04:43:05 16.4 C 12.98 g/m*3 16.4 C 0 km/h
2903 07-10-2009 04:55:05 16.3 C 12.9 g/m*3 16.3 C 0 km/h
2904 07-10-2009 05:07:05 16.3 C 12.9 g/m*3 16.3 C 0 km/h
2905 07-10-2009 05:19:05 16.4 C 13.12 g/m*3 16.4 C 0 km/h
2906 07-10-2009 05:31:05 16.3 C 13.04 g/m*3 16.3 C 0 km/h
2907 07-10-2009 05:43:05 16.2 C 12.96 g/m*3 16.2 C 0 km/h
2908 07-10-2009 05:55:05 15.9 C 12.73 g/m*3 15.9 C 0 km/h
2909 07-10-2009 06:07:06 15.8 C 12.65 g/m*3 15.8 C 0 km/h
2910 07-10-2009 06:19:06 15.5 C 12.43 g/m*3 15.5 C 0 km/h
2911 07-10-2009 06:31:06 15.4 C 12.35 g/m*3 15.4 C 0 km/h
2912 07-10-2009 06:43:06 15.2 C 12.2 g/m*3 15.2 C 0 km/h
2913 07-10-2009 06:55:06 15.4 C 12.35 g/m*3 15.4 C 0 km/h
2914 07-10-2009 07:07:06 15.4 C 12.35 g/m*3 15.4 C 0 km/h
2915 07-10-2009 07:19:03 15.5 C 12.56 g/m*3 15.5 C 0 km/h
2916 07-10-2009 07:31:03 15.6 C 12.63 g/m*3 15.6 C 0 km/h
2917 07-10-2009 07:43:03 16.1 C 13.02 g/m*3 16.1 C 0 km/h
2918 07-10-2009 07:55:01 16.6 C 13.42 g/m*3 16.6 C 0 km/h
2919 07-10-2009 08:07:02 16.8 C 13.58 g/m*3 16.8 C 0 km/h
2920 07-10-2009 08:19:01 16.8 C 13.58 g/m*3 16.8 C 0 km/h
2921 07-10-2009 08:31:01 17.2 C 13.91 g/m*3 17.2 C 0 km/h
2922 07-10-2009 08:43:01 17.2 C 13.91 g/m*3 17.2 C 0 km/h
2923 07-10-2009 08:55:01 17.5 C 14.16 g/m*3 17.5 C 0 km/h
2924 07-10-2009 09:07:02 17.6 C 14.25 g/m*3 17.6 C 0 km/h
2925 07-10-2009 09:19:01 17.9 C 14.5 g/m*3 17.9 C 0 km/h
Sensor: Nr:Datum:Temp:Abs-Feuchte:Windchill:Wind:
Aussen-T/F 2926 07-10-2009 09:31:01 18.1 C 14.52 g/m*3 18.1 C 0 km/h
2927 07-10-2009 09:43:01 17.8 C 14.27 g/m*3 17.8 C 0 km/h
2928 07-10-2009 09:55:01 18.3 C 14.38 g/m*3 18.3 C 0 km/h
2929 07-10-2009 10:07:02 18.7 C 14.41 g/m*3 18.7 C 0 km/h
2930 07-10-2009 10:19:02 19 C 14.01 g/m*3 19 C 0 km/h
2931 07-10-2009 10:31:01 19.5 C 13.59 g/m*3 19.5 C 0 km/h
2932 07-10-2009 10:43:01 20.2 C 12.94 g/m*3 20.2 C 0 km/h
2933 07-10-2009 10:55:02 20.5 C 12.99 g/m*3 20.5 C 0 km/h
2934 07-10-2009 11:07:01 20.5 C 12.63 g/m*3 20.5 C 0 km/h
2935 07-10-2009 11:19:01 20.5 C 12.63 g/m*3 20.5 C 0 km/h
2936 07-10-2009 11:31:02 20.6 C 12.53 g/m*3 20.6 C 0 km/h
2937 07-10-2009 11:43:02 20.9 C 12.57 g/m*3 20.9 C 0 km/h
2938 07-10-2009 11:55:01 21.3 C 12.49 g/m*3 21.3 C 0 km/h
2939 07-10-2009 12:07:02 21.3 C 12.3 g/m*3 21.3 C 0 km/h
2940 07-10-2009 12:19:01 21.5 C 12.82 g/m*3 21.5 C 0 km/h
2941 07-10-2009 12:31:02 21.8 C 12.66 g/m*3 21.8 C 0 km/h
2942 07-10-2009 12:43:02 22 C 12.81 g/m*3 22 C 0 km/h
2943 07-10-2009 12:55:01 22.5 C 12.78 g/m*3 22.5 C 0 km/h
2944 07-10-2009 13:07:02 23.1 C 12.2 g/m*3 23.1 C 0 km/h
2945 07-10-2009 13:19:01 23.1 C 12.2 g/m*3 23.1 C 0 km/h
2946 07-10-2009 13:31:02 23.4 C 12.62 g/m*3 23.4 C 0 km/h
2947 07-10-2009 13:43:02 23.8 C 12.05 g/m*3 23.8 C 0 km/h
2948 07-10-2009 13:55:01 24.3 C 11.51 g/m*3 24.3 C 0 km/h
2949 07-10-2009 14:07:02 24.9 C 11.22 g/m*3 24.9 C 0 km/h
2950 07-10-2009 14:19:02 24.8 C 10.47 g/m*3 24.8 C 0 km/h
Sensor: Nr:Datum:Temp:Abs-Feuchte:Windchill:Wind:
Aussen-T/F 2951 07-10-2009 14:31:01 24.6 C 10.58 g/m*3 24.6 C 0 km/h
2952 07-10-2009 14:43:01 24.3 C 10.4 g/m*3 24.3 C 0 km/h
2953 07-10-2009 14:55:02 24.5 C 10.74 g/m*3 24.5 C 0 km/h
2954 07-10-2009 15:07:01 24.6 C 10.8 g/m*3 24.6 C 0 km/h
2955 07-10-2009 15:19:02 24.5 C 11.64 g/m*3 24.5 C 0 km/h
2956 07-10-2009 15:31:01 24.3 C 11.06 g/m*3 24.3 C 0 km/h
2957 07-10-2009 15:43:01 24.4 C 11.35 g/m*3 24.4 C 0 km/h
2958 07-10-2009 15:55:03 24.6 C 11.7 g/m*3 24.6 C 0 km/h
2959 07-10-2009 16:07:02 24.1 C 11.82 g/m*3 24.1 C 0 km/h
2960 07-10-2009 16:19:02 24 C 11.1 g/m*3 24 C 0 km/h
2961 07-10-2009 16:31:03 23.9 C 10.6 g/m*3 23.9 C 0 km/h
2962 07-10-2009 16:43:03 24 C 11.31 g/m*3 24 C 0 km/h
2963 07-10-2009 16:55:02 23.8 C 11.83 g/m*3 23.8 C 0 km/h
2964 07-10-2009 17:07:01 23.3 C 12.55 g/m*3 23.3 C 0 km/h
2965 07-10-2009 17:19:02 23 C 12.74 g/m*3 23 C 0 km/h
2966 07-10-2009 17:31:02 22.8 C 13 g/m*3 22.8 C 0 km/h
2967 07-10-2009 17:43:02 22.5 C 13.38 g/m*3 22.5 C 0 km/h
2968 07-10-2009 17:55:01 22 C 13.39 g/m*3 22 C 0 km/h
2969 07-10-2009 18:07:02 21.7 C 13.35 g/m*3 21.7 C 0 km/h
2970 07-10-2009 18:19:01 21.4 C 13.31 g/m*3 21.4 C 0 km/h
2971 07-10-2009 18:31:01 21 C 13.37 g/m*3 21 C 0 km/h
2972 07-10-2009 18:43:02 20.8 C 13.4 g/m*3 20.8 C 0 km/h
2973 07-10-2009 18:55:01 20.4 C 13.09 g/m*3 20.4 C 0 km/h
2974 07-10-2009 19:07:02 20.3 C 13.01 g/m*3 20.3 C 0 km/h
2975 07-10-2009 19:19:01 20.1 C 13.04 g/m*3 20.1 C 0 km/h
Sensor: Nr:Datum:Temp:Abs-Feuchte:Windchill:Wind:
Aussen-T/F 2976 07-10-2009 19:31:02 20.1 C 13.04 g/m*3 20.1 C 0 km/h
2977 07-10-2009 19:43:02 20 C 12.96 g/m*3 20 C 0 km/h
2978 07-10-2009 19:55:01 19.9 C 13.06 g/m*3 19.9 C 0 km/h
2979 07-10-2009 20:07:02 19.9 C 13.23 g/m*3 19.9 C 0 km/h
2980 07-10-2009 20:19:01 19.7 C 13.08 g/m*3 19.7 C 0 km/h
2981 07-10-2009 20:31:02 19.7 C 13.25 g/m*3 19.7 C 0 km/h
2982 07-10-2009 20:43:02 19.4 C 13.01 g/m*3 19.4 C 0 km/h
2983 07-10-2009 20:55:01 19.5 C 13.09 g/m*3 19.5 C 0 km/h
2984 07-10-2009 21:07:01 19.5 C 13.09 g/m*3 19.5 C 0 km/h
2985 07-10-2009 21:19:02 19.5 C 12.59 g/m*3 19.5 C 0 km/h
2986 07-10-2009 21:31:02 19.6 C 12.15 g/m*3 19.6 C 0 km/h
2987 07-10-2009 21:43:02 19.7 C 11.89 g/m*3 19.7 C 0 km/h
2988 07-10-2009 21:55:02 19.7 C 11.72 g/m*3 19.7 C 0 km/h
2989 07-10-2009 22:07:02 19.6 C 11.48 g/m*3 19.6 C 0 km/h
2990 07-10-2009 22:19:02 19.7 C 11.55 g/m*3 19.7 C 0 km/h
2991 07-10-2009 22:31:02 20 C 11.06 g/m*3 20 C 0 km/h
2992 07-10-2009 22:43:02 20.3 C 11.08 g/m*3 20.3 C 0 km/h
2993 07-10-2009 22:55:01 20.2 C 11.02 g/m*3 20.2 C 0 km/h
2994 07-10-2009 23:07:01 20 C 11.23 g/m*3 20 C 0 km/h
2995 07-10-2009 23:19:02 20 C 11.23 g/m*3 20 C 0 km/h
2996 07-10-2009 23:31:01 19.8 C 11.61 g/m*3 19.8 C 0 km/h
2997 07-10-2009 23:43:01 19.6 C 11.82 g/m*3 19.6 C 0 km/h
2998 07-10-2009 23:55:01 19 C 12.06 g/m*3 19 C 0 km/h
2999 08-10-2009 00:07:01 18.5 C 12.66 g/m*3 18.5 C 0 km/h
3000 08-10-2009 00:20:02 18.3 C 12.82 g/m*3 18.3 C 0 km/h
Sensor: Nr:Datum:Temp:Abs-Feuchte:Windchill:Wind:
Aussen-T/F 3001 08-10-2009 00:32:03 18.5 C 12.02 g/m*3 18.5 C 0 km/h
3002 08-10-2009 00:44:03 19.3 C 11.94 g/m*3 19.3 C 0 km/h
3003 08-10-2009 00:56:03 18.5 C 12.66 g/m*3 18.5 C 0 km/h
3004 08-10-2009 01:08:03 18.1 C 12.98 g/m*3 18.1 C 0 km/h
3005 08-10-2009 01:20:03 17.9 C 13.28 g/m*3 17.9 C 0 km/h
3006 08-10-2009 01:32:03 17.7 C 13.28 g/m*3 17.7 C 0 km/h
3007 08-10-2009 01:44:03 17.5 C 13.27 g/m*3 17.5 C 0 km/h
3008 08-10-2009 01:56:03 17.3 C 13.11 g/m*3 17.3 C 0 km/h
3009 08-10-2009 02:08:03 17.3 C 13.11 g/m*3 17.3 C 0 km/h
3010 08-10-2009 02:20:03 17.2 C 13.18 g/m*3 17.2 C 0 km/h
3011 08-10-2009 02:32:03 17.2 C 13.18 g/m*3 17.2 C 0 km/h
3012 08-10-2009 02:44:03 17.2 C 13.18 g/m*3 17.2 C 0 km/h
3013 08-10-2009 02:56:03 17.4 C 13.34 g/m*3 17.4 C 0 km/h
3014 08-10-2009 03:08:03 17.9 C 13.13 g/m*3 17.9 C 0 km/h
3015 08-10-2009 03:20:03 18.5 C 12.5 g/m*3 18.5 C 0 km/h
3016 08-10-2009 03:32:03 18.4 C 12.27 g/m*3 18.4 C 0 km/h
3017 08-10-2009 03:44:03 18.4 C 12.11 g/m*3 18.4 C 0 km/h
3018 08-10-2009 03:56:03 18.4 C 11.95 g/m*3 18.4 C 0 km/h
3019 08-10-2009 04:08:03 18.6 C 12.1 g/m*3 18.6 C 0 km/h
3020 08-10-2009 04:20:04 18.8 C 11.92 g/m*3 18.8 C 0 km/h
3021 08-10-2009 04:32:04 18.7 C 11.85 g/m*3 18.7 C 0 km/h
3022 08-10-2009 04:44:04 18.7 C 11.69 g/m*3 18.7 C 0 km/h
3023 08-10-2009 04:56:04 18.7 C 11.69 g/m*3 18.7 C 0 km/h
3024 08-10-2009 05:08:04 18.8 C 11.76 g/m*3 18.8 C 0 km/h
3025 08-10-2009 05:20:04 19 C 11.57 g/m*3 19 C 0 km/h
Sensor: Nr:Datum:Temp:Abs-Feuchte:Windchill:Wind:
Aussen-T/F 3026 08-10-2009 05:32:04 18.9 C 11.66 g/m*3 18.9 C 0 km/h
3027 08-10-2009 05:44:04 19 C 11.57 g/m*3 19 C 0 km/h
3028 08-10-2009 05:56:04 19.1 C 11.64 g/m*3 19.1 C 0 km/h
3029 08-10-2009 06:08:04 19.1 C 11.64 g/m*3 19.1 C 0 km/h
3030 08-10-2009 06:20:04 18.9 C 11.66 g/m*3 18.9 C 0 km/h
3031 08-10-2009 06:32:04 18.8 C 11.76 g/m*3 18.8 C 0 km/h
3032 08-10-2009 06:44:04 18.6 C 11.62 g/m*3 18.6 C 0 km/h
3033 08-10-2009 06:56:04 18.5 C 11.71 g/m*3 18.5 C 0 km/h
3034 08-10-2009 07:08:04 18.5 C 11.71 g/m*3 18.5 C 0 km/h
3035 08-10-2009 07:20:03 18.7 C 11.69 g/m*3 18.7 C 0 km/h
3036 08-10-2009 07:32:02 18.8 C 11.43 g/m*3 18.8 C 0 km/h
3037 08-10-2009 07:44:02 18.8 C 11.27 g/m*3 18.8 C 0 km/h
3038 08-10-2009 07:56:03 18.8 C 11.27 g/m*3 18.8 C 0 km/h
3039 08-10-2009 08:08:02 18.6 C 11.46 g/m*3 18.6 C 0 km/h
3040 08-10-2009 08:20:02 18.6 C 11.3 g/m*3 18.6 C 0 km/h
3041 08-10-2009 08:32:02 18.7 C 11.37 g/m*3 18.7 C 0 km/h
3042 08-10-2009 08:44:02 18.6 C 11.46 g/m*3 18.6 C 0 km/h
3043 08-10-2009 08:56:02 17.8 C 11.69 g/m*3 17.8 C 0 km/h
3044 08-10-2009 09:08:02 17.5 C 12.08 g/m*3 17.5 C 0 km/h
3045 08-10-2009 09:20:02 17.7 C 11.77 g/m*3 17.7 C 0 km/h
3046 08-10-2009 09:32:02 17.2 C 11.13 g/m*3 17.2 C 0 km/h
3047 08-10-2009 09:44:02 16.4 C 10.75 g/m*3 16.4 C 0 km/h
3048 08-10-2009 09:56:02 15.9 C 10.43 g/m*3 15.9 C 0 km/h
3049 08-10-2009 10:08:01 15.8 C 10.23 g/m*3 15.8 C 0 km/h
3050 08-10-2009 10:20:01 15.6 C 9.97 g/m*3 15.6 C 0 km/h
Sensor: Nr:Datum:Temp:Abs-Feuchte:Windchill:Wind:
Aussen-T/F 3051 08-10-2009 10:32:02 15.3 C 9.79 g/m*3 15.3 C 0 km/h
3052 08-10-2009 10:44:02 15.2 C 9.86 g/m*3 15.2 C 0 km/h
3053 08-10-2009 10:56:02 15.2 C 9.73 g/m*3 15.2 C 0 km/h
3054 08-10-2009 11:08:02 14.8 C 9.63 g/m*3 14.8 C 0 km/h
3055 08-10-2009 11:20:02 14.6 C 9.51 g/m*3 14.6 C 0 km/h
3056 08-10-2009 11:32:02 14.6 C 9.39 g/m*3 14.6 C 0 km/h
3057 08-10-2009 11:44:02 14.8 C 9.37 g/m*3 14.8 C 0 km/h
3058 08-10-2009 11:56:01 15.1 C 9.03 g/m*3 15.1 C 0 km/h
3059 08-10-2009 12:08:02 14.9 C 8.92 g/m*3 14.9 C 0 km/h
3060 08-10-2009 12:20:01 15.3 C 8.88 g/m*3 15.3 C 0 km/h
3061 08-10-2009 12:32:02 15.3 C 8.49 g/m*3 15.3 C 0 km/h
3062 08-10-2009 12:44:03 15.8 C 8.88 g/m*3 15.8 C 0 km/h
3063 08-10-2009 12:56:02 16 C 8.31 g/m*3 16 C 0 km/h
3064 08-10-2009 13:08:02 16.3 C 8.6 g/m*3 16.3 C 0 km/h
3065 08-10-2009 13:20:01 16.9 C 8.92 g/m*3 16.9 C 0 km/h
3066 08-10-2009 13:32:02 17.7 C 8.6 g/m*3 17.7 C 0 km/h
3067 08-10-2009 13:44:02 16.8 C 8.44 g/m*3 16.8 C 0 km/h
3068 08-10-2009 13:56:02 17.6 C 8.85 g/m*3 17.6 C 0 km/h
3069 08-10-2009 14:08:02 17 C 8.25 g/m*3 17 C 0 km/h
3070 08-10-2009 14:20:02 17.4 C 8.45 g/m*3 17.4 C 0 km/h
3071 08-10-2009 14:32:02 17.4 C 8.3 g/m*3 17.4 C 0 km/h
3072 08-10-2009 14:44:02 18 C 8.29 g/m*3 18 C 0 km/h
3073 08-10-2009 14:56:02 17.9 C 8.4 g/m*3 17.9 C 0 km/h
3074 08-10-2009 15:08:03 18.2 C 8.39 g/m*3 18.2 C 0 km/h
3075 08-10-2009 15:20:02 18.6 C 8.12 g/m*3 18.6 C 0 km/h
Sensor: Nr:Datum:Temp:Abs-Feuchte:Windchill:Wind:
Aussen-T/F 3076 08-10-2009 15:32:02 18 C 7.99 g/m*3 18 C 0 km/h
3077 08-10-2009 15:44:02 17.5 C 8.2 g/m*3 17.5 C 0 km/h
3078 08-10-2009 15:56:02 17.4 C 8.3 g/m*3 17.4 C 0 km/h
3079 08-10-2009 16:08:02 17.8 C 8.35 g/m*3 17.8 C 0 km/h
3080 08-10-2009 16:20:02 17.8 C 8.35 g/m*3 17.8 C 0 km/h
3081 08-10-2009 16:32:01 17.3 C 8.25 g/m*3 17.3 C 0 km/h
3082 08-10-2009 16:44:01 17.2 C 8.35 g/m*3 17.2 C 0 km/h
3083 08-10-2009 16:56:02 16.8 C 8.44 g/m*3 16.8 C 0 km/h
3084 08-10-2009 17:08:01 16.4 C 8.1 g/m*3 16.4 C 0 km/h
3085 08-10-2009 17:20:02 16.2 C 8.27 g/m*3 16.2 C 0 km/h
3086 08-10-2009 17:32:02 16.1 C 8.09 g/m*3 16.1 C 0 km/h
3087 08-10-2009 17:44:02 15.8 C 8.35 g/m*3 15.8 C 0 km/h
3088 08-10-2009 17:56:02 15.5 C 8.33 g/m*3 15.5 C 0 km/h
3089 08-10-2009 18:08:01 15.5 C 8.33 g/m*3 15.5 C 0 km/h
3090 08-10-2009 18:20:01 15.4 C 8.28 g/m*3 15.4 C 0 km/h
3091 08-10-2009 18:32:02 15.1 C 8.26 g/m*3 15.1 C 0 km/h
3092 08-10-2009 18:44:02 15.1 C 8.26 g/m*3 15.1 C 0 km/h
3093 08-10-2009 18:56:02 15 C 8.21 g/m*3 15 C 0 km/h
3094 08-10-2009 19:08:02 15.1 C 8.39 g/m*3 15.1 C 0 km/h
3095 08-10-2009 19:20:02 15.1 C 8.39 g/m*3 15.1 C 0 km/h
3096 08-10-2009 19:32:02 14.9 C 8.28 g/m*3 14.9 C 0 km/h
3097 08-10-2009 19:44:02 14.6 C 8.26 g/m*3 14.6 C 0 km/h
3098 08-10-2009 19:56:02 14.3 C 8.35 g/m*3 14.3 C 0 km/h
3099 08-10-2009 20:08:03 13.9 C 8.39 g/m*3 13.9 C 0 km/h
3100 08-10-2009 20:20:02 13.8 C 8.46 g/m*3 13.8 C 0 km/h
Sensor: Nr:Datum:Temp:Abs-Feuchte:Windchill:Wind:
Aussen-T/F 3101 08-10-2009 20:32:02 13.6 C 8.47 g/m*3 13.6 C 0 km/h
3102 08-10-2009 20:44:02 13.4 C 8.49 g/m*3 13.4 C 0 km/h
3103 08-10-2009 20:56:01 13.1 C 8.44 g/m*3 13.1 C 0 km/h
3104 08-10-2009 21:08:01 13.2 C 8.61 g/m*3 13.2 C 0 km/h
3105 08-10-2009 21:20:02 13.3 C 8.66 g/m*3 13.3 C 0 km/h
3106 08-10-2009 21:32:01 13.1 C 8.44 g/m*3 13.1 C 0 km/h
3107 08-10-2009 21:44:01 12.8 C 8.51 g/m*3 12.8 C 0 km/h
3108 08-10-2009 21:56:02 12.5 C 8.47 g/m*3 12.5 C 0 km/h
3109 08-10-2009 22:08:01 12.3 C 8.47 g/m*3 12.3 C 0 km/h
3110 08-10-2009 22:20:01 12.1 C 8.47 g/m*3 12.1 C 0 km/h
3111 08-10-2009 22:32:01 12 C 8.53 g/m*3 12 C 0 km/h
3112 08-10-2009 22:44:01 11.7 C 8.47 g/m*3 11.7 C 0 km/h
3113 08-10-2009 22:57:03 11.7 C 8.58 g/m*3 11.7 C 0 km/h
3114 08-10-2009 23:09:03 11.5 C 8.57 g/m*3 11.5 C 0 km/h
3115 08-10-2009 23:21:03 11.4 C 8.52 g/m*3 11.4 C 0 km/h
3116 08-10-2009 23:33:04 11.3 C 8.47 g/m*3 11.3 C 0 km/h
3117 08-10-2009 23:45:04 11.2 C 8.41 g/m*3 11.2 C 0 km/h
3118 08-10-2009 23:57:04 11.2 C 8.51 g/m*3 11.2 C 0 km/h
3119 09-10-2009 00:09:04 11.2 C 8.51 g/m*3 11.2 C 0 km/h
3120 09-10-2009 00:21:04 11.1 C 8.46 g/m*3 11.1 C 0 km/h
3121 09-10-2009 00:33:04 10.8 C 8.3 g/m*3 10.8 C 0 km/h
3122 09-10-2009 00:45:04 10.8 C 8.3 g/m*3 10.8 C 0 km/h
3123 09-10-2009 00:57:04 11.1 C 8.46 g/m*3 11.1 C 0 km/h
3124 09-10-2009 01:09:04 11.2 C 8.51 g/m*3 11.2 C 0 km/h
3125 09-10-2009 01:21:04 11.1 C 8.36 g/m*3 11.1 C 0 km/h
Sensor: Nr:Datum:Temp:Abs-Feuchte:Windchill:Wind:
Aussen-T/F 3126 09-10-2009 01:33:04 10.7 C 8.15 g/m*3 10.7 C 0 km/h
3127 09-10-2009 01:45:04 10.4 C 8 g/m*3 10.4 C 0 km/h
3128 09-10-2009 01:57:04 10.2 C 7.99 g/m*3 10.2 C 0 km/h
3129 09-10-2009 02:09:04 9.8 C 7.89 g/m*3 9.8 C 0 km/h
3130 09-10-2009 02:21:04 9.6 C 7.79 g/m*3 9.6 C 0 km/h
3131 09-10-2009 02:33:04 9.6 C 7.88 g/m*3 9.6 C 0 km/h
3132 09-10-2009 02:45:04 9.3 C 7.73 g/m*3 9.3 C 0 km/h
3133 09-10-2009 02:57:04 9.1 C 7.63 g/m*3 9.1 C 0 km/h
3134 09-10-2009 03:09:04 9.1 C 7.72 g/m*3 9.1 C 0 km/h
3135 09-10-2009 03:21:05 9 C 7.67 g/m*3 9 C 0 km/h
3136 09-10-2009 03:33:05 8.9 C 7.8 g/m*3 8.9 C 0 km/h
3137 09-10-2009 03:45:05 8.8 C 7.75 g/m*3 8.8 C 0 km/h
3138 09-10-2009 03:57:05 8.7 C 7.7 g/m*3 8.7 C 0 km/h
3139 09-10-2009 04:09:05 8.6 C 7.65 g/m*3 8.6 C 0 km/h
3140 09-10-2009 04:21:05 8.4 C 7.55 g/m*3 8.4 C 0 km/h
3141 09-10-2009 04:33:05 8.3 C 7.5 g/m*3 8.3 C 0 km/h
3142 09-10-2009 04:45:05 8.2 C 7.45 g/m*3 8.2 C 0 km/h
3143 09-10-2009 04:57:05 8.1 C 7.41 g/m*3 8.1 C 0 km/h
3144 09-10-2009 05:09:05 8.1 C 7.49 g/m*3 8.1 C 0 km/h
3145 09-10-2009 05:21:05 8 C 7.44 g/m*3 8 C 0 km/h
3146 09-10-2009 05:33:05 7.9 C 7.47 g/m*3 7.9 C 0 km/h
3147 09-10-2009 05:45:05 7.7 C 7.3 g/m*3 7.7 C 0 km/h
3148 09-10-2009 05:57:05 7.6 C 7.25 g/m*3 7.6 C 0 km/h
3149 09-10-2009 06:09:05 7.5 C 7.2 g/m*3 7.5 C 0 km/h
3150 09-10-2009 06:21:05 7.5 C 7.28 g/m*3 7.5 C 0 km/h
Sensor: Nr:Datum:Temp:Abs-Feuchte:Windchill:Wind:
Aussen-T/F 3151 09-10-2009 06:33:05 7.4 C 7.16 g/m*3 7.4 C 0 km/h
3152 09-10-2009 06:45:01 7.2 C 7.06 g/m*3 7.2 C 0 km/h
3153 09-10-2009 06:57:01 7.2 C 7.06 g/m*3 7.2 C 0 km/h
3154 09-10-2009 07:09:02 6.9 C 7.01 g/m*3 6.9 C 0 km/h
3155 09-10-2009 07:21:02 6.7 C 6.91 g/m*3 6.7 C 0 km/h
3156 09-10-2009 07:33:02 6.7 C 6.91 g/m*3 6.7 C 0 km/h
3157 09-10-2009 07:45:01 6.7 C 6.99 g/m*3 6.7 C 0 km/h
3158 09-10-2009 07:57:01 6.7 C 6.99 g/m*3 6.7 C 0 km/h
3159 09-10-2009 08:09:02 6.6 C 6.95 g/m*3 6.6 C 0 km/h
3160 09-10-2009 08:21:02 6.8 C 7.04 g/m*3 6.8 C 0 km/h
3161 09-10-2009 08:33:01 7.4 C 7.32 g/m*3 7.4 C 0 km/h
3162 09-10-2009 08:45:02 7.5 C 7.44 g/m*3 7.5 C 0 km/h
3163 09-10-2009 08:57:02 7.5 C 7.36 g/m*3 7.5 C 0 km/h
3164 09-10-2009 09:09:01 7.4 C 7.32 g/m*3 7.4 C 0 km/h
3165 09-10-2009 09:21:02 7.5 C 7.36 g/m*3 7.5 C 0 km/h
3166 09-10-2009 09:33:01 7.5 C 7.36 g/m*3 7.5 C 0 km/h
3167 09-10-2009 09:45:02 7.5 C 7.36 g/m*3 7.5 C 0 km/h
3168 09-10-2009 09:57:02 7.6 C 7.41 g/m*3 7.6 C 0 km/h
3169 09-10-2009 10:09:02 7.6 C 7.41 g/m*3 7.6 C 0 km/h
3170 09-10-2009 10:21:02 7.9 C 7.56 g/m*3 7.9 C 0 km/h
3171 09-10-2009 10:33:03 8.4 C 7.8 g/m*3 8.4 C 0 km/h
3172 09-10-2009 10:45:02 9 C 8.02 g/m*3 9 C 0 km/h
3173 09-10-2009 10:57:03 9.5 C 8.28 g/m*3 9.5 C 0 km/h
3174 09-10-2009 11:09:01 9.9 C 8.5 g/m*3 9.9 C 0 km/h
3175 09-10-2009 11:21:02 10.4 C 8.58 g/m*3 10.4 C 0 km/h
Sensor: Nr:Datum:Temp:Abs-Feuchte:Windchill:Wind:
Aussen-T/F 3176 09-10-2009 11:33:02 10.8 C 8.6 g/m*3 10.8 C 0 km/h
3177 09-10-2009 11:45:02 11.1 C 8.26 g/m*3 11.1 C 0 km/h
3178 09-10-2009 11:57:02 11.8 C 7.68 g/m*3 11.8 C 0 km/h
3179 09-10-2009 12:09:03 12.4 C 6.88 g/m*3 12.4 C 0 km/h
3180 09-10-2009 12:21:02 12.8 C 6.61 g/m*3 12.8 C 0 km/h
3181 09-10-2009 12:33:02 13.3 C 6.7 g/m*3 13.3 C 0 km/h
3182 09-10-2009 12:45:01 13.7 C 6.51 g/m*3 13.7 C 0 km/h
3183 09-10-2009 12:57:01 14.2 C 6.35 g/m*3 14.2 C 0 km/h
3184 09-10-2009 13:09:02 14.7 C 6.42 g/m*3 14.7 C 0 km/h
3185 09-10-2009 13:21:01 15.2 C 6.1 g/m*3 15.2 C 0 km/h
3186 09-10-2009 13:33:02 15.8 C 6.33 g/m*3 15.8 C 0 km/h
3187 09-10-2009 13:45:01 16.3 C 6.24 g/m*3 16.3 C 0 km/h
3188 09-10-2009 13:57:01 17.1 C 6.55 g/m*3 17.1 C 0 km/h
3189 09-10-2009 14:09:02 17.5 C 6.41 g/m*3 17.5 C 0 km/h
3190 09-10-2009 14:21:01 17.9 C 6.26 g/m*3 17.9 C 0 km/h
3191 09-10-2009 14:33:02 18.1 C 6.18 g/m*3 18.1 C 0 km/h
3192 09-10-2009 14:45:01 18.9 C 6.32 g/m*3 18.9 C 0 km/h
3193 09-10-2009 14:57:01 18.7 C 6.24 g/m*3 18.7 C 0 km/h
3194 09-10-2009 15:09:02 18.5 C 6.17 g/m*3 18.5 C 0 km/h
3195 09-10-2009 15:21:01 18.4 C 6.13 g/m*3 18.4 C 0 km/h
3196 09-10-2009 15:33:02 18.2 C 5.91 g/m*3 18.2 C 0 km/h
3197 09-10-2009 15:45:01 18.2 C 6.22 g/m*3 18.2 C 0 km/h
3198 09-10-2009 15:57:01 17.9 C 5.95 g/m*3 17.9 C 0 km/h
3199 09-10-2009 16:09:02 17.8 C 6.07 g/m*3 17.8 C 0 km/h
3200 09-10-2009 16:21:02 17.8 C 6.22 g/m*3 17.8 C 0 km/h
Sensor: Nr:Datum:Temp:Abs-Feuchte:Windchill:Wind:
Aussen-T/F 3201 09-10-2009 16:33:01 17.8 C 6.22 g/m*3 17.8 C 0 km/h
3202 09-10-2009 16:45:01 17.7 C 6.19 g/m*3 17.7 C 0 km/h
3203 09-10-2009 16:57:01 17.4 C 6.22 g/m*3 17.4 C 0 km/h
3204 09-10-2009 17:09:01 17.2 C 6.3 g/m*3 17.2 C 0 km/h
3205 09-10-2009 17:21:02 17.2 C 6.15 g/m*3 17.2 C 0 km/h
3206 09-10-2009 17:33:01 18.2 C 6.22 g/m*3 18.2 C 0 km/h
3207 09-10-2009 17:45:02 17.9 C 5.8 g/m*3 17.9 C 0 km/h
3208 09-10-2009 17:57:02 18.1 C 6.33 g/m*3 18.1 C 0 km/h
3209 09-10-2009 18:09:01 17.7 C 6.64 g/m*3 17.7 C 0 km/h
3210 09-10-2009 18:21:02 17.3 C 6.78 g/m*3 17.3 C 0 km/h
3211 09-10-2009 18:33:01 15.8 C 6.73 g/m*3 15.8 C 0 km/h
3212 09-10-2009 18:45:02 14.3 C 6.76 g/m*3 14.3 C 0 km/h
3213 09-10-2009 18:57:02 13.5 C 6.9 g/m*3 13.5 C 0 km/h
3214 09-10-2009 19:09:02 13.1 C 6.96 g/m*3 13.1 C 0 km/h
3215 09-10-2009 19:21:02 13 C 7.14 g/m*3 13 C 0 km/h
3216 09-10-2009 19:33:01 13.3 C 7.16 g/m*3 13.3 C 0 km/h
3217 09-10-2009 19:45:02 13.5 C 7.25 g/m*3 13.5 C 0 km/h
3218 09-10-2009 19:57:02 13.4 C 7.32 g/m*3 13.4 C 0 km/h
3219 09-10-2009 20:09:01 13.2 C 7.35 g/m*3 13.2 C 0 km/h
3220 09-10-2009 20:21:01 13.2 C 7.23 g/m*3 13.2 C 0 km/h
3221 09-10-2009 20:33:02 13.2 C 7.35 g/m*3 13.2 C 0 km/h
3222 09-10-2009 20:45:02 13.2 C 7.46 g/m*3 13.2 C 0 km/h
3223 09-10-2009 20:57:02 13 C 7.26 g/m*3 13 C 0 km/h
3224 09-10-2009 21:09:02 13.1 C 7.53 g/m*3 13.1 C 0 km/h
3225 09-10-2009 21:21:02 13.2 C 7.46 g/m*3 13.2 C 0 km/h
Sensor: Nr:Datum:Temp:Abs-Feuchte:Windchill:Wind:
Aussen-T/F 3226 09-10-2009 21:34:03 13 C 7.26 g/m*3 13 C 0 km/h
3227 09-10-2009 21:46:04 13.2 C 7.12 g/m*3 13.2 C 0 km/h
3228 09-10-2009 21:58:04 13.1 C 7.19 g/m*3 13.1 C 0 km/h
3229 09-10-2009 22:10:04 13.1 C